0% found this document useful (0 votes)
23 views153 pages

Semarang Climate Data 2017-2023

The document contains daily climate data for Semarang from 2017 to 2023, detailing various meteorological parameters such as temperature, humidity, rainfall, and wind speed. Each entry includes the date and corresponding values for minimum and maximum temperatures, average temperature, average relative humidity, rainfall, sunshine hours, and wind speed. This data can be useful for analyzing climate trends and patterns over the specified period.

Uploaded by

Muhammad Ryan
Copyright
© All Rights Reserved
We take content rights seriously. If you suspect this is your content, claim it here.
Available Formats
Download as XLSX, PDF, TXT or read online on Scribd
0% found this document useful (0 votes)
23 views153 pages

Semarang Climate Data 2017-2023

The document contains daily climate data for Semarang from 2017 to 2023, detailing various meteorological parameters such as temperature, humidity, rainfall, and wind speed. Each entry includes the date and corresponding values for minimum and maximum temperatures, average temperature, average relative humidity, rainfall, sunshine hours, and wind speed. This data can be useful for analyzing climate trends and patterns over the specified period.

Uploaded by

Muhammad Ryan
Copyright
© All Rights Reserved
We take content rights seriously. If you suspect this is your content, claim it here.
Available Formats
Download as XLSX, PDF, TXT or read online on Scribd

Climate Daily Data in Semarang 2017-2023

Tanggal Tn Tx Tavg RH_avg RR ss ff_x


2017-02-01 00:00:00 25 30.8 26.2 86 4 5.3 6
2017-02-02 00:00:00 23.8 29.2 25.7 87 24 0.8 5
2017-02-03 00:00:00 23 30.2 26.1 85 17 2.3 5
2017-02-04 00:00:00 23.2 30.8 27.4 82 23 4.2 7
2017-02-05 00:00:00 24.2 31.2 27.3 84 11 5.7 5
2017-02-06 00:00:00 25 31 27.7 82 0 5.7 8
2017-02-07 00:00:00 23.8 31 27.9 78 37 5.2 9
2017-02-08 00:00:00 24.6 30.6 21.2 76 17 4.9 10
2017-02-09 00:00:00 23.2 28.4 25.8 89 22 0 8
2017-02-10 00:00:00 23.2 28.4 25.8 89 22 0 8
2017-02-11 00:00:00 23 26.8 25.1 95 36 0 3
2017-02-12 00:00:00 24 27.4 24.9 96 16 0.7 6
2017-02-13 00:00:00 23.8 30.4 26.4 91 15 4.8 6
2017-02-14 00:00:00 24.4 29.8 26.7 86 18 5.7 6
2017-02-15 00:00:00 24.4 30.2 26.6 87 20.5 4.9 8
2017-02-16 00:00:00 24 30.4 26.7 88 23 3.3 10
2017-02-17 00:00:00 25 30.8 27.2 86 0 4.6 4
2017-02-18 00:00:00 25.2 30.6 27.2 87 1 6.3 9
2017-02-19 00:00:00 24.8 30.8 26.5 87 0.666667 6.4 5
2017-02-20 00:00:00 25.6 31.2 27.8 85 0.333333 6.3 4
2017-02-21 00:00:00 25.6 31.2 26.8 86 0 4.1 5
2017-02-22 00:00:00 24.8 31.6 27 83 0 5.7 5
2017-02-23 00:00:00 23.8 32.4 27.5 82 62 7.2 6
2017-02-24 00:00:00 25.4 31 27.6 86 2 6 4
2017-02-25 00:00:00 25.2 30.6 27.1 86 2 4 4
2017-02-26 00:00:00 23.7 31.4 27.2 83 43 4.9 3
2017-02-27 00:00:00 23.8 30.6 27.6 81 9 4.6 6
2017-02-28 00:00:00 25.2 31 27.9 81 0 5.4 3
2017-03-01 00:00:00 24.8 30.8 27.6 86 33 5.9 4
2017-03-02 00:00:00 24.6 31.2 27.4 82 20 7.1 6
2017-03-03 00:00:00 25 31.4 27.9 83 0 6.1 3
2017-03-04 00:00:00 25 31.2 28.2 80 7 5.9 4
2017-03-05 00:00:00 25.4 32 28.1 81 0 4.4 6
2017-03-06 00:00:00 24.4 31 27.3 84 5 1.5 5
2017-03-07 00:00:00 24.8 30.6 26.6 86 3.2 1.5 4
2017-03-08 00:00:00 24.8 31 27.8 77 20 0 3
2017-03-09 00:00:00 26 31 26.9 85 0 8.8 4
2017-03-10 00:00:00 23.6 31.6 27.7 79 15.5 3.7 4
2017-03-11 00:00:00 25.6 31.2 28.1 80 0 9.2 5
2017-03-12 00:00:00 25.8 31 27.8 85 1.4 7.2 6
2017-03-13 00:00:00 24.4 31.2 27 86 17.1 6.3 5
2017-03-14 00:00:00 24 30.6 27.1 86 16.2 4.5 3
2017-03-15 00:00:00 24 31.4 27.6 79 3.6 6.1 5
2017-03-16 00:00:00 23.6 31.6 27.7 83 40.3 8.9 5
2017-03-17 00:00:00 25.2 32.4 28.4 77 0 7.5 6
2017-03-18 00:00:00 25.6 31 28.1 79 0 2.1 4
2017-03-19 00:00:00 25.4 30.4 27.6 82 0 2.9 4
2017-03-20 00:00:00 25.6 31.6 27.8 84 0 3.6 5
2017-03-21 00:00:00 26 30.4 27.7 81 0 7.1 5
2017-03-22 00:00:00 24.6 31.2 27.4 80 0 1.3 4
2017-03-23 00:00:00 23.4 32.2 28.5 79 0 1.3 4
2017-03-24 00:00:00 25.6 31.4 28.1 80 0 4.4 4
2017-03-25 00:00:00 25.8 31.2 28.3 82 0 7.5 4
2017-03-26 00:00:00 25.2 28.6 27 87 0 7.5 5
2017-03-27 00:00:00 25.4 31.4 27.6 81 8.8 0 5
2017-03-28 00:00:00 25.8 31.2 27.7 84 0 7.3 5
2017-03-29 00:00:00 25.2 30.6 27.9 84 21.8 7.7 4
2017-03-30 00:00:00 24.6 31.2 28.2 81 0 4.6 5
2017-03-31 00:00:00 23.6 30.5 28 83 1 4.3 4
2017-04-01 00:00:00 25 31.8 27.6 83 0 4.3 5
2017-04-02 00:00:00 26 30.6 28.2 83 0.5 8.1 4
2017-04-03 00:00:00 25.4 30.8 25.7 91 0 3.5 9
2017-04-04 00:00:00 23.4 30.6 26.8 83 58 6.1 5
2017-04-05 00:00:00 24.8 31.2 27.9 80 0 8 7
2017-04-06 00:00:00 24.8 30.2 27.5 87 2 0.6 4
2017-04-07 00:00:00 25.2 30.2 27.8 84 6 2.5 3
2017-04-08 00:00:00 25.2 32.4 26.9 83 0 0 3
2017-04-09 00:00:00 25.2 32.4 27.4 86 0 4.7 3
2017-04-10 00:00:00 25.4 31.8 28.2 82 17 5.4 6
2017-04-11 00:00:00 25.6 31.4 27.6 87 2 3.6 4
2017-04-12 00:00:00 26 33.4 29 76 4 6 3
2017-04-13 00:00:00 26 32.6 27.6 86 6 6.9 5
2017-04-14 00:00:00 24.2 30.4 27.6 88 54 3.4 3
2017-04-15 00:00:00 25.2 33.2 28.4 79 0 7.5 6
2017-04-16 00:00:00 25 32.2 28.1 78 0 8 4
2017-04-17 00:00:00 26 31.6 28.6 86 2 7 5
2017-04-18 00:00:00 25.6 32 28.4 86 7 7.4 4
2017-04-19 00:00:00 26.2 31.6 27.9 83 0 3.1 5
2017-04-20 00:00:00 24.4 33.2 28.7 79 0 7.8 6
2017-04-21 00:00:00 25.8 32.8 28.9 78 16 5.7 7
2017-04-22 00:00:00 25 32.6 28.8 80 3 7.4 4
2017-04-23 00:00:00 25 31.8 28 84 0 4.9 3
2017-04-24 00:00:00 25.2 32.2 28.4 80 0 6 4
2017-04-25 00:00:00 26.2 32.8 29.5 78 0 8 6
2017-04-26 00:00:00 26.2 32.2 28.7 80 0 5.4 5
2017-04-27 00:00:00 25.6 32 28.3 81 0 6.5 5
2017-04-28 00:00:00 23.6 32.2 28 80 0 7.4 5
2017-04-29 00:00:00 25.4 33 27.9 82 0 6.9 6
2017-04-30 00:00:00 25 32.4 28.1 79 7 7.2 5
2017-05-01 00:00:00 24.2 33.2 28.5 70 9 4.6 3
2017-05-02 00:00:00 24.2 33 28.7 82 15 5 4
2017-05-03 00:00:00 26.2 32 28 83 28 3.3 6
2017-05-04 00:00:00 24 33 28.3 82 41 5.6 7
2017-05-05 00:00:00 24.6 33.2 28 82 4 6 3
2017-05-06 00:00:00 25.4 32.6 28.9 79 6 3.5 6
2017-05-07 00:00:00 25.4 31.4 27.5 84 4.5 2.6 3
2017-05-08 00:00:00 26 32.6 28.4 81 3 4.3 4
2017-05-09 00:00:00 26 33.4 29.8 72 1.5 7.4 7
2017-05-10 00:00:00 25.4 33.2 29.4 71 0 5.2 4
2017-05-11 00:00:00 25.4 33.4 28.6 74 0 7.2 4
2017-05-12 00:00:00 26.2 34.4 29.5 76 0 7.1 7
2017-05-13 00:00:00 25 34.4 29.5 74 4 7.3 6
2017-05-14 00:00:00 24.4 32.2 28.4 76 0 7.8 4
2017-05-15 00:00:00 24 34.8 30.4 62 0 7.9 5
2017-05-16 00:00:00 24 34 28.4 80 0 7.3 4
2017-05-17 00:00:00 25.2 32.6 29 76 10 8 3
2017-05-18 00:00:00 24.8 34.2 29.5 72 0 7.8 5
2017-05-19 00:00:00 24.4 33.6 28.7 72 0 8 5
2017-05-20 00:00:00 23.2 34 28.9 78 0 6 5
2017-05-21 00:00:00 25.4 34.2 29.2 72 0 6.7 3
2017-05-22 00:00:00 24.8 34.8 29.2 76 0 7.8 4
2017-05-23 00:00:00 25 34.2 29.3 69 0 8 5
2017-05-24 00:00:00 24 33.4 28.4 68 0 8 6
2017-05-25 00:00:00 23.4 35 29.3 62 0 8 4
2017-05-26 00:00:00 24 33.4 28.9 80 0 5.7 4
2017-05-27 00:00:00 25 33.4 29.1 77 13 4.5 5
2017-05-28 00:00:00 26.4 33 29 80 0 3.8 5
2017-05-29 00:00:00 25.6 31 27.8 80 0 0 4
2017-05-30 00:00:00 26 33.2 29.3 76 0 5.7 6
2017-05-31 00:00:00 27.4 33.2 30.1 72 0 5.3 7
2017-06-01 00:00:00 26.2 31.6 27 86 0 4.6 4
2017-06-02 00:00:00 25 31.4 26.5 89 50 5.2 3
2017-06-03 00:00:00 23.8 32.6 27.9 82 38 7.1 4
2017-06-04 00:00:00 24.2 33.2 28.4 74 0 8.7 4
2017-06-05 00:00:00 25 33.4 28.2 77 0 7.8 4
2017-06-06 00:00:00 26.4 33.2 29 74 0 8 6
2017-06-07 00:00:00 26.4 31.6 29 79 0 5.2 4
2017-06-08 00:00:00 27 33.8 29.7 74 0 7.8 7
2017-06-09 00:00:00 27 33.6 29.3 72 0 7.5 5
2017-06-10 00:00:00 25.8 33.6 29.3 72 0 7.1 5
2017-06-11 00:00:00 25 33.4 27.9 78 0 7.8 6
2017-06-12 00:00:00 26.4 33.2 29 76 0 5.8 6
2017-06-13 00:00:00 23.6 31.2 26.8 83 41 0.4 3
2017-06-14 00:00:00 25.4 33.2 27.7 84 0 6.9 6
2017-06-15 00:00:00 26 32.4 28.9 79 21 5.9 6
2017-06-16 00:00:00 27.2 33.4 29.6 77 0 7.7 5
2017-06-17 00:00:00 25.8 33 29.1 72 1 8 6
2017-06-18 00:00:00 22.8 32.8 26.2 74 0 6.4 4
2017-06-19 00:00:00 23.4 32.8 27 74 0 7.1 4
2017-06-20 00:00:00 24.8 32.8 27.9 75 0 5.8 4
2017-06-21 00:00:00 25.2 33 28 78 0 4.1 4
2017-06-22 00:00:00 25.2 32.4 28.6 79 0 5.6 6
2017-06-23 00:00:00 27 32.8 29.3 74 0 6 7
2017-06-24 00:00:00 26.6 30.8 27.7 76 0 3 9
2017-06-25 00:00:00 25 31.4 27.8 79 2 4.9 3
2017-06-26 00:00:00 24.8 31.4 28.5 79 1 4.6 5
2017-06-27 00:00:00 24.6 32.8 28 78 0 7.2 4
2017-06-28 00:00:00 23.8 32.4 27.9 82 26 6.4 4
2017-06-29 00:00:00 26.2 32.4 28.3 82 1 6.6 5
2017-06-30 00:00:00 24.8 33.4 28.3 76 0 7.9 5
2017-07-01 00:00:00 25.2 33 28.5 78 0 7.6 5
2017-07-02 00:00:00 27 33 29.5 73 0 6.1 5
2017-07-03 00:00:00 25.6 33.2 28.3 78 0 7.3 7
2017-07-04 00:00:00 25.6 33 29 74 0 6.3 5
2017-07-05 00:00:00 24.9 33.5 28.65 74.5 0 6.95 4
2017-07-06 00:00:00 24.2 34 28.3 75 0 7.6 3
2017-07-07 00:00:00 24.4 34.2 28.2 76 0 5.4 4
2017-07-08 00:00:00 24.8 33.4 28.4 77 0 5.3 3
2017-07-09 00:00:00 25.2 33.4 28.8 77 0 6.6 4
2017-07-10 00:00:00 24.4 32 27.8 79 0 6.5 5
2017-07-11 00:00:00 23.6 32.8 28.4 75 0 4.6 4
2017-07-12 00:00:00 23.13333 32.6 28.43333 74 0 3.366667 4.666667
2017-07-13 00:00:00 22.66667 32.4 28.46667 73 0 2.133333 5.333333
2017-07-14 00:00:00 22.2 32.2 28.5 72 0 0.9 6
2017-07-15 00:00:00 23.6 33.8 28.6 70 0 7.8 7
2017-07-16 00:00:00 23.8 33.4 27.5 77 0 7.6 4
2017-07-17 00:00:00 21 31.2 26.8 73 0 0.7 3
2017-07-18 00:00:00 25 33 28.3 66 0 5.7 7
2017-07-19 00:00:00 24.9 32.9 27.55 74 0.5 5.3 5
2017-07-20 00:00:00 24.8 32.8 26.8 82 1 4.9 3
2017-07-21 00:00:00 23.8 32.2 27.6 77 2 5.1 6
2017-07-22 00:00:00 23.2 33.2 28.4 76 24 6.3 4
2017-07-23 00:00:00 24.4 33.6 28 82 0 8 4
2017-07-24 00:00:00 23.8 33.6 28.2 68 0 8 6
2017-07-25 00:00:00 21.6 32.8 27.2 64 0 8 9
2017-07-26 00:00:00 22.4 33.8 27.9 63 0 7.8 6
2017-07-27 00:00:00 25.8 29.6 26.5 83 0 10 6
2017-07-28 00:00:00 24.4 32 28.2 75 4 4.1 5
2017-07-29 00:00:00 24.7 33.4 28.7 73.5 2 6 4.5
2017-07-30 00:00:00 25 34.8 29.2 72 0 7.9 4
2017-07-31 00:00:00 24 33.4 28.3 75 31 8 4
2017-08-01 00:00:00 23.4 33.6 27.9 68 0 8 69
2017-08-02 00:00:00 22.6 33.8 28.4 66 0 7.4 69
2017-08-03 00:00:00 23.2 32.8 26.8 78 0 6.5 139
2017-08-04 00:00:00 23 33.4 27.9 71 0 7.4 46
2017-08-05 00:00:00 23.2 33.2 26.3 80 0 5.8 185
2017-08-06 00:00:00 23.4 34 28.6 67 0 8 185
2017-08-07 00:00:00 23.8 34 27.8 74 0 8 185
2017-08-08 00:00:00 26 33 28.9 76 0 6.9 162
2017-08-09 00:00:00 25.6 34.2 28.5 73 0 3.9 162
2017-08-10 00:00:00 24.2 34.2 28.2 74 0 7.1 139
2017-08-11 00:00:00 24.8 33.6 28.2 75 0 8 185
2017-08-12 00:00:00 24.4 32.4 26.3 83 0 7.5 162
2017-08-13 00:00:00 24.2 33.4 27.1 80 0 7 23
2017-08-14 00:00:00 23.4 32.6 27.7 79 0 6.9 185
2017-08-15 00:00:00 23.2 34 28.1 68 0 6.5 69
2017-08-16 00:00:00 23 33.6 27.5 70 0 7.3 162
2017-08-17 00:00:00 23 33.8 27.5 72 0 7.3 162
2017-08-18 00:00:00 24.6 34 29 65 0 7 46
2017-08-19 00:00:00 25.8 34.8 29 72 0 5.7 46
2017-08-20 00:00:00 25 34.6 27.3 80 0 8 69
2017-08-21 00:00:00 23.6 34.8 28.9 67 0 8 46
2017-08-22 00:00:00 23.2 35.2 28.6 70 0 8 46
2017-08-23 00:00:00 24 34.2 28.3 73 0 8 46
2017-08-24 00:00:00 24.8 34.6 28.8 71 0 7.8 162
2017-08-25 00:00:00 24.4 34.6 28.5 70 0 8 69
2017-08-26 00:00:00 24.2 34 29.1 56 0 6.7 46
2017-08-27 00:00:00 23.2 34.6 28.5 69 0 8 23
2017-08-28 00:00:00 23.2 34.8 29.9 61 0 8 46
2017-08-29 00:00:00 24.4 33.2 28 72 0 4.5 139
2017-08-30 00:00:00 24.8 31.6 28 74 15 7.3 185
2017-08-31 00:00:00 24.8 33.4 27.4 76 0 7.1 69
2017-09-01 00:00:00 23 35 28.2 68 0 8 4
2017-09-02 00:00:00 23.6 34 27.9 72 0 8 6
2017-09-03 00:00:00 23.4 35.4 28.2 68 0 8 5
2017-09-04 00:00:00 25.2 34 28.6 72 0 7.7 5
2017-09-05 00:00:00 25.2 34.4 29.1 72 1 7.2 5
2017-09-06 00:00:00 24.6 34 29.7 61 0 8 6
2017-09-07 00:00:00 24.2 34.8 30.2 62 0 8 5
2017-09-08 00:00:00 27 36.6 31.1 57 1 8 8
2017-09-09 00:00:00 25.4 35.4 29.4 68 0 8 5
2017-09-10 00:00:00 26.2 33.8 28.9 73 0 6.4 4
2017-09-11 00:00:00 24.4 33.4 27.5 82 19 7.1 5
2017-09-12 00:00:00 24.6 33.6 27.6 73 0 6.5 6
2017-09-13 00:00:00 24 35.4 28.1 75 0 8 4
2017-09-14 00:00:00 22.6 35.2 28.6 68 0 8 8
2017-09-15 00:00:00 25 36.4 29.8 64 0 8 5
2017-09-16 00:00:00 24.8 36 29.4 65 0 8 4
2017-09-17 00:00:00 25 35.4 29.2 68 27 8 9
2017-09-18 00:00:00 23.4 33.6 28.4 77 0 8 6
2017-09-19 00:00:00 24.2 34.8 28.8 66 0 8 5
2017-09-20 00:00:00 23.8 34.4 28.3 66 0 8 6
2017-09-21 00:00:00 23.2 35.6 28.4 62 0 8 8
2017-09-22 00:00:00 24 34.8 28.8 64 0 8 5
2017-09-23 00:00:00 23.4 36 29.7 67 4 7.5 5
2017-09-24 00:00:00 26.6 31.6 28.4 61 0 1.8 4
2017-09-25 00:00:00 25 33.8 28.8 76 2 5.2 6
2017-09-26 00:00:00 25.4 33.8 29.8 68 4 5.1 6
2017-09-27 00:00:00 27.4 34 28.9 72 0 4.6 9
2017-09-28 00:00:00 25.2 32.2 29 72 0 5.4 5
2017-09-29 00:00:00 25.6 35.2 29.7 70 0 7.3 5
2017-09-30 00:00:00 23 33.2 28.7 79 50 7.5 4
2017-10-01 00:00:00 22.6 32.6 28.4 80 32 6.2 4
2017-10-02 00:00:00 22.6 32 27.7 81 79 6.5 4
2017-10-03 00:00:00 23 34.4 28.3 81 68 7.1 5
2017-10-04 00:00:00 24.4 34.8 29.2 77 15 7.8 5
2017-10-05 00:00:00 23.4 34.2 29.8 73 0 8 7
2017-10-06 00:00:00 25.8 35.2 29.9 70 0 8 6
2017-10-07 00:00:00 25.6 35 29.8 74 9 8 6
2017-10-08 00:00:00 25.2 33 29 74 0 7.9 4
2017-10-09 00:00:00 24.8 35 29.1 74 5 8 5
2017-10-10 00:00:00 25.4 32.8 28.9 78 5 6.8 3
2017-10-11 00:00:00 26.6 33.4 28.1 85 3 3.4 4
2017-10-12 00:00:00 25.2 35.2 30.4 65 21 7.8 5
2017-10-13 00:00:00 26 32.8 29.7 84 4 7.3 5
2017-10-14 00:00:00 26 33.6 30.1 72 3 6.7 6
2017-10-15 00:00:00 25.4 32.8 29.1 74 0 5.2 4
2017-10-16 00:00:00 23 32 27.7 85 11 4.3 3
2017-10-17 00:00:00 23.8 30.8 26.8 84 46 2.2 3
2017-10-18 00:00:00 25.8 32.6 28.3 82 0 5.7 5
2017-10-19 00:00:00 26 33 29.2 77 1 6.2 5
2017-10-20 00:00:00 25.8 33.6 29.5 76 1 8 6
2017-10-21 00:00:00 26.2 33.4 29.7 76 0 7.9 4
2017-10-22 00:00:00 25 33.4 29.1 73 0 8 6
2017-10-23 00:00:00 24.6 32.8 29 71 0 8 5
2017-10-24 00:00:00 25.6 33.6 29 79 0 4.6 8
2017-10-25 00:00:00 24.4 32.2 28.4 79 31 8 6
2017-10-26 00:00:00 26.8 32 29.6 76 0 7.7 5
2017-10-27 00:00:00 25.6 33.6 29 79 1 7.4 5
2017-10-28 00:00:00 23.4 31.2 27.7 83 119 6.4 3
2017-10-29 00:00:00 23 33.8 29.4 72 4 5.4 4
2017-10-30 00:00:00 24.2 32.6 28.8 79 30 7.8 4
2017-10-31 00:00:00 24.8 32.6 28.5 76 15 7.5 4
2017-11-01 00:00:00 25.6 34 29.1 73 0 7.2 3
2017-11-02 00:00:00 26 32.6 29.1 76 0 5.1 4
2017-11-03 00:00:00 26.4 33 29.7 67 0 3.9 3
2017-11-04 00:00:00 25.8 32.2 29.5 76 1 5.1 8
2017-11-05 00:00:00 22.2 32.6 28.5 80 55 5.2 4
2017-11-06 00:00:00 25.6 33.4 29.5 74 2 6.8 6
2017-11-07 00:00:00 25.6 33.4 29.7 86 0 1.2 7
2017-11-08 00:00:00 24.6 32.4 28.7 75 0 6.4 4
2017-11-09 00:00:00 25.6 32 28.4 80 0 3.4 6
2017-11-10 00:00:00 23 34 27.8 70 14 5.3 5
2017-11-11 00:00:00 24 32.4 27.8 78 38 6.5 4
2017-11-12 00:00:00 25.2 31 27.1 86 2 4.9 3
2017-11-13 00:00:00 25.8 31.6 27.2 88 5 3.5 4
2017-11-14 00:00:00 23 31.4 27.3 83 48 5.2 6
2017-11-15 00:00:00 22 29.8 28.2 82 0 0.3 3
2017-11-16 00:00:00 25.6 30.8 26.7 87 0 0.6 4
2017-11-17 00:00:00 24.2 31.8 27.3 85 7 3.8 4
2017-11-18 00:00:00 25.2 30.6 27.8 83 10 1.4 4
2017-11-19 00:00:00 25.2 30.6 27.2 84 13 3.4 3
2017-11-20 00:00:00 23.6 30.8 27 89 14 5.1 3
2017-11-21 00:00:00 24.6 30 27.5 86 7 0.3 4
2017-11-22 00:00:00 25.8 30.8 27 90 19 3.6 5
2017-11-23 00:00:00 24.2 29.8 27.1 87 31 0.7 3
2017-11-24 00:00:00 25.6 30.4 27.5 87 1 1.9 4
2017-11-25 00:00:00 24.4 30.4 26.6 90 8 6.3 4
2017-11-26 00:00:00 25 31.6 27.7 84 6 4 5
2017-11-27 00:00:00 24.2 30.2 27.2 87 25 0.4 4
2017-11-28 00:00:00 23 31 26.6 89 18 0 3
2017-11-29 00:00:00 24.2 31.4 26.8 89 48 3.2 2
2017-11-30 00:00:00 25 29.4 25.9 92 39 1.7 4
2017-12-01 00:00:00 22.4 28.4 26.6 89 83 0 4
2017-12-02 00:00:00 25 31.6 28.2 84 0 3.2 4
2017-12-03 00:00:00 26 32.2 28.9 81 0 7.8 5
2017-12-04 00:00:00 26.2 31.4 28.5 87 0 6.4 4
2017-12-05 00:00:00 25 31.4 28.9 81 9 4.1 4
2017-12-06 00:00:00 25 32 29 81 6 5.6 6
2017-12-07 00:00:00 26.2 31.8 29 80 0 6.6 4
2017-12-08 00:00:00 26 31.4 28.6 80 0 3.2 4
2017-12-09 00:00:00 23.4 30.8 27.8 84 1 2.4 5
2017-12-10 00:00:00 25.6 31 25.7 90 1 1.7 4
2017-12-11 00:00:00 23.6 29.6 26.7 86 69 0 3
2017-12-12 00:00:00 25 29.6 27.5 82 1 0 4
2017-12-13 00:00:00 25.4 30.4 27.7 85 8 2.5 4
2017-12-14 00:00:00 24.4 31 26.8 88 15 0.8 3
2017-12-15 00:00:00 24.2 30.4 27.6 80 8 6.3 7
2017-12-16 00:00:00 24 30.4 27.4 77 0 6 5
2017-12-17 00:00:00 24.4 31.2 27.9 78 0 3.6 8
2017-12-18 00:00:00 25 30.6 27.6 80 2 3.3 7
2017-12-19 00:00:00 24.6 28.8 26.1 88 4 2.7 8
2017-12-20 00:00:00 24.6 29 25.3 94 5 0 7
2017-12-21 00:00:00 24 31 27.3 83 42 6.2 3
2017-12-22 00:00:00 25 29.6 26.8 86 5 0 5
2017-12-23 00:00:00 23.4 31.6 28.3 80 3 7.9 5
2017-12-24 00:00:00 24 31.6 28.3 74 0 7.5 4
2017-12-25 00:00:00 24.4 31.4 28.2 79 0 7 4
2017-12-26 00:00:00 24.6 31 27.6 80 17 5.4 6
2017-12-27 00:00:00 24.8 30.4 27.5 77 0 0 5
2017-12-28 00:00:00 25 31.2 27.3 83 8 2.5 6
2017-12-29 00:00:00 25.2 31.2 28.3 81 2 4.4 5
2017-12-30 00:00:00 25.8 30.6 27.3 84 0 2.2 4
2017-12-31 00:00:00 24.6 30.8 26.9 87 2 4.5 4
2018-01-01 00:00:00 24 31.8 27.5 80 10 4.5 3
2018-01-02 00:00:00 26.2 30.8 28.2 81 0 2.2 5
2018-01-03 00:00:00 25 31.8 28 81 0 4.7 5
2018-01-04 00:00:00 24 30.4 26.3 91 61 3.7 4
2018-01-05 00:00:00 24.4 31.4 26.3 90 0.4 4.8 4
2018-01-06 00:00:00 24.8 30.2 27.7 84 0 1.5 5
2018-01-07 00:00:00 25 29.8 26.3 88 0 1 4
2018-01-08 00:00:00 21.8 30.6 27.2 84 28 5.7 5
2018-01-09 00:00:00 25.4 31.8 28 84 0 5.7 6
2018-01-10 00:00:00 25.6 31.6 28.2 77 0 6 5
2018-01-11 00:00:00 23.4 30 27.4 80 30 2 6
2018-01-12 00:00:00 24.6 30 26.2 87 1 0.5 6
2018-01-13 00:00:00 24.2 30 27.3 82 6 0.1 8
2018-01-14 00:00:00 24.8 30 26.3 86 14 1.2 6
2018-01-15 00:00:00 23.4 30 26.3 88 47 3.9 5
2018-01-16 00:00:00 22 30.6 27.5 79 0 2.9 12
2018-01-17 00:00:00 24.8 30.6 27.6 77 0 0.5 7
2018-01-18 00:00:00 25 30 27.2 85 5 5.7 6
2018-01-19 00:00:00 25.4 30.4 26.9 86 0 1.8 21
2018-01-20 00:00:00 24.6 29.4 26.7 88 4 2.2 5
2018-01-21 00:00:00 24.2 30 26.6 86 5 0.4 4
2018-01-22 00:00:00 24.2 30 26.8 87 16 2.6 7
2018-01-23 00:00:00 24.6 30.6 27.2 84 12 3.7 9
2018-01-24 00:00:00 25.4 31.4 27.9 70 1 6.2 8
2018-01-25 00:00:00 24.8 29.6 27 86 2 0 5
2018-01-26 00:00:00 26 31.4 28.3 80 1 5.1 5
2018-01-27 00:00:00 24.8 30.4 27.4 83 22 3.3 9
2018-01-28 00:00:00 24.2 30.2 27.7 79 26 3.7 9
2018-01-29 00:00:00 23.6 30.8 27.4 80 5 4.3 6
2018-01-30 00:00:00 22.8 30.6 27.4 85 4 6.6 7
2018-01-31 00:00:00 24 30.8 20.6 84 21 5.2 8
2018-02-01 00:00:00 22.2 30.6 27.6 84 8 3.2 8
2018-02-02 00:00:00 23 31 27.8 83 46 3.3 6
2018-02-03 00:00:00 24.8 27.4 26.1 88 4 0 5
2018-02-04 00:00:00 23.8 29 26.8 85 17 2.1 6
2018-02-05 00:00:00 25.2 28.8 24.7 92 8 0.4 7
2018-02-06 00:00:00 22.8 28.2 25.4 90 63 0.9 7
2018-02-07 00:00:00 24.2 29.2 26.3 86 3 2.9 8
2018-02-08 00:00:00 24.8 28.6 26.6 87 1 1.8 7
2018-02-09 00:00:00 24 30.2 26.1 89 25 5.2 5
2018-02-10 00:00:00 22.8 30 26.9 86 62 6.7 5
2018-02-11 00:00:00 24.8 29.2 27.2 84 0 6.5 5
2018-02-12 00:00:00 23.4 29.6 26.3 86 20 5.5 6
2018-02-13 00:00:00 25.6 29.4 26.9 87 0 1.6 7
2018-02-14 00:00:00 24.2 30 26.4 88 9 2.4 8
2018-02-15 00:00:00 23.4 30.2 24.8 92 3 3.4 9
2018-02-16 00:00:00 23.2 30.2 26.4 86 79 2.7 6
2018-02-17 00:00:00 23.6 30.4 26.9 88 31 7 5
2018-02-18 00:00:00 23.6 30.8 26.8 86 47 4.8 4
2018-02-19 00:00:00 25 30.4 27.6 86 0 6.4 4
2018-02-20 00:00:00 24.8 30.8 27.8 82 23.5 5.1 5
2018-02-21 00:00:00 22.8 30.4 26.9 85 47 7.9 5
2018-02-22 00:00:00 24.8 31 27.4 84 1 7.6 5
2018-02-23 00:00:00 25 30.8 27.5 84 11 5 5
2018-02-24 00:00:00 25.4 29.4 26.9 87 31.5 2.3 4
2018-02-25 00:00:00 23 30.6 26.5 85 52 4.9 4
2018-02-26 00:00:00 24.4 30.6 26.8 82 26 3.6 4
2018-02-27 00:00:00 24.4 31.6 28.1 75 0 7.8 4
2018-02-28 00:00:00 24 30.8 27.9 81 1 7.3 4
2018-03-01 00:00:00 25.4 29.6 27.3 87 2 0.5 4
2018-03-02 00:00:00 24.8 31.4 27.4 78 0 6.2 7
2018-03-03 00:00:00 22.6 31.4 27.9 84 45 2.9 5
2018-03-04 00:00:00 25.2 31.6 28.4 80 22.5 7.6 4
2018-03-05 00:00:00 26.6 29.6 27.2 87 0 0 3
2018-03-06 00:00:00 23.4 30.6 27.4 84 31 7.8 4
2018-03-07 00:00:00 25.4 30.8 27.8 83 0 4.5 4
2018-03-08 00:00:00 25 29.6 27.4 83 0 0 4
2018-03-09 00:00:00 25 31 27.7 82 0 6.3 6
2018-03-10 00:00:00 22.6 30.2 26.9 90 58 4.9 7
2018-03-11 00:00:00 20.8 29.6 26.7 86 4 1.7 5
2018-03-12 00:00:00 24.2 30.2 27.1 88 26 4.7 5
2018-03-13 00:00:00 25.6 29 27 87 13 0 3
2018-03-14 00:00:00 25 30.4 28.1 76 0 7.9 4
2018-03-15 00:00:00 24.8 30.8 28 79 0 6.3 4
2018-03-16 00:00:00 25.2 31.4 28.1 80 1 6.6 5
2018-03-17 00:00:00 25.6 29.6 26.7 88 1 1.5 6
2018-03-18 00:00:00 24.4 31.2 27.4 83 8 7 4
2018-03-19 00:00:00 25.8 31.6 28.5 80 0 4.1 4
2018-03-20 00:00:00 25.2 31 28.1 81 0 6.1 5
2018-03-21 00:00:00 25.2 31 27.8 80 0 6.4 7
2018-03-22 00:00:00 25 30.2 27.2 82 10 3.1 4
2018-03-23 00:00:00 25 31.4 27.6 80 8 5.9 4
2018-03-24 00:00:00 25.4 31 27.6 85 6 3.3 5
2018-03-25 00:00:00 25 31.2 27 87 4 3 5
2018-03-26 00:00:00 24.2 30.8 27.4 84 29 6.8 7
2018-03-27 00:00:00 25.4 29.4 26.2 88 0 1.3 4
2018-03-28 00:00:00 24.2 31.4 27.8 80 1 5.8 5
2018-03-29 00:00:00 24.2 31.2 27.6 80 0 8 5
2018-03-30 00:00:00 25.2 31 27.8 87 5 6.8 5
2018-03-31 00:00:00 23.8 31.2 27.7 82 10 5.8 4
2018-04-01 00:00:00 24.2 31.2 27.3 84 0 6.8 6
2018-04-02 00:00:00 25.2 30.8 27.6 85 41 5.8 9
2018-04-03 00:00:00 24 32 27.7 83 20 7.1 4
2018-04-04 00:00:00 25.2 32.2 28.7 79 0 8 4
2018-04-05 00:00:00 25.6 34.6 29 79 4 7.9 6
2018-04-06 00:00:00 22.6 33.8 29.9 78 44 8 6
2018-04-07 00:00:00 25.2 32.4 28.9 78 1 4.2 4
2018-04-08 00:00:00 25.6 31.8 28.6 78 2 5.9 7
2018-04-09 00:00:00 25 33.2 28.4 78 0 7 5
2018-04-10 00:00:00 25.4 34.2 29.6 70 0 8 6
2018-04-11 00:00:00 26.4 34.4 29.9 75 0 7.8 7
2018-04-12 00:00:00 27.6 33.6 30 75 0 6.8 6
2018-04-13 00:00:00 27.4 33 29.4 80 0 7 5
2018-04-14 00:00:00 22.8 34.4 30.3 72 1 6.3 4
2018-04-15 00:00:00 26.4 34 28.8 78 0 5 5
2018-04-16 00:00:00 24.8 32.6 28.8 82 2 7.6 3
2018-04-17 00:00:00 26.6 32.2 29 80 0 7.1 7
2018-04-18 00:00:00 26.2 32.2 28.4 82 0 4.1 6
2018-04-19 00:00:00 26 32.5 29 79 4 7.3 4
2018-04-20 00:00:00 25.4 31.8 29 84 64 5 5
2018-04-21 00:00:00 25.8 32.8 27.5 84 1 5.1 9
2018-04-22 00:00:00 23.8 32.8 28.1 80 6 4 9
2018-04-23 00:00:00 25.4 32.6 28.5 80 3 3.2 4
2018-04-24 00:00:00 25 33.2 30 74 5 6.9 4
2018-04-25 00:00:00 25 33.2 28.4 74 11 7 8
2018-04-26 00:00:00 25 32 28.1 76 0 6.6 7
2018-04-27 00:00:00 26.4 34 29.8 76 0 7.5 4
2018-04-28 00:00:00 27 33.2 29.2 77 2.5 6.8 6
2018-04-29 00:00:00 24 33.8 28.9 68 5 8 5
2018-04-30 00:00:00 24.2 34.4 29.5 65 0 8 5
2018-05-01 00:00:00 24.8 34 30.1 65 0 7.4 4
2018-05-02 00:00:00 24.2 32.4 28 74 0 7.7 3
2018-05-03 00:00:00 24.4 33 28.1 80 0 8 5
2018-05-04 00:00:00 25.2 34 28.6 77 0 8 6
2018-05-05 00:00:00 25 34 29.3 68 0 8 5
2018-05-06 00:00:00 27.6 34.4 30.4 66 0 7.4 7
2018-05-07 00:00:00 26.6 34.6 30 71 0 8 5
2018-05-08 00:00:00 26 34.4 29.1 76 0 6.1 5
2018-05-09 00:00:00 25.4 33.6 30 68 0 7.7 4
2018-05-10 00:00:00 25 34 29.8 67 0 7.8 5
2018-05-11 00:00:00 26.4 34.4 29.6 71 0 8 5
2018-05-12 00:00:00 25.4 33.6 28.9 78 0 7.8 7
2018-05-13 00:00:00 25.4 34.6 30.1 80 0 7.5 4
2018-05-14 00:00:00 25.2 35 29.2 79 0 8 4
2018-05-15 00:00:00 27.8 33 30.4 74 0 3.6 7
2018-05-16 00:00:00 27.8 33 30.4 70 0 1.1 7
2018-05-17 00:00:00 26.8 33.4 28.3 83 0 4.2 5
2018-05-18 00:00:00 26.4 33 28.4 80 2 6.7 4
2018-05-19 00:00:00 25.2 32.8 27.9 82 0 4.5 6
2018-05-20 00:00:00 25.2 32.8 28.2 84 0 3.8 6
2018-05-21 00:00:00 23.6 33.8 29.9 77 0 5.9 9
2018-05-22 00:00:00 26.4 33.6 29.6 74 0 7.2 9
2018-05-23 00:00:00 26.2 3.6 29.2 76 3 5.9 9
2018-05-24 00:00:00 25.6 31.6 28.2 86 2 4.2 5
2018-05-25 00:00:00 26 34.4 29 84 0 7.2 6
2018-05-26 00:00:00 26.2 34.2 30 73 0 6.2 6
2018-05-27 00:00:00 26 34.4 29.9 69 0 7 3
2018-05-28 00:00:00 26 34.6 29.9 68 0 7.6 5
2018-05-29 00:00:00 25.4 34.4 29.3 74 0 7.7 6
2018-05-30 00:00:00 24.6 32.6 28 78 11 7.9 5
2018-05-31 00:00:00 25.4 32.2 28.4 78 0 7.7 4
2018-06-01 00:00:00 23.8 31.6 27.4 74 0 7.3 4
2018-06-02 00:00:00 23.8 32.6 27.9 72 0 8 4
2018-06-03 00:00:00 23 33.6 28.3 75 0 7.4 4
2018-06-04 00:00:00 26 32.6 28.8 79 0 6.9 5
2018-06-05 00:00:00 27 33.6 29.3 75 0 6.9 6
2018-06-06 00:00:00 25.6 33.2 29 77 0 7.8 4
2018-06-07 00:00:00 24.6 33.2 28.5 84 0 7.9 3
2018-06-08 00:00:00 25.8 33.4 29.4 74 4 8 5
2018-06-09 00:00:00 24.4 34.4 29.1 70 1 8 5
2018-06-10 00:00:00 25.2 33.6 29.3 71 0 6.9 4
2018-06-11 00:00:00 25 34.8 30 68 0 7.1 6
2018-06-12 00:00:00 25.4 34 28.5 83 0 7.5 4
2018-06-13 00:00:00 24.8 34 29 74 10 6.8 5
2018-06-14 00:00:00 22.8 34.2 29.6 73 0 8 5
2018-06-15 00:00:00 24.8 34.2 28.6 79 0 7.4 4
2018-06-16 00:00:00 24 33.2 28.1 77 0 8 6
2018-06-17 00:00:00 26.2 33.2 29.4 64 0 8 8
2018-06-18 00:00:00 25.4 33 29.3 64 0 8 4
2018-06-19 00:00:00 23.2 34.4 29.5 68 0 5.6 5
2018-06-20 00:00:00 22.4 33 29.3 71 3 5.5 5
2018-06-21 00:00:00 26.2 34.8 29.2 76 0 5.3 5
2018-06-22 00:00:00 25.6 34.2 28.3 78 3 4.4 5
2018-06-23 00:00:00 26.2 34.2 28.8 78 0 7.5 4
2018-06-24 00:00:00 24.8 33.8 28.6 77 5 7.7 6
2018-06-25 00:00:00 24.4 31 26.5 86 13 0.4 3
2018-06-26 00:00:00 23.4 31.6 26.2 85 6 0.8 3
2018-06-27 00:00:00 24 33.4 28.4 75 0 7.9 4
2018-06-28 00:00:00 23.8 32.8 27.6 75 0 6.2 5
2018-06-29 00:00:00 23.2 33.6 28 74 0 8 2
2018-06-30 00:00:00 23.8 33 27.8 74 0 7.7 4
2018-07-01 00:00:00 24 33.2 27.7 74 0 7.9 5
2018-07-02 00:00:00 25.2 32.6 28.1 77 0 7 4
2018-07-03 00:00:00 23.6 31 27.1 78 0 7.4 5
2018-07-04 00:00:00 23.8 31.4 27.6 74 0 5.6 4
2018-07-05 00:00:00 22.4 33.6 27.6 66 0 8 5
2018-07-06 00:00:00 19.6 33.6 26 64 0 8 6
2018-07-07 00:00:00 22.4 34.2 27.2 70 0 8 4
2018-07-08 00:00:00 23 33.8 28 72 0 8 5
2018-07-09 00:00:00 23.8 33.6 27.9 78 0 8 3
2018-07-10 00:00:00 24.6 33.6 27.9 72 0 6.7 4
2018-07-11 00:00:00 23.8 32 27.4 71 0 6.5 4
2018-07-12 00:00:00 22.2 32.6 27.2 68 0 8 4
2018-07-13 00:00:00 20 32.6 27.2 72 0 7 5
2018-07-14 00:00:00 23.2 32.6 27.2 74 0 6.7 4
2018-07-15 00:00:00 23.4 33.4 27.5 70 0 8 5
2018-07-16 00:00:00 22 34.2 27 71 0 7 4
2018-07-17 00:00:00 22.4 32.8 27.1 70 0 7.2 5
2018-07-18 00:00:00 24.4 33.8 27.8 73 0 7.2 6
2018-07-19 00:00:00 24.4 33.8 27.8 69 0 7.2 5
2018-07-20 00:00:00 24 32.8 28.8 65 0 8 5
2018-07-21 00:00:00 23.8 34 28.1 71 0 7.6 4
2018-07-22 00:00:00 25.6 33.2 28.3 76 0 8 5
2018-07-23 00:00:00 23.6 33.6 28 76 0 8 5
2018-07-24 00:00:00 22.4 34 28.6 74 0 8 7
2018-07-25 00:00:00 24.8 34.8 28.3 67 0 8 8
2018-07-26 00:00:00 23 33.8 27.3 72 0 8 5
2018-07-27 00:00:00 21 34.2 25.9 64 0 8 6
2018-07-28 00:00:00 21.6 34 27.4 69 0 8 4
2018-07-29 00:00:00 23 32.4 27.3 74 0 7.1 4
2018-07-30 00:00:00 23 33.2 27.2 74 0 8 6
2018-07-31 00:00:00 24.6 33.8 27.9 76 0 7.8 6
2018-08-01 00:00:00 24.6 32.6 28 75 0 7 5
2018-08-02 00:00:00 22.6 34.6 27.8 71 0 7.4 7
2018-08-03 00:00:00 20.2 32.2 26.2 66 0 7.8 6
2018-08-04 00:00:00 20.2 31.8 25.1 69 0 8 4
2018-08-05 00:00:00 22 33.2 27.1 66 0 8 4
2018-08-06 00:00:00 21.4 32.2 25.9 65 0 8 6
2018-08-07 00:00:00 21.2 33.2 26.5 67 0 7 5
2018-08-08 00:00:00 22.2 33.4 26.8 71 0 6.8 4
2018-08-09 00:00:00 18.2 34.4 29.3 66 0 6.5 6
2018-08-10 00:00:00 22.8 34 26.3 84 0 7.7 4
2018-08-11 00:00:00 23.33333 33.93333 26.53333 85 0 7.533333 4
2018-08-12 00:00:00 23.86667 33.86667 26.76667 86 0 7.366667 4
2018-08-13 00:00:00 24.4 33.8 27 87 0 7.2 4
2018-08-14 00:00:00 24.2 35 28.4 66 0 7.8 4
2018-08-15 00:00:00 23.4 34.6 28 71 0 7.6 6
2018-08-16 00:00:00 21.8 34.6 27.2 64 0 7.7 6
2018-08-17 00:00:00 20.6 33.6 26.9 70 0 8 6
2018-08-18 00:00:00 19 34.2 26.2 64 0 8 8
2018-08-19 00:00:00 22 34.6 27.7 65 0 7.9 4
2018-08-20 00:00:00 25 34 28.8 63 0 8 5
2018-08-21 00:00:00 24.6 34 28.6 67 0 7.1 4
2018-08-22 00:00:00 22.8 34.2 28.6 68 0 6.6 6
2018-08-23 00:00:00 23 33.4 27.9 76 0 7.8 5
2018-08-24 00:00:00 23 34 28 63 0 8 8
2018-08-25 00:00:00 23.4 33.6 27.6 66 0 8 6
2018-08-26 00:00:00 22.6 34.4 27.5 66 0 8 21
2018-08-27 00:00:00 23.4 33.6 27.8 68 0 8 5
2018-08-28 00:00:00 25.4 34.6 29.2 69 0 6.9 5
2018-08-29 00:00:00 25 32.8 28.5 66 0 4.2 5
2018-08-30 00:00:00 23.8 34.8 28.6 70 0 8 5
2018-08-31 00:00:00 25 34.6 28.4 71 0 8 5
2018-09-01 00:00:00 25.6 33.4 27.2 76 0 6.6 6
2018-09-02 00:00:00 22.4 33.6 27.5 78 16 5.1 4
2018-09-03 00:00:00 23.6 33 28.2 74 8 8 5
2018-09-04 00:00:00 21.2 35.2 27.9 65 0 8 6
2018-09-05 00:00:00 24 34.4 28.7 66 0 5.8 5
2018-09-06 00:00:00 25 34.2 28.9 68 3 6.6 4
2018-09-07 00:00:00 25 34.8 30.5 56 1.5 5.1 6
2018-09-08 00:00:00 22 36 28.2 70 0 7.8 8
2018-09-09 00:00:00 23.8 35.6 28.7 67 0 8 7
2018-09-10 00:00:00 22.8 36.4 29.8 58 0 8 10
2018-09-11 00:00:00 23.6 35.4 29 63 0 8 6
2018-09-12 00:00:00 24.2 33.8 28.4 68 0 6.6 5
2018-09-13 00:00:00 22.8 35.4 28.7 60 0 8 8
2018-09-14 00:00:00 23.4 34.6 29.2 60 0 4.4 6
2018-09-15 00:00:00 23 34.8 30 54 0 8 6
2018-09-16 00:00:00 21 35.8 27.2 68 0 8 10
2018-09-17 00:00:00 24 35.6 28.2 66 0 7.8 6
2018-09-18 00:00:00 24.6 35.8 29.3 62 0 6.8 6
2018-09-19 00:00:00 25 31.8 27.6 74 0 2 4
2018-09-20 00:00:00 26.2 33 27.9 70 0 1.2 4
2018-09-21 00:00:00 24.8 35.6 28.4 70 1 5.5 5
2018-09-22 00:00:00 25 32.4 27.5 68 0 8 4
2018-09-23 00:00:00 24.4 36 28.2 72 0 8 7
2018-09-24 00:00:00 23.8 35.6 28.7 67 0 8 8
2018-09-25 00:00:00 24.8 33.8 28.5 71 0 8 6
2018-09-26 00:00:00 25.6 35 29.2 71 0 8 5
2018-09-27 00:00:00 25.2 35.8 29 74 0 8 4
2018-09-28 00:00:00 22.6 35.4 28 62 0 8 5
2018-09-29 00:00:00 24.8 35.6 29.5 62 0 8 6
2018-09-30 00:00:00 24.4 35 29.2 68 0 8 5
2018-10-01 00:00:00 25.4 34.4 27 77 5 8 6
2018-10-02 00:00:00 26.2 35 29.2 72 0 8 8
2018-10-03 00:00:00 25.8 33.8 28.6 80 15 7.8 6
2018-10-04 00:00:00 25.2 34.4 29.5 70 16 8 6
2018-10-05 00:00:00 26.2 35.8 30 64 0 7.9 8
2018-10-06 00:00:00 24 35 28.9 70 0 5.5 6
2018-10-07 00:00:00 23 36.4 29.6 59 0 8 6
2018-10-08 00:00:00 22.6 36.6 29.8 69 0 8 5
2018-10-09 00:00:00 22.6 33 28.6 75 0 6.1 4
2018-10-10 00:00:00 24.4 33.4 28.3 75 0 8 6
2018-10-11 00:00:00 24.4 33.4 28.3 74 0 8 9
2018-10-12 00:00:00 20.8 3.6 28.9 70 0 7.4 6
2018-10-13 00:00:00 24.4 33.6 29 70 0 7.5 6
2018-10-14 00:00:00 25.2 33.8 29.2 71 0 7.4 4
2018-10-15 00:00:00 26 33.8 29.7 73 15.5 8 4
2018-10-16 00:00:00 25.2 33 29.3 73 31 7.2 4
2018-10-17 00:00:00 25 33.6 29.7 73 0 7.5 4
2018-10-18 00:00:00 26 34 29.7 67 0 6.8 6
2018-10-19 00:00:00 25.4 34.2 29.1 66 0 7.7 6
2018-10-20 00:00:00 26 33.8 29.5 68 0 6.8 6
2018-10-21 00:00:00 25.6 34.4 29.5 76 0 8 10
2018-10-22 00:00:00 24 35.2 29.7 72 0 8 5
2018-10-23 00:00:00 26 33.8 30 70 0 8 4
2018-10-24 00:00:00 25 34 29.9 70 27 8 4
2018-10-25 00:00:00 24 33.8 29.5 76 16 8 6
2018-10-26 00:00:00 25.4 33.6 28.8 75 0 8 5
2018-10-27 00:00:00 25 36 29.2 75 4 8 5
2018-10-28 00:00:00 26.4 33.4 29.9 73 0 8 5
2018-10-29 00:00:00 26.8 32.2 29.8 72 0 6.4 5
2018-10-30 00:00:00 25.2 33.5 29.2 73 21 7.5 5
2018-10-31 00:00:00 26.2 33 29.7 65 0 6.6 4
2018-11-01 00:00:00 26 34 29.8 68 1 7.4 4
2018-11-02 00:00:00 25.4 35.4 30.2 68 2 4.7 6
2018-11-03 00:00:00 25 25.6 30 75 0 5.3 5
2018-11-04 00:00:00 26 32.6 28.7 79 2 2.5 5
2018-11-05 00:00:00 24.8 33.6 29.1 81 5 6.6 4
2018-11-06 00:00:00 25.4 32.6 27.7 86 6 4.3 4
2018-11-07 00:00:00 26 32 29.4 79 1 3.9 4
2018-11-08 00:00:00 24.8 29.8 27.4 87 31 0.6 3
2018-11-09 00:00:00 25 32 28.1 82 9 3.7 3
2018-11-10 00:00:00 24.6 32 28.2 80 10 6.4 5
2018-11-11 00:00:00 25.4 32.4 27.7 85 5 8 5
2018-11-12 00:00:00 25.2 32.6 28.6 80 4.5 5.7 5
2018-11-13 00:00:00 25.8 32.6 29.1 80 4 7.5 4
2018-11-14 00:00:00 26 32.8 28.6 80 0 5.2 5
2018-11-15 00:00:00 25 33.4 29.1 78 4 7.1 5
2018-11-16 00:00:00 25.8 32.8 28.4 81 0 7.9 3
2018-11-17 00:00:00 25 33.2 28.5 78 24 7.9 5
2018-11-18 00:00:00 24.8 31.8 28.3 82 0 4.4 3
2018-11-19 00:00:00 26.2 32.8 28.9 80 0 7.7 5
2018-11-20 00:00:00 26.2 32.2 28.7 81 0 6.7 5
2018-11-21 00:00:00 26 32.8 29.7 74 0 5.5 5
2018-11-22 00:00:00 24.8 34.4 29.5 77 0 7.1 3
2018-11-23 00:00:00 25.2 33.6 29.2 73 0 6.8 5
2018-11-24 00:00:00 24.4 32.8 29.2 74 0 6 6
2018-11-25 00:00:00 24 32.6 29.3 78 23 5.6 3
2018-11-26 00:00:00 24 32 27.8 80 0 2.6 4
2018-11-27 00:00:00 24.4 32.6 27.5 83 1 7.2 6
2018-11-28 00:00:00 25 31.6 27.2 88 29 1.2 5
2018-11-29 00:00:00 24.8 32.6 29.2 79 0 6.1 3
2018-11-30 00:00:00 21 31.4 27.4 88 105 4.1 4
2018-12-01 00:00:00 25 32.6 28.1 81 5 4.4 9
2018-12-02 00:00:00 24.6 33 28.5 78 0 5.5 3
2018-12-03 00:00:00 24 31 26.7 87 43.5 8.9 6
2018-12-04 00:00:00 23.8 33.6 28.4 82 95 1 5
2018-12-05 00:00:00 25.2 31.4 27.5 87 9.2 6.9 5
2018-12-06 00:00:00 25.2 33.6 29.1 81 2.5 5.3 6
2018-12-07 00:00:00 25.6 32.8 29.9 78 0 8 21
2018-12-08 00:00:00 23.8 32 28.2 87 4.8 9.6 5
2018-12-09 00:00:00 25.6 31.8 28.8 85 0.9 2.5 7
2018-12-10 00:00:00 23.6 32.8 28.5 84 24.8 6.5 5
2018-12-11 00:00:00 25.8 32 29.1 79 0 7.5 4
2018-12-12 00:00:00 25.6 31.6 29.2 82 0 6.4 4
2018-12-13 00:00:00 25 30.8 27.9 85 13.1 3.3 3
2018-12-14 00:00:00 25.4 31.8 27.1 90 12 0.1 5
2018-12-15 00:00:00 24.6 31.6 27.4 85 2.5 2.9 5
2018-12-16 00:00:00 23.8 30.4 27.7 86 1.3 5.5 3
2018-12-17 00:00:00 25.2 32 28.8 80 0 1 5
2018-12-18 00:00:00 25.2 31.8 29.1 78 0 8.2 4
2018-12-19 00:00:00 25.26667 31.56667 28.73333 80 0.666667 7.2 4
2018-12-20 00:00:00 25.33333 31.33333 28.36667 82 1.333333 6.2 4
2018-12-21 00:00:00 25.4 31.1 28 84 2 5.2 4
2018-12-22 00:00:00 25.46667 30.86667 27.63333 86 2.666667 4.2 4
2018-12-23 00:00:00 25.53333 30.63333 27.26667 88 3.333333 3.2 4
2018-12-24 00:00:00 25.6 30.4 26.9 90 4 2.2 4
2018-12-25 00:00:00 25 30.2 26.7 89 11.8 1.8 4.5
2018-12-26 00:00:00 24.4 30 26.5 88 19.6 1.4 5
2018-12-27 00:00:00 24.3 30.6 27.05 86.5 9.8 2.2 4.5
2018-12-28 00:00:00 24.2 31.2 27.6 85 0 3 4
2018-12-29 00:00:00 24.8 31.6 28.3 81 0 5.7 6
2018-12-30 00:00:00 26 33.6 29 76 0 6.1 4
2018-12-31 00:00:00 24.6 32 28.3 80 0 3.9 7
2019-01-01 00:00:00 24.8 31 27.8 82 3.2 5.4 8
2019-01-02 00:00:00 25.6 31 27.5 84 0 2.5 5
2019-01-03 00:00:00 25 29.8 27.5 85 1.6 2.6 4
2019-01-04 00:00:00 25.1 30.4 28 83 0.8 1.3 4.5
2019-01-05 00:00:00 25.2 31 28.5 81 0 0 5
2019-01-06 00:00:00 25.2 32.4 29 79 0 9 6
2019-01-07 00:00:00 26.8 32.6 29.4 79 0 11 5
2019-01-08 00:00:00 25.4 31.8 28.1 85 0 6.8 5
2019-01-09 00:00:00 25 31.6 29 84 27.6 5.8 6
2019-01-10 00:00:00 25.6 32.2 28.7 81 0 7.9 3
2019-01-11 00:00:00 25.8 31.6 29.2 82 1 8.4 5
2019-01-12 00:00:00 25.4 31.8 28.6 82 6.7 9.6 4
2019-01-13 00:00:00 25 31.6 27.7 86 1.8 8.5 5
2019-01-14 00:00:00 24.4 31 27.5 84 1 5.8 6
2019-01-15 00:00:00 25.4 32 28.2 82 0 4.7 8
2019-01-16 00:00:00 25.8 29.8 27.3 88 1.2 5.7 5
2019-01-17 00:00:00 26 31.6 27.9 84 0.6 0 8
2019-01-18 00:00:00 24.2 31.2 27 88 22.9 6 4
2019-01-19 00:00:00 24.8 30.2 27.4 86 8.6 5.6 4
2019-01-20 00:00:00 25.6 30 27.8 83 5.2 4 2
2019-01-21 00:00:00 25.2 29.9 27 86.5 13 4.4 6.5
2019-01-22 00:00:00 24.8 29.8 26.2 90 20.8 4.8 11
2019-01-23 00:00:00 23.8 30.4 26.3 87 40.8 0 9
2019-01-24 00:00:00 24.4 31.2 27.8 83 5 1.4 8
2019-01-25 00:00:00 25 29 26.5 90 4.1 5 9
2019-01-26 00:00:00 25 31 27.5 84 13 0 21
2019-01-27 00:00:00 24 27.4 25.8 93 33.9 6.2 9
2019-01-28 00:00:00 24.6 27.8 26.6 86 10.9 0 5
2019-01-29 00:00:00 24 29.6 26.7 90 1 0 5
2019-01-30 00:00:00 23.4 31.2 26.6 85 3.5 0.7 7
2019-01-31 00:00:00 24 30.4 26.9 90 0 10.2 4
2019-02-01 00:00:00 24.2 31.4 27.3 87 2.8 2 5
2019-02-02 00:00:00 24.6 30.4 27.4 87 1 6.5 5
2019-02-03 00:00:00 23.3 30.8 27.15 86.5 13.2 4.2 5
2019-02-04 00:00:00 22 31.2 26.9 86 25.4 1.9 5
2019-02-05 00:00:00 24.4 30.6 26.6 88 7.5 6 6
2019-02-06 00:00:00 23.2 30.8 26.5 89 30.5 3.5 6
2019-02-07 00:00:00 24.8 31.4 27.6 86 12.1 7.3 6
2019-02-08 00:00:00 23.8 30.8 26.6 90 46.4 5.5 3
2019-02-09 00:00:00 24.6 31.6 28.4 85 9.5 3.8 4
2019-02-10 00:00:00 26 31 28.4 84 0.2 6.7 7
2019-02-11 00:00:00 25.2 31.2 27.7 87 0.4 6.5 5
2019-02-12 00:00:00 24.8 31.2 28 81 4.8 0.2 3
2019-02-13 00:00:00 24.8 31.2 28 81 4.8 0.2 3
2019-02-14 00:00:00 25.4 31.1 27.7 85 2.4 3.75 3
2019-02-15 00:00:00 26 31 27.4 89 0 7.3 3
2019-02-16 00:00:00 25 31.4 27.8 85 23 2.4 8
2019-02-17 00:00:00 22 31.8 28 81 40 9.6 4
2019-02-18 00:00:00 25.4 31.4 27.7 84 0 9.7 4
2019-02-19 00:00:00 24.2 31.8 28.2 81 0 6.6 5
2019-02-20 00:00:00 25.4 31.4 28.6 81 0 9.6 5
2019-02-21 00:00:00 25.4 31 28.2 78 0 6.3 3
2019-02-22 00:00:00 25 31.6 27.9 82 0 5.7 4
2019-02-23 00:00:00 24.2 32 27.3 84 2 6.8 6
2019-02-24 00:00:00 24.6 32.2 28.2 82 11.3 7.1 4
2019-02-25 00:00:00 24 32.6 28.6 82 3 8.4 4
2019-02-26 00:00:00 26 34 29.8 80 0 8.5 6
2019-02-27 00:00:00 27 34.4 30.6 74 0 9.1 6
2019-02-28 00:00:00 27 33 29.9 77 0 9.6 6
2019-03-01 00:00:00 26 32.5 28.8 81 7.3 7 5
2019-03-02 00:00:00 25 32 27.7 85 14.6 4.4 4
2019-03-03 00:00:00 25.2 31 27.1 88 1.1 6.3 4
2019-03-04 00:00:00 25.2 31.6 28.1 83 0 2.5 6
2019-03-05 00:00:00 25.2 31.6 28.1 86 2.7 4.7 6
2019-03-06 00:00:00 25.6 29.2 26 94 1 7.9 5
2019-03-07 00:00:00 23 28.8 26.3 91 19.5 1 3
2019-03-08 00:00:00 24.6 30.8 27.5 86 0 0 4
2019-03-09 00:00:00 25 31.2 27.6 84 0 4.9 4
2019-03-10 00:00:00 24.2 30.6 26.4 92 1 5.2 4
2019-03-11 00:00:00 25 31.6 27.8 84 3 7 4
2019-03-12 00:00:00 25.4 31 28 88 0.9 7.6 6
2019-03-13 00:00:00 24 32 28.3 88 0 3.5 4
2019-03-14 00:00:00 25.8 31.8 28.8 85 0 7.2 11
2019-03-15 00:00:00 26 32.4 28.8 86 0 6.4 6
2019-03-16 00:00:00 25.4 30.8 26.8 85 0 5.5 4
2019-03-17 00:00:00 24.2 30.8 26.4 89 3 2.3 3
2019-03-18 00:00:00 22.6 30.6 27.3 87 1 0.7 4
2019-03-19 00:00:00 25 30.8 26.6 90 7 5.1 4
2019-03-20 00:00:00 23.8 31.4 28 87 40.5 3.7 7
2019-03-21 00:00:00 25.2 32.2 28.4 84 0 8.7 7
2019-03-22 00:00:00 25.2 32.6 28.7 87 15 7.1 7
2019-03-23 00:00:00 24.6 31.4 27.5 91 4.8 8.1 9
2019-03-24 00:00:00 25.4 27.8 26.7 92 1.2 0 3
2019-03-25 00:00:00 25 30.4 27.1 90 12.3 0 4
2019-03-26 00:00:00 23.8 32.6 28.4 82 24 3.7 3
2019-03-27 00:00:00 25.8 32.4 27.5 91 0 6.3 6
2019-03-28 00:00:00 24.2 31.6 26.9 88 9.3 6.1 3
2019-03-29 00:00:00 24 31.8 28 84 3 3.4 5
2019-03-30 00:00:00 25 31.8 28.5 83 0 9.8 5
2019-03-31 00:00:00 25 31.6 27.5 87 0 6.5 4
2019-04-01 00:00:00 24 30.8 26.2 89 16.4 6.7 4
2019-04-02 00:00:00 25.6 30.8 27.5 86 5.1 4.9 3
2019-04-03 00:00:00 25.2 33 28.8 82 0 5.3 4
2019-04-04 00:00:00 24.8 33.6 28.4 82 43.5 8.1 5
2019-04-05 00:00:00 25.2 31.8 28.7 82 3.2 7.4 5
2019-04-06 00:00:00 24.8 31.8 27.6 84 17.2 9.4 8
2019-04-07 00:00:00 25 31.8 28 85 16.35 9.2 6
2019-04-08 00:00:00 25.2 31.8 28.4 86 15.5 9 4
2019-04-09 00:00:00 25.2 32.4 28.5 84 18.8 9.4 5
2019-04-10 00:00:00 25.2 31.8 28.25 84.5 9.4 8.8 4.5
2019-04-11 00:00:00 25.2 31.2 28 85 0 8.2 4
2019-04-12 00:00:00 25 34 28.8 81 0.7 8.4 5
2019-04-13 00:00:00 25.8 32.6 28.2 89 5.4 7.3 4
2019-04-14 00:00:00 25.4 34.6 27.7 86 15.2 5.7 6
2019-04-15 00:00:00 24.6 34.4 28.2 86 8.9 5.6 5
2019-04-16 00:00:00 25.6 32.4 28.7 85 1 5.5 4
2019-04-17 00:00:00 25.8 31.8 28.7 82 0 5.7 6
2019-04-18 00:00:00 25.8 34.2 29.3 79 0 8.8 5
2019-04-19 00:00:00 25.2 33.6 30.2 76 9.3 7.8 4
2019-04-20 00:00:00 26.4 33.8 28.8 79 0 6.9 7
2019-04-21 00:00:00 26 33.4 29.9 77 0 4.9 6
2019-04-22 00:00:00 27.4 34.8 30.6 68 0 8.4 6
2019-04-23 00:00:00 27 34.6 30.8 69 0 9.5 6
2019-04-24 00:00:00 27.4 33.8 30 72 0 9.3 5
2019-04-25 00:00:00 27.4 34 29.1 79 0 5.5 4
2019-04-26 00:00:00 25.4 33.6 29.5 75 19.2 7 4
2019-04-27 00:00:00 25 32.4 28.5 81 0 7.2 4
2019-04-28 00:00:00 25.2 30.6 27.8 86 2 6.9 6
2019-04-29 00:00:00 25.8 31.4 27.5 86 3.2 1.6 5
2019-04-30 00:00:00 24.8 32 28.1 82 11.2 4.5 5
2019-05-01 00:00:00 25.4 31.4 27.4 85 31.8 9 4
2019-05-02 00:00:00 25.36 31.52 27.6 84.4 27.62 9.08 4
2019-05-03 00:00:00 25.32 31.64 27.8 83.8 23.44 9.16 4
2019-05-04 00:00:00 25.28 31.76 28 83.2 19.26 9.24 4
2019-05-05 00:00:00 25.24 31.88 28.2 82.6 15.08 9.32 4
2019-05-06 00:00:00 25.2 32 28.4 82 10.9 9.4 4
2019-05-07 00:00:00 22.8 33.6 29.4 78 0 9.8 5
2019-05-08 00:00:00 26.2 33.2 29 77 0.6 9 5
2019-05-09 00:00:00 26 33.2 28.2 82 0 10.2 4
2019-05-10 00:00:00 24.6 32.4 28.4 80 53.6 6.2 4
2019-05-11 00:00:00 25 32.6 28.7 76 0 3.9 7
2019-05-12 00:00:00 25.4 32.4 29 74 0 9 4
2019-05-13 00:00:00 25 34 29.5 70 0 8 5
2019-05-14 00:00:00 25.6 34 28.9 77 0 9.5 4
2019-05-15 00:00:00 26 33.8 29.8 76 0 8.5 5
2019-05-16 00:00:00 25.4 31.8 28.5 85 3.2 8.3 4
2019-05-17 00:00:00 24.4 33.6 28.6 71 0 4.9 5
2019-05-18 00:00:00 23.8 32.8 27.7 78 0 9.2 5
2019-05-19 00:00:00 24.4 33.6 29.1 69 0 7.6 6
2019-05-20 00:00:00 25 33.4 29.1 73 0 9.8 5
2019-05-21 00:00:00 24.4 34.6 29.4 73 0 10.2 6
2019-05-22 00:00:00 24.8 35 29.1 75 0 9.9 5
2019-05-23 00:00:00 25.8 35.6 30 69 0 10.5 5
2019-05-24 00:00:00 23.6 33.8 29.5 74 0 9.2 5
2019-05-25 00:00:00 24.8 33.6 28.9 74 0 9.6 6
2019-05-26 00:00:00 25 34 29.2 74 0 9.7 5
2019-05-27 00:00:00 25.6 33.8 29.4 73 0 7.9 5
2019-05-28 00:00:00 25 34.2 31.1 61 0 6.9 5
2019-05-29 00:00:00 25.2 34.6 30.3 71 0 10.3 6
2019-05-30 00:00:00 25.6 34.2 28.9 75 0 9.2 6
2019-05-31 00:00:00 24.6 33.8 28.7 73 0 10 6
2019-06-01 00:00:00 23 34 28.5 74 0 9.5 5
2019-06-02 00:00:00 24 32.4 27.8 78 0 7.9 4
2019-06-03 00:00:00 23.8 31.8 27.1 82 0 7.9 4
2019-06-04 00:00:00 24.4 33.8 28.4 78 0 4 4
2019-06-05 00:00:00 23.4 33.4 29.8 70 0 5.8 5
2019-06-06 00:00:00 26.4 33.6 30.2 66 0 10.2 4
2019-06-07 00:00:00 26 34.2 30.4 68 0 9.4 5
2019-06-08 00:00:00 24.2 34.2 28.8 70 0 7.1 8
2019-06-09 00:00:00 23.6 34.2 28.4 73 0 8.6 10
2019-06-10 00:00:00 24 35 28.7 75 0 8.5 6
2019-06-11 00:00:00 24.4 35.6 29.6 69 0 10.4 5
2019-06-12 00:00:00 23.8 34.6 29.1 71 0 9.6 6
2019-06-13 00:00:00 24.8 33.6 29.5 73 0 9.5 11
2019-06-14 00:00:00 26 30.8 27.6 84 0 7.8 4
2019-06-15 00:00:00 25.4 34.6 28.8 79 0 1.1 5
2019-06-16 00:00:00 24 33.6 28.5 76 1 5.5 6
2019-06-17 00:00:00 25.2 33.4 29.1 65 0 8.4 6
2019-06-18 00:00:00 23.8 33 29 68 0 10.3 9
2019-06-19 00:00:00 22.8 31.8 26.9 78 0 10.6 4
2019-06-20 00:00:00 22.8 33.2 27.5 70 0 10.3 5
2019-06-21 00:00:00 21.8 32.4 27 77 0 9.9 4
2019-06-22 00:00:00 22.4 32.8 26.8 79 0 9.1 5
2019-06-23 00:00:00 23.4 33.8 27.6 72 0 9.1 7
2019-06-24 00:00:00 23 34.6 27.9 65 0 9.4 5
2019-06-25 00:00:00 23.6 34.6 27.7 69 0 9.9 7
2019-06-26 00:00:00 24 34.2 28.8 70 0 10.6 4
2019-06-27 00:00:00 24.2 33.8 28.1 69 0 10.3 6
2019-06-28 00:00:00 22.8 33.6 28 66 0 9.3 4
2019-06-29 00:00:00 20.8 33.2 25.6 71 0 10.3 5
2019-06-30 00:00:00 21.8 32.4 27 68 0 10.6 5
2019-07-01 00:00:00 22.2 32.8 27.2 66 0 9.7 5
2019-07-02 00:00:00 22 33.8 26.9 76 0 10 7
2019-07-03 00:00:00 21.6 34.8 28.4 81 0 9.1 8
2019-07-04 00:00:00 25 34.4 29 73 0 8.7 7
2019-07-05 00:00:00 25.2 33.8 28.7 80 0.8 6.9 9
2019-07-06 00:00:00 25.1 33.7 28.85 75.5 0.4 8.05 8
2019-07-07 00:00:00 25 33.6 29 71 0 9.2 7
2019-07-08 00:00:00 23.8 33.2 27 77 0 10 7
2019-07-09 00:00:00 23 34.4 26.7 73 0 10 7
2019-07-10 00:00:00 22.2 33.4 27.3 66 0 10 8
2019-07-11 00:00:00 23.4 33.6 28.8 62 0 10.3 6
2019-07-12 00:00:00 23.4 33.8 27.8 67 0 10 8
2019-07-13 00:00:00 22.8 33.6 27.8 67 0 10.2 6
2019-07-14 00:00:00 20.8 33.2 27.1 63 0 10.4 7
2019-07-15 00:00:00 20.6 33.8 27.5 63 0 9.8 4
2019-07-16 00:00:00 22.2 34 27.6 58 0 9 5
2019-07-17 00:00:00 21.6 33.8 26.4 66 0 10 7
2019-07-18 00:00:00 19.6 34.6 27.8 68 0 9.3 7
2019-07-19 00:00:00 22.6 33 29.3 62 0 9.6 6
2019-07-20 00:00:00 26.4 34.8 29.6 66 0 1.3 6
2019-07-21 00:00:00 23.9 34.4 28.8 71 0 6.9 5
2019-07-22 00:00:00 23.2 34.4 27.8 67 0 10 5
2019-07-23 00:00:00 22 32.8 26.8 71 0 10.8 8
2019-07-24 00:00:00 23 34.6 27.4 72 0 9.8 6
2019-07-25 00:00:00 23.2 33 27 67 0 9.2 5
2019-07-26 00:00:00 23.6 33.8 28.3 70 0 9.6 6
2019-07-27 00:00:00 24.4 32.8 27.8 74 0 10.7 4
2019-07-28 00:00:00 22.7 33.2 27.4 70 0 10.15 5
2019-07-29 00:00:00 21 33.6 27 66 0 9.6 6
2019-07-30 00:00:00 22.8 33 28.1 63 0 10.4 4
2019-07-31 00:00:00 22.3 33.5 27.8 64.5 0 10.3 5.5
2019-08-01 00:00:00 21.8 34 27.5 66 0 10.2 7
2019-08-02 00:00:00 24.2 34.6 28.2 66 0 10.2 6
2019-08-03 00:00:00 23 33.6 27.4 64 0 10.1 6
2019-08-04 00:00:00 21.2 32.4 26.9 66 1.6 9.9 4
2019-08-05 00:00:00 21 32 26.1 67 0 9.9 4
2019-08-06 00:00:00 20.4 34.2 26.5 63 0 10 5
2019-08-07 00:00:00 18.4 34 26.9 60 0 8.1 6
2019-08-08 00:00:00 22.2 33.8 28 59 0 8.6 5
2019-08-09 00:00:00 23.2 35 28.4 64 0 10.4 8
2019-08-10 00:00:00 22.6 34 27.2 64 0 10.6 6
2019-08-11 00:00:00 23.8 34.2 28.9 68 0 9.8 9
2019-08-12 00:00:00 23.4 34.4 28.2 64 0 10.2 6
2019-08-13 00:00:00 24.4 34.6 29.8 65 0 9.8 9
2019-08-14 00:00:00 25.6 35.2 29.4 65 0 10.3 8
2019-08-15 00:00:00 25.8 34.8 29.3 67 0 10 6
2019-08-16 00:00:00 23.8 34.6 28 69 0 8 5
2019-08-17 00:00:00 23.4 34.4 27.2 74 0 9.8 6
2019-08-18 00:00:00 22.2 35 27.4 69 0 9.7 8
2019-08-19 00:00:00 21.6 33.4 27 70 0 10.6 4
2019-08-20 00:00:00 22.8 34.8 28.8 62 0 9.6 7
2019-08-21 00:00:00 25.6 34.8 30.1 56 0 10.3 9
2019-08-22 00:00:00 26.6 34.8 30 62 0.2 9.9 6
2019-08-23 00:00:00 23 34.2 28.4 66 0 10 4
2019-08-24 00:00:00 22.4 33 27.2 71 0 10 5
2019-08-25 00:00:00 23.2 33 27 77 0 10.2 6
2019-08-26 00:00:00 24.2 33 27.9 74 0 9 5
2019-08-27 00:00:00 24 32.8 28 72 0 8.9 5
2019-08-28 00:00:00 23.6 34 28.3 66 0 8.3 4
2019-08-29 00:00:00 25.2 34.8 29 62 0 9.6 7
2019-08-30 00:00:00 22.6 34.4 27.5 64 0 8.6 7
2019-08-31 00:00:00 22.8 34.6 27.8 67 0 10 8
2019-09-01 00:00:00 23.1 33.8 27.65 68.5 0 10.25 6
2019-09-02 00:00:00 23.4 33 27.5 70 0 10.5 4
2019-09-03 00:00:00 24.6 34.4 28.7 70 0 10.1 6
2019-09-04 00:00:00 24.6 36.2 28.8 68 0 9.4 5
2019-09-05 00:00:00 23.2 35 27.9 56 0 9.8 6
2019-09-06 00:00:00 22.8 34.8 28.4 56 0 10.4 6
2019-09-07 00:00:00 21.2 34.6 28.8 56 0 9.8 7
2019-09-08 00:00:00 23.8 34 28 68 0 11.3 5
2019-09-09 00:00:00 23.4 35.8 28.9 64 0 9.5 6
2019-09-10 00:00:00 24 36.6 30.8 40 0 10.5 9
2019-09-11 00:00:00 22.2 34.8 27.7 66 0 10.4 6
2019-09-12 00:00:00 22.4 35.4 27.8 58 0 9.3 6
2019-09-13 00:00:00 21.6 34.2 27.3 56 0 10.5 6
2019-09-14 00:00:00 22.8 32.8 27.3 66 0 10.2 7
2019-09-15 00:00:00 24.2 33.8 29.3 62 0 9.8 7
2019-09-16 00:00:00 25.8 34.8 29.2 65 4.3 6.6 5
2019-09-17 00:00:00 23.8 35 28.4 70 0 10.2 6
2019-09-18 00:00:00 24.6 35 28.5 69 0 9.2 6
2019-09-19 00:00:00 23.8 32.6 27.7 72 0 10.2 7
2019-09-20 00:00:00 23.2 35.2 28.6 66 0 9.7 5
2019-09-21 00:00:00 24 34.8 28.2 73 0 10.2 5
2019-09-22 00:00:00 23.2 35.8 28.7 70 0 10 6
2019-09-23 00:00:00 25 35.4 29.6 72 0 8.4 7
2019-09-24 00:00:00 26.2 36 30.5 70 0 10.2 7
2019-09-25 00:00:00 25 36.2 29.6 73 0 10.2 10
2019-09-26 00:00:00 24.4 37 30.7 74 0 9.6 5
2019-09-27 00:00:00 25.2 36.4 29.5 79 0.4 9.8 6
2019-09-28 00:00:00 25.6 35 29.1 76 0 8.7 7
2019-09-29 00:00:00 25.6 35.8 29.9 72 6 9.7 7
2019-09-30 00:00:00 23.6 36.6 29.5 67 0 9.7 8
2019-10-01 00:00:00 24 32 28.6 74 0 10.4 6
2019-10-02 00:00:00 24.8 36.4 29.8 71 0 10 7
2019-10-03 00:00:00 24.2 35.8 30 73 0 10.3 7
2019-10-04 00:00:00 24 37.4 29.4 72 1 10 6
2019-10-05 00:00:00 22 37.4 29.3 64 0 11 8
2019-10-06 00:00:00 23.4 36.6 29.4 72 0 11 8
2019-10-07 00:00:00 23.6 35.6 28.8 75 0 10.4 4
2019-10-08 00:00:00 26.4 36.6 30.7 69 0 8 4
2019-10-09 00:00:00 26 34.2 30 72 0 9.9 6
2019-10-10 00:00:00 25.2 36.6 30.9 66 0 9.3 6
2019-10-11 00:00:00 26.2 37.6 30.9 66 0 7.3 6
2019-10-12 00:00:00 25 33.8 28.8 72 0 10.4 5
2019-10-13 00:00:00 25 34.6 28.9 72 0 9.5 4
2019-10-14 00:00:00 25.4 35.6 29.8 72 0 9.9 4
2019-10-15 00:00:00 25.6 33.8 29.5 75 0 10.4 4
2019-10-16 00:00:00 26.4 34.4 29.8 71 0 10.4 5
2019-10-17 00:00:00 25.6 34.8 29.7 73 0.2 7.5 6
2019-10-18 00:00:00 24.6 35.2 29.7 74 0 9.8 6
2019-10-19 00:00:00 25.2 34.2 28.8 79 0 11.5 6
2019-10-20 00:00:00 24.2 36.4 29.3 80 7 8.9 5
2019-10-21 00:00:00 24.2 38 30.2 72 0 9.5 7
2019-10-22 00:00:00 23.4 39.4 30.2 74 0 11.1 4
2019-10-23 00:00:00 25.4 38.6 30.4 69 0 11 7
2019-10-24 00:00:00 23.4 38 31.1 67 0 10.6 7
2019-10-25 00:00:00 25.4 36.8 30.4 72 0 10.8 6
2019-10-26 00:00:00 25.2 34.6 30.3 72 0 10.8 6
2019-10-27 00:00:00 24.6 33 29.2 77 0 9.9 5
2019-10-28 00:00:00 25.2 37.4 30.6 63 0 7.2 6
2019-10-29 00:00:00 25 33.8 29.8 74 0 10.6 6
2019-10-30 00:00:00 24.8 34.6 29.8 73 0 9.6 6
2019-10-31 00:00:00 26.2 34.8 30.4 72 0 10.5 5
2019-11-01 00:00:00 24.4 33.6 28.7 82 26.6 10.5 6
2019-11-02 00:00:00 24.6 33.5 28.86667 81.66667 17.9 8.033333 5.333333
2019-11-03 00:00:00 24.8 33.4 29.03333 81.33333 9.2 5.566667 4.666667
2019-11-04 00:00:00 25 33.3 29.2 81 0.5 3.1 4
2019-11-05 00:00:00 26.6 34.6 30.2 75 0 5.6 3
2019-11-06 00:00:00 23.6 34 29.2 74 0 7.2 4
2019-11-07 00:00:00 24.8 34.6 29.6 72 0 11.2 6
2019-11-08 00:00:00 25.6 35.6 30.1 75 0 11.2 8
2019-11-09 00:00:00 26.4 34.8 30.3 76 0 10.4 4
2019-11-10 00:00:00 25.2 35 30.2 75 0.2 7.3 6
2019-11-11 00:00:00 25 34 29.9 77 0 10.3 3
2019-11-12 00:00:00 25.2 36.8 30.8 73 0 9.3 5
2019-11-13 00:00:00 26.6 36.4 30.1 73 0 8.8 7
2019-11-14 00:00:00 25.6 34.6 30.3 78 2 7.7 6
2019-11-15 00:00:00 26.8 34 30.4 77 0 3.9 6
2019-11-16 00:00:00 23 38.2 31.4 68 0 9.4 8
2019-11-17 00:00:00 23.4 37.6 30.5 73 0 10.5 8
2019-11-18 00:00:00 25.4 38.4 31.2 66 0 9.9 9
2019-11-19 00:00:00 27 34.6 31.2 73 0 9.2 4
2019-11-20 00:00:00 27.4 33 29.9 75 0 9.7 4
2019-11-21 00:00:00 25.8 34.4 30.1 76 0.6 6.3 4
2019-11-22 00:00:00 26 34.2 29.9 76 0 8.5 4
2019-11-23 00:00:00 24 37 30.5 74 0 6.6 6
2019-11-24 00:00:00 25.8 37 30.9 70 0 9.4 7
2019-11-25 00:00:00 26.4 34.2 30.1 75 0 10.3 5
2019-11-26 00:00:00 26.4 34.2 29.9 77 0 7.2 5
2019-11-27 00:00:00 26.4 34.4 30.7 73 0 9.6 5
2019-11-28 00:00:00 26 33.4 29.8 77 10 6.8 4
2019-11-29 00:00:00 27.2 34.6 30.4 75 0 5.9 4
2019-11-30 00:00:00 24.8 33.6 29.4 83 30.3 9.4 5
2019-12-01 00:00:00 25.7 33.6 29.8 81.5 15.15 9.75 4.5
2019-12-02 00:00:00 26.6 33.6 30.2 80 0 10.1 4
2019-12-03 00:00:00 26.8 32.8 30 80 0 8.7 8
2019-12-04 00:00:00 26 33.8 28.7 83 0 7.6 7
2019-12-05 00:00:00 24.6 31.2 28.5 82 45.5 7.2 3
2019-12-06 00:00:00 25 33.4 28.2 82 14.7 0.9 6
2019-12-07 00:00:00 24 33.6 28.4 85 36 7.9 7
2019-12-08 00:00:00 25.4 33.2 29.4 84 8 4.8 5
2019-12-09 00:00:00 25.4 32.4 28.8 86 3.6 7.7 5
2019-12-10 00:00:00 25 32.6 28.4 84 7.9 7.2 7
2019-12-11 00:00:00 25 33 29.1 78 0 7.8 6
2019-12-12 00:00:00 25.6 31.4 28.7 83 0 8.5 4
2019-12-13 00:00:00 26.2 31.4 28.8 82 0 1.8 5
2019-12-14 00:00:00 25.2 32.6 29 80 0 3.1 5
2019-12-15 00:00:00 22.8 31.2 28.2 88 29 8.9 5
2019-12-16 00:00:00 23 31.2 28.2 87 14 6.9 4
2019-12-17 00:00:00 21.2 31.4 27.3 87 0 5 5
2019-12-18 00:00:00 23.2 32.6 28.2 85 25.5 6.2 4
2019-12-19 00:00:00 25.4 32.4 29.3 83 1.6 8.5 5
2019-12-20 00:00:00 25.4 32.4 29 82 2.2 7.9 4
2019-12-21 00:00:00 26.4 32.4 29.5 82 0 8.5 4
2019-12-22 00:00:00 26.4 32.2 28.1 86 0 5.3 4
2019-12-23 00:00:00 25.4 31 28.1 84 0.8 6.4 4
2019-12-24 00:00:00 26.4 32.4 28.9 84 0 4.9 5
2019-12-25 00:00:00 26.8 32.4 27.9 87 0 7.5 6
2019-12-26 00:00:00 25 31.6 28.2 86 5 1.9 4
2019-12-27 00:00:00 25.6 31.4 27.9 88 0.6 5.3 5
2019-12-28 00:00:00 23.4 30.2 27.5 90 31.9 5 4
2019-12-29 00:00:00 25.8 32 28.7 84 0 1.2 4
2019-12-30 00:00:00 25.4 31.8 29 86 4.8 6.6 3
2019-12-31 00:00:00 25.4 31.6 27.5 88 0 3.9 3
2020-01-01 00:00:00 24.2 31.4 27 88 9.6 3.6 6
2020-01-02 00:00:00 24 31 27.4 87 16.7 3.4 6
2020-01-03 00:00:00 24.8 32.2 28.4 84 2 2.5 7
2020-01-04 00:00:00 22 31.4 27.1 90 36.6 4.6 8
2020-01-05 00:00:00 25.4 30.4 26.8 92 3.7 0.8 6
2020-01-06 00:00:00 24.6 29.6 26.3 92 20.3 0.2 4
2020-01-07 00:00:00 23.6 30.4 26.7 94 28.8 3.2 5
2020-01-08 00:00:00 24.6 30.2 26.9 93 28 3.1 5
2020-01-09 00:00:00 24.2 30.2 26.4 90 13.5 2.1 4
2020-01-10 00:00:00 25.2 29.8 26.9 93 2.5 2.9 6
2020-01-11 00:00:00 24.6 29.4 27.1 89 6.4 0.4 3
2020-01-12 00:00:00 24.2 31.6 27.7 86 8.6 0.4 4
2020-01-13 00:00:00 24.5 31.1 27.75 86.5 9.8 4.1 5
2020-01-14 00:00:00 24.8 30.6 27.8 87 11 7.8 6
2020-01-15 00:00:00 25.4 30.8 27.7 89 5.5 8.1 5
2020-01-16 00:00:00 26 31 27.6 91 0 8.4 4
2020-01-17 00:00:00 24.8 31.8 27.8 88 0 4.6 6
2020-01-18 00:00:00 24.6 31.8 28.6 82 0 8.5 4
2020-01-19 00:00:00 26 32.2 29.3 82 0 10.3 4
2020-01-20 00:00:00 25.4 32.2 29.3 85 0 10.3 5
2020-01-21 00:00:00 25.4 32.3 29.15 84 0 7.5 4.5
2020-01-22 00:00:00 25.4 32.4 29 83 0 4.7 4
2020-01-23 00:00:00 25.4 33 29.4 80 0 9.4 4
2020-01-24 00:00:00 25.8 32.2 28.3 86 0 7.15 5
2020-01-25 00:00:00 26.2 31.4 27.2 92 0 4.9 6
2020-01-26 00:00:00 24.6 31 27.8 86 113.6 4.7 4
2020-01-27 00:00:00 26 31.4 28.9 84 0 8.6 5
2020-01-28 00:00:00 26 32.2 29 84 0 8.8 6
2020-01-29 00:00:00 26.4 31.8 29.1 85 0 8.1 6
2020-01-30 00:00:00 26.2 31.4 28.7 84 0 6.5 5
2020-01-31 00:00:00 26 32.2 28.5 85 0 1.7 5
2020-02-01 00:00:00 25 31.8 27.7 88 1 4.2 5
2020-02-02 00:00:00 25.8 30.6 27 90 1 6.3 5
2020-02-03 00:00:00 25 31.6 27.2 90 2.7 2.6 5
2020-02-04 00:00:00 22.2 31 28.2 85 60.5 5.3 4
2020-02-05 00:00:00 25 31.4 27.6 86 54.2 6.1 4
2020-02-06 00:00:00 25.2 31 27.8 87 13.4 5 6
2020-02-07 00:00:00 25 31.2 26.8 89 8.2 7.1 6
2020-02-08 00:00:00 22.6 31.6 27.7 85 29.5 3.6 8
2020-02-09 00:00:00 24 31.2 27.6 86.5 15 2.6 6.5
2020-02-10 00:00:00 25.4 30.8 27.5 88 0.5 1.6 5
2020-02-11 00:00:00 24.8 30.6 27.6 87 0 6.2 4
2020-02-12 00:00:00 24 30.93333 27.96667 84.66667 0 5.266667 4.333333
2020-02-13 00:00:00 23.2 31.26667 28.33333 82.33333 0 4.333333 4.666667
2020-02-14 00:00:00 22.4 31.6 28.7 80 0 3.4 5
2020-02-15 00:00:00 26.6 31.6 28 90 0 8.8 4
2020-02-16 00:00:00 25.4 31.6 27.8 87 0.3 3.5 5
2020-02-17 00:00:00 25.8 31 27.6 88 0.4 3.1 4
2020-02-18 00:00:00 25.6 30.8 27.6 90 21.3 1.6 7
2020-02-19 00:00:00 25 30.4 27 90 4.5 3.7 9
2020-02-20 00:00:00 24 27.4 25.7 93 114 3.8 3
2020-02-21 00:00:00 23.8 30.4 27.5 85 12.2 0.8 7
2020-02-22 00:00:00 23.2 31 27.7 87 0 7.3 6
2020-02-23 00:00:00 23 31.2 27.7 90 31 8 5
2020-02-24 00:00:00 22 28.4 26.5 93 5.1 6.3 6
2020-02-25 00:00:00 25 31 27.4 88 6.5 0.5 9
2020-02-26 00:00:00 26 30.6 28 87 0 7.5 5
2020-02-27 00:00:00 24.8 31.6 27.6 90 4.5 2.8 8
2020-02-28 00:00:00 25.2 31 27.3 90 14.2 7.9 5
2020-02-29 00:00:00 25.2 30.8 27.1 90 8.2 15.5 6
2020-03-01 00:00:00 24.8 29.8 26.4 94 48.4 6.4 6
2020-03-02 00:00:00 25 30.6 27.5 90 40.1 0.7 5
2020-03-03 00:00:00 26 31 28.2 89 0 6 5
2020-03-04 00:00:00 25 31 27.1 88 21.5 7.3 4
2020-03-05 00:00:00 24.6 31.2 27.2 90 27.4 4.5 4
2020-03-06 00:00:00 24.8 31 27.5 88 0 2.1 5
2020-03-07 00:00:00 25.2 31.2 27.6 89 3.7 4.8 10
2020-03-08 00:00:00 25.4 31.4 27 91 3 6.3 5
2020-03-09 00:00:00 25.4 30.6 27.4 90 4.3 5.6 4
2020-03-10 00:00:00 25.2 30.6 27.9 87 0 2.8 4
2020-03-11 00:00:00 25.4 31.8 28.8 87 0 3.1 4
2020-03-12 00:00:00 26.6 31.8 28.9 85 0 9.2 5
2020-03-13 00:00:00 25.6 31.8 28.6 83 0 5.8 6
2020-03-14 00:00:00 27.2 33 29.3 84 0 8.5 7
2020-03-15 00:00:00 25.8 32.2 28.8 85 3.3 5.4 10
2020-03-16 00:00:00 24 32.8 28.4 86 10 4.8 5
2020-03-17 00:00:00 25.6 32.2 28.5 88 13.6 6 7
2020-03-18 00:00:00 25 33.4 28.9 81 16.7 6.2 4
2020-03-19 00:00:00 24.4 31.8 26.9 91 0.2 6.4 5
2020-03-20 00:00:00 24.6 31.6 27.8 88 6.2 3.7 5
2020-03-21 00:00:00 25.2 31.6 28.2 84 0 6.6 6
2020-03-22 00:00:00 26.2 32 29.1 80 0 7 3
2020-03-23 00:00:00 26.2 32.2 28.8 85 0.2 10.3 4
2020-03-24 00:00:00 24.6 31.4 28 84 0 5.2 5
2020-03-25 00:00:00 25.4 31.8 28.7 85 1.9 4.3 7
2020-03-26 00:00:00 26.2 32.8 28.9 84 5.6 7.9 6
2020-03-27 00:00:00 25.2 32.6 28.9 84 2 9 4
2020-03-28 00:00:00 26.4 32 28.9 84 0 7.7 5
2020-03-29 00:00:00 25.8 32.2 28.2 86 0 6.3 4
2020-03-30 00:00:00 26.6 32 27.7 88 0 5.7 4
2020-03-31 00:00:00 25.2 31.2 26.8 94 23.7 4.6 3
2020-04-01 00:00:00 24.6 31.6 28.3 86 14.4 5.2 3
2020-04-02 00:00:00 24.6 32.2 27.8 88 91.6 7.5 4
2020-04-03 00:00:00 24.8 32.2 29.1 84 0.5 7.3 5
2020-04-04 00:00:00 24.93333 31.93333 28.5 86 3.133333 5.766667 4.333333
2020-04-05 00:00:00 25.06667 31.66667 27.9 88 5.766667 4.233333 3.666667
2020-04-06 00:00:00 25.2 31.4 27.3 90 8.4 2.7 3
2020-04-07 00:00:00 24.8 30.6 26.9 90 32.5 3 4
2020-04-08 00:00:00 24.8 30.8 27.2 88 3 6 4
2020-04-09 00:00:00 25.2 34.2 28.2 84 0 1.5 6
2020-04-10 00:00:00 25.6 34.4 29 82 0 6.5 4
2020-04-11 00:00:00 25.2 32 27.1 91 1.2 7.5 4
2020-04-12 00:00:00 25 32.6 27.3 89 4.7 6.1 8
2020-04-13 00:00:00 23.6 31.6 27.9 87 43.5 5.7 4
2020-04-14 00:00:00 22.4 31.6 28.4 84 0 9.6 5
2020-04-15 00:00:00 25.8 33 29.4 82 0 9.3 6
2020-04-16 00:00:00 25.75 32.7 29.15 83.75 0 8.725 5.25
2020-04-17 00:00:00 25.7 32.4 28.9 85.5 0 8.15 4.5
2020-04-18 00:00:00 25.65 32.1 28.65 87.25 0 7.575 3.75
2020-04-19 00:00:00 25.6 31.8 28.4 89 0 7 3
2020-04-20 00:00:00 26.4 33.2 29.6 84 2 6.4 6
2020-04-21 00:00:00 24.6 32.4 28.1 88 56.5 10.4 4
2020-04-22 00:00:00 25.4 34.6 29.2 83 15 5.7 7
2020-04-23 00:00:00 27.6 34.2 30.8 76 0 10 6
2020-04-24 00:00:00 27.4 33.8 29.5 78 0 8.4 5
2020-04-25 00:00:00 26 33.4 29.1 82 4.6 7.8 4
2020-04-26 00:00:00 26.2 32 27.8 88 0 2.4 4
2020-04-27 00:00:00 25.2 34.2 29.6 79 7.7 1.3 6
2020-04-28 00:00:00 25 33.8 29.75 77.5 6.85 0.85 6.5
2020-04-29 00:00:00 24.8 33.4 29.9 76 6 0.4 7
2020-04-30 00:00:00 24.66667 32.4 29.03333 81.33333 20.16667 3.333333 6
2020-05-01 00:00:00 24.53333 31.4 28.16667 86.66667 34.33333 6.266667 5
2020-05-02 00:00:00 24.4 30.4 27.3 92 48.5 9.2 4
2020-05-03 00:00:00 25.2 32.2 28.8 82 0 0.2 4
2020-05-04 00:00:00 26.2 33.2 29.8 77 0 6.9 6
2020-05-05 00:00:00 27 33.6 29.9 80 0 7.9 6
2020-05-06 00:00:00 27.2 33.8 30.3 77 0 7.4 5
2020-05-07 00:00:00 25.4 34.2 30.3 76 5.6 7.7 5
2020-05-08 00:00:00 26.6 34 29.9 78.5 2.8 6.25 5
2020-05-09 00:00:00 27.8 33.8 29.5 81 0 4.8 5
2020-05-10 00:00:00 24.6 33.6 28.8 81 43.5 5.9 3
2020-05-11 00:00:00 27.2 33.2 29.1 81 1 8.9 6
2020-05-12 00:00:00 25.6 33.4 29.2 82 0 4.5 6
2020-05-13 00:00:00 28 33.8 30.5 76 0 9.1 4
2020-05-14 00:00:00 27 33.2 29.8 76 0 7.1 6
2020-05-15 00:00:00 25.8 33.2 28.7 81 0 8.8 7
2020-05-16 00:00:00 25.6 35 30.1 76 0 4.6 5
2020-05-17 00:00:00 26.6 35.4 28.9 84 0 9.4 5
2020-05-18 00:00:00 25.2 32.4 28.5 88 21.8 8.5 5
2020-05-19 00:00:00 25.2 33.6 28.2 86 21 2.1 9
2020-05-20 00:00:00 25.6 33.4 29 87 8.1 4.7 6
2020-05-21 00:00:00 24 31.8 28 86 83 9.7 4
2020-05-22 00:00:00 24.6 32.2 28.4 85.66667 55.46667 9.5 4.333333
2020-05-23 00:00:00 25.2 32.6 28.8 85.33333 27.93333 9.3 4.666667
2020-05-24 00:00:00 25.8 33 29.2 85 0.4 9.1 5
2020-05-25 00:00:00 24.8 32.2 29.2 83 0 9.6 5
2020-05-26 00:00:00 26.4 32 28.7 85 6.3 8.3 3
2020-05-27 00:00:00 24.6 32.2 28.7 84 0 6 5
2020-05-28 00:00:00 26 30.8 27.7 89 0 7.7 4
2020-05-29 00:00:00 24.8 32 28 88 0 0.7 4
2020-05-30 00:00:00 26.4 33.6 29.6 77 0 9.4 4
2020-05-31 00:00:00 25 33.4 28.8 82 28.2 8.8 6
2020-06-01 00:00:00 25.26667 33 28.86667 81.33333 18.8 6.466667 6
2020-06-02 00:00:00 25.53333 32.6 28.93333 80.66667 9.4 4.133333 6
2020-06-03 00:00:00 25.8 32.2 29 80 0 1.8 6
2020-06-04 00:00:00 26.2 33.4 29 81 0 4.2 5
2020-06-05 00:00:00 25.4 33.4 28.5 83 0 10.2 5
2020-06-06 00:00:00 25.2 31.6 27.9 86 0 10.3 5
2020-06-07 00:00:00 25.6 32.2 28.4 82 0 7.9 5
2020-06-08 00:00:00 25.8 32.4 28.7 83 0 7.8 5
2020-06-09 00:00:00 26 32.8 29.1 82 0 8.6 5
2020-06-10 00:00:00 25.6 32.4 29 80 2.6 9.4 5
2020-06-11 00:00:00 26 32.2 29 83 0 8.2 6
2020-06-12 00:00:00 24.4 32.6 28.3 82 19 8.8 7
2020-06-13 00:00:00 24.93333 33 28.93333 81.33333 12.66667 8.1 6.666667
2020-06-14 00:00:00 25.46667 33.4 29.56667 80.66667 6.333333 7.4 6.333333
2020-06-15 00:00:00 26 33.8 30.2 80 0 6.7 6
2020-06-16 00:00:00 26.6 33.2 28.7 84 0.5 9.4 6
2020-06-17 00:00:00 24.2 34 28.6 78 0 7.6 6
2020-06-18 00:00:00 25.4 33.6 28.8 84 0 10.5 4
2020-06-19 00:00:00 26.4 33.2 29.4 82 0 9.2 5
2020-06-20 00:00:00 25.3 33.3 29.15 79.5 0 8.2 5
2020-06-21 00:00:00 24.2 33.4 28.9 77 0 7.2 5
2020-06-22 00:00:00 25.8 33.2 29.6 78 0 6.4 7
2020-06-23 00:00:00 25 33 28.7 78 0 7 5
2020-06-24 00:00:00 24.8 33 28.475 78.5 0 7.425 5
2020-06-25 00:00:00 24.6 33 28.25 79 0 7.85 5
2020-06-26 00:00:00 24.4 33 28.025 79.5 0 8.275 5
2020-06-27 00:00:00 24.2 33 27.8 80 0 8.7 5
2020-06-28 00:00:00 24.2 33.6 28 82 0 9.9 6
2020-06-29 00:00:00 24.8 34.2 28.7 76 0 9.9 5
2020-06-30 00:00:00 24.6 34 28.6 80 0 9.8 6
2020-07-01 00:00:00 24.8 33.6 27.95 82 0 9.2 7
2020-07-02 00:00:00 25 33.2 27.3 84 0 8.6 8
2020-07-03 00:00:00 24 33.2 28.7 82 31.2 7.6 5
2020-07-04 00:00:00 24.2 32.2 28.4 79 0 7.2 4
2020-07-05 00:00:00 25.8 32 28.8 76 0 9.8 7
2020-07-06 00:00:00 25 32.2 28.25 79 10.1 6.1 5
2020-07-07 00:00:00 24.2 32.4 27.7 82 20.2 2.4 3
2020-07-08 00:00:00 24.2 32.5 27.85 82 10.1 6.05 3.5
2020-07-09 00:00:00 24.2 32.6 28 82 0 9.7 4
2020-07-10 00:00:00 25.2 32.6 28.4 85 0 8 3
2020-07-11 00:00:00 24.6 33.4 28 84 8.5 7 4
2020-07-12 00:00:00 25.3 33.4 28.55 82 4.25 7.05 4
2020-07-13 00:00:00 26 33.4 29.1 80 0 7.1 4
2020-07-14 00:00:00 26.2 34.2 29.2 83 0 8.3 5
2020-07-15 00:00:00 26.6 31.8 27.9 80 0 7.9 5
2020-07-16 00:00:00 25.6 33.2 28.8 82 1.4 3.4 6
2020-07-17 00:00:00 26.2 33.4 29.4 76 0 7.3 6
2020-07-18 00:00:00 25.2 33.4 28.8 82 0 10.2 3
2020-07-19 00:00:00 24.4 33.6 29.1 77 0 8.9 4
2020-07-20 00:00:00 23.8 33.4 29 82 0 9 4
2020-07-21 00:00:00 26.6 34 28.5 84 0.5 9.5 5
2020-07-22 00:00:00 24.8 33.4 28.4 82 10 8.7 6
2020-07-23 00:00:00 25 33.8 28.4 80 0 10.3 4
2020-07-24 00:00:00 24.2 33.4 28.2 80 0 9 8
2020-07-25 00:00:00 23.8 33.4 27.8 74 0 9.9 5
2020-07-26 00:00:00 22 32.6 26.8 75 0 9.8 5
2020-07-27 00:00:00 23 33.8 28.4 70 0 9.6 5
2020-07-28 00:00:00 23 33.6 28.2 72 0 10.4 7
2020-07-29 00:00:00 23.8 33.2 28.5 72 0 10.2 6
2020-07-30 00:00:00 22.4 31.8 29.3 76 0 9.7 8
2020-07-31 00:00:00 21.4 31.6 26.8 80 0 10.5 3
2020-08-01 00:00:00 22.6 32.6 27.25 81 0 10.05 4.5
2020-08-02 00:00:00 23.8 33.6 27.7 82 0 9.6 6
2020-08-03 00:00:00 24.2 33 27.9 80 0 8.6 6
2020-08-04 00:00:00 25.2 32.8 28.9 80 0 9.2 4
2020-08-05 00:00:00 25 32.8 28.1 82 0 1.4 5
2020-08-06 00:00:00 25 34.8 28.3 79 0 9.1 8
2020-08-07 00:00:00 26.6 32.6 28.7 82 0 9.3 4
2020-08-08 00:00:00 25.75 33 28.875 80 0 9.275 5.25
2020-08-09 00:00:00 24.9 33.4 29.05 78 0 9.25 6.5
2020-08-10 00:00:00 24.05 33.8 29.225 76 0 9.225 7.75
2020-08-11 00:00:00 23.2 34.2 29.4 74 0 9.2 9
2020-08-12 00:00:00 25 33.8 28.9 80 2.2 7.5 6
2020-08-13 00:00:00 25.8 34.2 28.4 82 0 6.4 6
2020-08-14 00:00:00 25.2 33.6 28.5 86 19 9.8 5
2020-08-15 00:00:00 25.6 32.6 29 78 0 9.2 7
2020-08-16 00:00:00 24.8 33 28.2 87 35 10.1 6
2020-08-17 00:00:00 25.8 34.2 29.6 75 0 8.6 7
2020-08-18 00:00:00 25.4 32.2 27.9 85 0 8.3 5
2020-08-19 00:00:00 25.4 34.6 28.9 81 0 9.6 6
2020-08-20 00:00:00 24.8 33.8 29.3 75 0 9.5 6
2020-08-21 00:00:00 26 33.8 29.6 72 0 10.2 8
2020-08-22 00:00:00 26 34 29.9 71 0 10.5 7
2020-08-23 00:00:00 25.25 34.25 29.45 72.75 0 10.425 6.75
2020-08-24 00:00:00 24.5 34.5 29 74.5 0 10.35 6.5
2020-08-25 00:00:00 23.75 34.75 28.55 76.25 0 10.275 6.25
2020-08-26 00:00:00 23 35 28.1 78 0 10.2 6
2020-08-27 00:00:00 21.8 34.2 27.3 80 0 10.1 6
2020-08-28 00:00:00 24.2 34.2 28.9 76 0 10.4 7
2020-08-29 00:00:00 25.4 34.2 29.1 78 0 8.9 5
2020-08-30 00:00:00 24.6 34.8 28.8 80 0.2 9.7 5
2020-08-31 00:00:00 24.2 34.6 28.3 74 0 9.5 6
2020-09-01 00:00:00 23.8 35.4 29.5 72 0 9.4 7
2020-09-02 00:00:00 24 34 28.8 77 0 9.5 5
2020-09-03 00:00:00 24.8 34.2 27.9 84 6.4 6.6 5
2020-09-04 00:00:00 24 34.2 29.5 79 35 8 6
2020-09-05 00:00:00 25.8 34.2 29.3 79 9.5 9.9 6
2020-09-06 00:00:00 24.2 34.8 28.8 76 1 9 7
2020-09-07 00:00:00 25.4 34.8 28.6 82 0 9.8 5
2020-09-08 00:00:00 25 34.4 29.1 72 0 9.8 5
2020-09-09 00:00:00 25.4 34.6 29.1 76 0 9.9 6
2020-09-10 00:00:00 25.2 33.6 29 78 0 9.6 5
2020-09-11 00:00:00 26 34.4 29.4 73 0 10 4
2020-09-12 00:00:00 24.4 34.2 28.4 80 0 8.6 6
2020-09-13 00:00:00 26 33.6 29.7 74 0 9.9 5
2020-09-14 00:00:00 24.8 33.8 28.8 73 0 7.4 7
2020-09-15 00:00:00 25.4 34.2 29.4 74 0 9.4 5
2020-09-16 00:00:00 25.6 34.6 29.75 72 0 9.525 5.75
2020-09-17 00:00:00 25.8 35 30.1 70 0 9.65 6.5
2020-09-18 00:00:00 26 35.4 30.45 68 0 9.775 7.25
2020-09-19 00:00:00 26.2 35.8 30.8 66 0 9.9 8
2020-09-20 00:00:00 27.8 34.4 30.6 70 0 10 6
2020-09-21 00:00:00 26.6 34.4 29.8 77 0 8.2 6
2020-09-22 00:00:00 24.8 31.6 27 86 9 7.2 6
2020-09-23 00:00:00 23.6 35 28.7 83 5.6 7.3 4
2020-09-24 00:00:00 26.4 35.8 29.8 80 0 9.3 5
2020-09-25 00:00:00 25.2 35.4 29.4 83 0 9.3 6
2020-09-26 00:00:00 25 35.4 29.7 74 0 5.8 8
2020-09-27 00:00:00 25.2 32.8 29 80 8.3 9 5
2020-09-28 00:00:00 24.6 33.8 29.2 78 16 8.6 6
2020-09-29 00:00:00 24.93333 34.26667 29.53333 77 10.66667 8.566667 6
2020-09-30 00:00:00 25.26667 34.73333 29.86667 76 5.333333 8.533333 6
2020-10-01 00:00:00 25.6 35.2 30.2 75 0 8.5 6
2020-10-02 00:00:00 25.2 35 29.4 80 4 10.5 8
2020-10-03 00:00:00 24.8 35.4 29.1 80 22 10.9 6
2020-10-04 00:00:00 24.8 34 29.3 72 0 10.2 6
2020-10-05 00:00:00 25.4 33.6 29.1 77 0 8.5 4
2020-10-06 00:00:00 25 33.2 28.5 78 0 8 4
2020-10-07 00:00:00 25.4 33.2 28.6 78 0 6.6 6
2020-10-08 00:00:00 26 34.2 29.8 72 0 8.1 5
2020-10-09 00:00:00 25.6 33.2 29.1 80 0 6.6 4
2020-10-10 00:00:00 26.4 33 28.2 81 0 4.6 8
2020-10-11 00:00:00 25.73333 33.6 28.76667 79.66667 13.83333 5.166667 7.333333
2020-10-12 00:00:00 25.06667 34.2 29.33333 78.33333 27.66667 5.733333 6.666667
2020-10-13 00:00:00 24.4 34.8 29.9 77 41.5 6.3 6
2020-10-14 00:00:00 26 36 29.4 77 0 9.3 4
2020-10-15 00:00:00 24.4 32.8 28.2 83 17 8.5 5
2020-10-16 00:00:00 23.6 32 28.1 85 35 7.4 4
2020-10-17 00:00:00 25.6 33 29 81 0 4.8 4
2020-10-18 00:00:00 25.4 33 28.6 80 0 4.1 5
2020-10-19 00:00:00 26.6 31.6 28.9 78 0 5.3 4
2020-10-20 00:00:00 26 33.2 29.6 74 0 4.1 5
2020-10-21 00:00:00 26.2 33 27.6 87 0.7 8.1 6
2020-10-22 00:00:00 25.2 30.6 28.3 86 10.5 0.4 3
2020-10-23 00:00:00 25.4 31.4 28.3 84 0.9 6.3 6
2020-10-24 00:00:00 25.2 33.4 29.7 80 0.5 7.9 4
2020-10-25 00:00:00 25.26667 32.66667 28.83333 82.66667 1.666667 6.3 4.666667
2020-10-26 00:00:00 25.33333 31.93333 27.96667 85.33333 2.833333 4.7 5.333333
2020-10-27 00:00:00 25.4 31.2 27.1 88 4 3.1 6
2020-10-28 00:00:00 24.4 33.6 28.5 81 12.1 2.8 6
2020-10-29 00:00:00 25 33.8 30 79 7.4 10 5
2020-10-30 00:00:00 27.8 31.6 29.5 77 1.2 7.6 4
2020-10-31 00:00:00 25.6 30.6 27.3 88 4 6 5
2020-11-01 00:00:00 24.4 30.2 27.3 88 6.6 2.1 5
2020-11-02 00:00:00 25.2 30 27.5 87 25.2 6.2 5
2020-11-03 00:00:00 25 31.4 27.9 86 0 0 3
2020-11-04 00:00:00 24 33.6 28.9 79 4.5 6.3 6
2020-11-05 00:00:00 24.4 33.4 28.8 80 6.75 5.3 5.5
2020-11-06 00:00:00 24.8 33.2 28.7 81 9 4.3 5
2020-11-07 00:00:00 25.6 33.6 29.8 80 0 8 6
2020-11-08 00:00:00 24.4 34.2 29.5 80 15.5 10.5 4
2020-11-09 00:00:00 24.2 33.6 29 83 34 8.7 8
2020-11-10 00:00:00 25 32.8 29.2 81 11 9.3 5
2020-11-11 00:00:00 24.6 33 28.8 82 4.1 10.5 5
2020-11-12 00:00:00 27 33.8 30.7 74 0 9 6
2020-11-13 00:00:00 27.2 35 31.1 72 0 8.7 8
2020-11-14 00:00:00 26.6 33.2 30.1 79 0 7.5 5
2020-11-15 00:00:00 26.2 34.4 29.5 80 0.6 8.7 3
2020-11-16 00:00:00 25.6 34.1 29.65 80.5 8.5 8.8 4.5
2020-11-17 00:00:00 25 33.8 29.8 81 16.4 8.9 6
2020-11-18 00:00:00 25.2 34.8 27.8 86 8.5 8.1 8
2020-11-19 00:00:00 23 35.2 29.4 80 15 10.5 7
2020-11-20 00:00:00 25.2 32.2 28.7 84 1.2 7 4
2020-11-21 00:00:00 24.4 31.8 28.9 87 19.6 6.1 3
2020-11-22 00:00:00 25.4 32.2 28.3 84 0 5.3 4
2020-11-23 00:00:00 24.8 30.8 28 86 0 3.8 4
2020-11-24 00:00:00 24.2 31 27.8 86 6.7 4.4 4.5
2020-11-25 00:00:00 23.6 31.2 27.6 86 13.4 5 5
2020-11-26 00:00:00 24.4 31.4 27.7 84 1.5 2.7 4
2020-11-27 00:00:00 24.8 30.9 27.85 85 0.9 1.35 3.5
2020-11-28 00:00:00 25.2 30.4 28 86 0.3 0 3
2020-11-29 00:00:00 25 29.6 26 94 0.5 4.5 2
2020-11-30 00:00:00 23 30.6 27.1 85 52 2.2 3
2020-12-01 00:00:00 26 31.8 28.4 83 0 4.5 4
2020-12-02 00:00:00 25.4 31.4 27.9 85 1 6.3 5
2020-12-03 00:00:00 23.4 31.6 27.7 88 87.5 4.3 5
2020-12-04 00:00:00 26 31.2 28.2 85 0 4.3 3
2020-12-05 00:00:00 25.2 31.8 28 84 5 2.3 8
2020-12-06 00:00:00 24.8 31.6 25.9 90 7.8 6.4 5
2020-12-07 00:00:00 24 27 25.2 95 23.1 0.5 5
2020-12-08 00:00:00 24.4 31.6 28.4 80 18 0.5 13
2020-12-09 00:00:00 25 30.2 27.9 82 20.7 4.6 12
2020-12-10 00:00:00 25.4 30.4 27.4 89 14.1 1.5 8
2020-12-11 00:00:00 24.8 30.4 27.6 88 27.9 1.6 5
2020-12-12 00:00:00 25.2 31 27.7 88 15 2.3 6
2020-12-13 00:00:00 24.2 29.6 27 92 14.5 5.1 5
2020-12-14 00:00:00 25.2 30.2 26.8 90 0 1 4
2020-12-15 00:00:00 25 30 27.1 89 1.8 1.2 5
2020-12-16 00:00:00 24.6 30.8 26.8 90 1.8 0 4
2020-12-17 00:00:00 25.2 29.6 26.9 90 11.5 4.6 6
2020-12-18 00:00:00 24.2 30.4 26.4 90 11.8 0.9 6
2020-12-19 00:00:00 23.8 30.2 26.9 86 61.6 3.9 7
2020-12-20 00:00:00 24.2 30.4 27.6 84 9.2 7.7 4
2020-12-21 00:00:00 23.6 30.4 27.9 85 4.6 5.7 3.5
2020-12-22 00:00:00 23 30.4 28.2 86 0 3.7 3
2020-12-23 00:00:00 24.2 31 28.3 84.5 3.65 4.35 3.5
2020-12-24 00:00:00 25.4 31.6 28.4 83 7.3 5 4
2020-12-25 00:00:00 25.2 32.6 28.6 81 10 7.9 3
2020-12-26 00:00:00 25.4 31.4 28.3 85 2 9.3 4
2020-12-27 00:00:00 26 31.6 28 85 1 8.1 5
2020-12-28 00:00:00 25.4 31.4 28.1 86 2.4 6.6 5
2020-12-29 00:00:00 26 31 27.7 90 13 5.8 4
2020-12-30 00:00:00 25 29.8 27 88 3.4 4.4 4
2020-12-31 00:00:00 24.8 30.2 27.3 87 8.7 3.7 5
2021-01-01 00:00:00 25.6 30 27.6 85 1.6 2.7 4
2021-01-02 00:00:00 25 30.4 27.8 84 3.5 2.1 3
2021-01-03 00:00:00 24.7 30.7 27.7 84 2.9 3.9 3.5
2021-01-04 00:00:00 24.4 31 27.6 84 2.3 5.7 4
2021-01-05 00:00:00 25.4 30.2 27.1 88 8 6.4 4
2021-01-06 00:00:00 25.8 31.4 28 86 4 2.7 7
2021-01-07 00:00:00 26 29.8 27 88 0 5.3 8
2021-01-08 00:00:00 26 30.6 27.4 87 1 1.8 4
2021-01-09 00:00:00 25 30.6 26.8 89 43.5 1 5
2021-01-10 00:00:00 25 30.2 27.6 86 7.7 4.3 5
2021-01-11 00:00:00 25.2 30 28 88 3.3 3.1 3
2021-01-12 00:00:00 25 30.4 27.9 85 0.3 1.3 6
2021-01-13 00:00:00 24.6 31.2 27.4 88 6.5 4.2 8
2021-01-14 00:00:00 25.2 30 26.8 88 8.8 5.5 6
2021-01-15 00:00:00 25 30.4 27.4 87 0.5 1.4 4
2021-01-16 00:00:00 25.2 30.8 27.1 88 1.25 0.6 5
2021-01-17 00:00:00 24.6 31.2 26.6 90 2 0.9 8
2021-01-18 00:00:00 24.8 28.4 25.8 94 19.2 7.4 6
2021-01-19 00:00:00 23.4 26.8 24.5 96 57.8 0.9 5
2021-01-20 00:00:00 22.4 29.8 27.9 86 7.8 0.2 6
2021-01-21 00:00:00 25.6 30.2 27.1 88 0 3.2 7
2021-01-22 00:00:00 25.4 29.8 26.8 89 10.4 5.1 4
2021-01-23 00:00:00 24.93333 30 26.93333 88 8.666667 4.233333 4
2021-01-24 00:00:00 24.46667 30.2 27.06667 87 6.933333 3.366667 4
2021-01-25 00:00:00 24 30.4 27.2 86 5.2 2.5 4
2021-01-26 00:00:00 25 30.6 26.6 87 0 7.1 4
2021-01-27 00:00:00 24.4 30.2 26.1 91 12 4.1 4
2021-01-28 00:00:00 24.2 30.4 26.4 90 10.2 0.5 4
2021-01-29 00:00:00 24.6 27.6 25.6 94 8.7 3.2 5
2021-01-30 00:00:00 24.4 26.2 25.3 93 16.9 0 5
2021-01-31 00:00:00 23.2 29.8 25.5 96 24.9 0.5 7
2021-02-01 00:00:00 23.8 30.2 26.8 90 12.7 4.7 9
2021-02-02 00:00:00 24.6 30 27 90 6.7 6.2 7
2021-02-03 00:00:00 24.2 29.4 26.8 90 5 3.3 10
2021-02-04 00:00:00 24.35 28.95 26.625 91 14.275 2.475 8.75
2021-02-05 00:00:00 24.5 28.5 26.45 92 23.55 1.65 7.5
2021-02-06 00:00:00 24.65 28.05 26.275 93 32.825 0.825 6.25
2021-02-07 00:00:00 24.8 27.6 26.1 94 42.1 0 5
2021-02-08 00:00:00 23.8 27.6 25.2 96 41.1 0 6
2021-02-09 00:00:00 24.7 28.9 26.1 95 23.65 3.4 6
2021-02-10 00:00:00 25.6 30.2 27 94 6.2 6.8 6
2021-02-11 00:00:00 24.8 31.2 27.3 90 4 1.6 6
2021-02-12 00:00:00 25 30.8 27.5 91 20.6 5.2 5
2021-02-13 00:00:00 24.8 31 27.3 92 10.2 5.9 7
2021-02-14 00:00:00 25.8 29.6 27.2 91 0 4.2 6
2021-02-15 00:00:00 24.2 29.6 27 92 16.4 1.8 5
2021-02-16 00:00:00 24.6 29.2 27.4 88 5.5 6 5
2021-02-17 00:00:00 24.4 29.2 26.7 93 5.2 4 3
2021-02-18 00:00:00 24.4 29.8 26.8 92 0 4.6 9
2021-02-19 00:00:00 24 27.4 25 94 4.2 5 6
2021-02-20 00:00:00 24.2 29.8 25.8 92 18.9 0 8
2021-02-21 00:00:00 24.6 31.6 27.4 89 1.4 2.6 6
2021-02-22 00:00:00 25.6 30.8 27.4 90 1 6 5
2021-02-23 00:00:00 23.8 31.2 26 91 0.8 3.3 5
2021-02-24 00:00:00 24.8 30.2 26.7 91 66.5 4.1 5
2021-02-25 00:00:00 20.8 28.2 25.2 95 62.9 1.2 5
2021-02-26 00:00:00 23.2 30.6 26.4 92 54.4 0 7
2021-02-27 00:00:00 23.4 31 28 88 0.2 6.6 4
2021-02-28 00:00:00 24.8 29.4 27 90 1 7.4 3
2021-03-01 00:00:00 24.8 30.8 27.5 90 0.3 1.6 3
2021-03-02 00:00:00 24.9 30.9 27.4 91.5 0.15 2.65 4
2021-03-03 00:00:00 25 31 27.3 93 0 3.7 5
2021-03-04 00:00:00 25 31.2 26.8 92 0 6.8 6
2021-03-05 00:00:00 24.8 31.2 27.1 93 4.5 3.2 5
2021-03-06 00:00:00 25.6 30.8 27.9 89 0 6.3 5
2021-03-07 00:00:00 25.4 30.6 26.9 91 0 7.7 6
2021-03-08 00:00:00 24.2 30.2 27.2 91 13.4 5.1 5
2021-03-09 00:00:00 24.2 30.3 27.1 90 8.4 3.9 7
2021-03-10 00:00:00 24.2 29.4 26.8 93 2.3 5.1 4
2021-03-11 00:00:00 25 30.8 27.6 91 0 1.9 6
2021-03-12 00:00:00 25.4 31 27.5 91 0 8.9 4
2021-03-13 00:00:00 25 30.8 26.2 96 1.7 6.5 3
2021-03-14 00:00:00 24.2 30.8 26.8 92 20 1.8 5
2021-03-15 00:00:00 25 29.6 27.2 92 4 8.2 3
2021-03-16 00:00:00 24 30.2 27.9 92 3 5.8 6
2021-03-17 00:00:00 23.6 31.6 27.8 86 0.3 4.3 5
2021-03-18 00:00:00 25.4 31.6 28.2 85 1.05 8.8 4
2021-03-19 00:00:00 26 31.4 28 85 1.8 8.4 4
2021-03-20 00:00:00 25.2 31.2 27.7 84 0 6.9 4
2021-03-21 00:00:00 26 31.2 28.1 84 0 8.5 5
2021-03-22 00:00:00 25.4 30.6 27.6 86 19.3 6.4 5
2021-03-23 00:00:00 25.2 31.2 27.9 85 0 6.8 7
2021-03-24 00:00:00 26 30.8 28.4 85 0 7.1 5
2021-03-25 00:00:00 25.8 30.4 27.9 86 0 9.6 5
2021-03-26 00:00:00 25.8 32 28.3 86 6.5 7.9 4
2021-03-27 00:00:00 26.2 31.8 28.4 86 0 5.6 4
2021-03-28 00:00:00 25.8 32 28.1 86 9.25 7.1 6
2021-03-29 00:00:00 25.4 32.2 28.2 86 18.5 7.7 5
2021-03-30 00:00:00 24.4 30.8 27.1 90 13.5 7 4
2021-03-31 00:00:00 25 31.6 28 85 4.2 4.2 4
2021-04-01 00:00:00 26.4 31.4 28.3 87 20 8 8
2021-04-02 00:00:00 26 31.4 28.6 86 0 6 4
2021-04-03 00:00:00 25.6 31.6 28.3 83 0 5.8 8
2021-04-04 00:00:00 25.8 31.2 28.5 83 0 6.9 5
2021-04-05 00:00:00 26.6 30.8 29.1 78 0 8.7 5
2021-04-06 00:00:00 25.2 31.6 28.7 84 3 3.3 7
2021-04-07 00:00:00 23.4 30 27.1 88 8 5 4
2021-04-08 00:00:00 25.6 31.2 27.1 89 0.5 0.5 8
2021-04-09 00:00:00 24.4 31.8 28.1 84 8.5 8.2 7
2021-04-10 00:00:00 25.6 31.2 28.2 84 0 8.6 4
2021-04-11 00:00:00 26 32.6 28.7 81 0 7 4
2021-04-12 00:00:00 24.6 31.8 27.5 90 17 6.2 4
2021-04-13 00:00:00 25.4 30.8 27.8 86 3.4 6.2 5
2021-04-14 00:00:00 25.4 30.8 27.6 84 0 8.7 4
2021-04-15 00:00:00 25.8 32.2 28.5 81 4.7 6 6
2021-04-16 00:00:00 26.2 32 28.7 79 0 7.5 5
2021-04-17 00:00:00 25.7 31.7 28.45 80 1 8.1 4
2021-04-18 00:00:00 25.2 31.4 28.2 81 2 8.7 3
2021-04-19 00:00:00 24.8 32.6 28.3 84 15.3 9.5 3
2021-04-20 00:00:00 25.4 32.6 28.1 82 12.6 8.1 4
2021-04-21 00:00:00 23.6 34.4 28 74 0 9.9 6
2021-04-22 00:00:00 24.8 33.6 28.3 74 0 10 6
2021-04-23 00:00:00 25.4 31.8 28.3 80 0 10.3 5
2021-04-24 00:00:00 25.2 33.4 28.4 78 0 9.4 5
2021-04-25 00:00:00 24.8 32.6 28.2 82 30.4 5.1 4
2021-04-26 00:00:00 26.4 33.4 29.8 75 0 5.7 7
2021-04-27 00:00:00 26.8 33.8 29.4 79 0 10.1 5
2021-04-28 00:00:00 26.2 30.2 28 86 6.3 7.9 3
2021-04-29 00:00:00 25.2 32.4 28 82 0 0.2 4
2021-04-30 00:00:00 24.4 33.2 28.8 80 0 9.9 5
2021-05-01 00:00:00 25.7 33.7 29.35 80 0 9.45 5
2021-05-02 00:00:00 27 34.2 29.9 80 0 9 5
2021-05-03 00:00:00 27 33.4 29.9 76 0 9.6 5
2021-05-04 00:00:00 26.4 34.2 29.7 76 0 8.6 4
2021-05-05 00:00:00 26.6 32.6 28.7 82 1.5 9.3 6
2021-05-06 00:00:00 25.4 33.2 28.4 82 29 4.6 4
2021-05-07 00:00:00 26.2 31.6 28.2 86 0.5 8 4
2021-05-08 00:00:00 25.8 31.8 27.9 86 0 5.9 5
2021-05-09 00:00:00 24.2 33.4 28.6 75 0.3 1 6
2021-05-10 00:00:00 24.4 33.6 29.4 73 0 10.6 6
2021-05-11 00:00:00 26.8 34.4 30.8 73 0 10.5 5
2021-05-12 00:00:00 26.6 34 30.1 75 3.9 10.4 6
2021-05-13 00:00:00 25.6 33.6 29.2 77 0 8.5 5
2021-05-14 00:00:00 25.6 33.6 30.1 75 0 5.9 7
2021-05-15 00:00:00 26.6 33.4 29 81 0 9.3 5
2021-05-16 00:00:00 26 33.6 29.6 78 0.4 7.5 6
2021-05-17 00:00:00 25.6 33.6 29 80 0 9.2 5
2021-05-18 00:00:00 25.4 32.2 28.2 84 79.3 8.6 3
2021-05-19 00:00:00 25.6 32.2 28.2 84 0 5 6
2021-05-20 00:00:00 26 32.8 27.5 88 1 1.6 8
2021-05-21 00:00:00 23.4 33.4 28.6 84 41 6.6 4
2021-05-22 00:00:00 26.6 33.6 28.8 80 0 8.9 4
2021-05-23 00:00:00 25.6 34.4 28.2 85 0 6.3 4
2021-05-24 00:00:00 23.4 33.4 28.8 82 0 6.8 5
2021-05-25 00:00:00 21.8 32.2 28 80 0 7.1 3
2021-05-26 00:00:00 25.2 32.6 29.2 78 0 3.5 6
2021-05-27 00:00:00 25.6 32.6 29.8 72 0 9.3 6
2021-05-28 00:00:00 26.4 32.6 29.7 74 0 10.4 5
2021-05-29 00:00:00 25.6 32.7 28.85 80 24 8.6 5.5
2021-05-30 00:00:00 24.8 32.8 28 86 48 6.8 6
2021-05-31 00:00:00 26.8 33 29.2 76 24 8 4
2021-06-01 00:00:00 26 32.2 28.5 80 0 8.6 6
2021-06-02 00:00:00 26.6 32.6 28.8 81 0.5 8.7 6
2021-06-03 00:00:00 27.6 33 29.7 77 0 6.9 5
2021-06-04 00:00:00 27.4 34 30.1 73 0 8.3 6
2021-06-05 00:00:00 27 33.6 29.8 73 0 9.6 5
2021-06-06 00:00:00 26.5 32.8 29.2 75 0.1 9.35 4.5
2021-06-07 00:00:00 26 32 28.6 77 0.2 9.1 4
2021-06-08 00:00:00 26 32.6 28.7 75 0 0 4
2021-06-09 00:00:00 25.4 32.8 28.4 78 0 9.5 6
2021-06-10 00:00:00 25.4 33.2 29.1 77 3.6 7 5
2021-06-11 00:00:00 25.4 33.2 28.4 79 13.5 8.5 5
2021-06-12 00:00:00 26 32.8 28.6 76 0 9.2 6
2021-06-13 00:00:00 26.8 33 29.8 68 0 8.8 6
2021-06-14 00:00:00 26 32.2 28.4 73 0 10 5
2021-06-15 00:00:00 26.6 32.4 28.5 78 0 3.1 5
2021-06-16 00:00:00 25.93333 32.46667 28.33333 77.66667 0.125 2.633333 5
2021-06-17 00:00:00 25.26667 32.53333 28.16667 77.33333 0.25 2.166667 5
2021-06-18 00:00:00 24.6 32.6 28 77 0.375 1.7 5
2021-06-19 00:00:00 24.4 32.8 26.5 88 0.5 8.4 4
2021-06-20 00:00:00 24 32.2 27 84 13.3 1.3 4
2021-06-21 00:00:00 23.8 31.4 26.7 84 26.9 7.3 5
2021-06-22 00:00:00 24.2 32.6 27.9 79 1.1 6.9 5
2021-06-23 00:00:00 25 32.2 27.5 82 9 7.6 6
2021-06-24 00:00:00 25.2 29.4 26.2 87 5 6.2 3
2021-06-25 00:00:00 24 32.2 27.8 79 42.5 1 4
2021-06-26 00:00:00 26.4 33.2 28.9 78 0 7.4 4
2021-06-27 00:00:00 25.6 33.2 28.9 82 0 6.9 4
2021-06-28 00:00:00 25.6 31.2 27 84 0.3 10.3 6
2021-06-29 00:00:00 24 33 28 76 18 1.8 6
2021-06-30 00:00:00 25.2 32.8 28.6 76 0 8.6 4
2021-07-01 00:00:00 25.4 32.6 28.6 75 0 7.3 6
2021-07-02 00:00:00 24.4 32 27.9 75 0 7.1 3
2021-07-03 00:00:00 25 32.8 28.1 70 0 8.5 5
2021-07-04 00:00:00 24.2 34 28.6 72 0 7.2 4
2021-07-05 00:00:00 25 34 28.6 70 0 8.6 5
2021-07-06 00:00:00 22.6 33.4 28.6 54 0 9.6 6
2021-07-07 00:00:00 22.4 33.4 27.8 63 0 10.5 5
2021-07-08 00:00:00 23.6 33.6 27.8 74 0 10.4 6
2021-07-09 00:00:00 25.4 33.4 28.7 76 0 9.1 4
2021-07-10 00:00:00 26.6 33.6 29.6 72 0 6.4 5
2021-07-11 00:00:00 27.4 33.4 29.8 69 0 9 7
2021-07-12 00:00:00 24.4 33 28.3 70 0 9.6 7
2021-07-13 00:00:00 22.6 34.6 27.9 63 0 9 5
2021-07-14 00:00:00 25 32.6 28.5 66 0 10 5
2021-07-15 00:00:00 24.4 33 28.5 65 0 3.9 5
2021-07-16 00:00:00 23.2 32 27 69 0 10 5
2021-07-17 00:00:00 22.3 32.8 27.1 74 0 5.4 4
2021-07-18 00:00:00 25 34.6 28.3 77 0 7.7 6
2021-07-19 00:00:00 25 33.6 28.6 78 9.2 9.2 8
2021-07-20 00:00:00 27 34.4 29.7 72 0 10.2 8
2021-07-21 00:00:00 26.6 33.4 28.8 70 0 10.8 4
2021-07-22 00:00:00 26.2 32.6 28.7 77 0 9.1 4
2021-07-23 00:00:00 25.2 33.5 28.45 77 2.65 7.8 5
2021-07-24 00:00:00 24.2 34.4 28.2 77 5.3 6.5 6
2021-07-25 00:00:00 22.8 34.6 29.4 58 0 10 6
2021-07-26 00:00:00 22.6 33.2 27.6 67 0 10.7 5
2021-07-27 00:00:00 20.8 33.6 27.6 62 0 10.7 5
2021-07-28 00:00:00 20.4 34.2 27.7 62 0 10.6 5
2021-07-29 00:00:00 22 33.8 27.85 68 0 10.5 4.5
2021-07-30 00:00:00 23.6 33.4 28 74 0 10.4 4
2021-07-31 00:00:00 24 32.4 27.9 78 0 10.4 5
2021-08-01 00:00:00 24 33.8 28.4 77 1 7.7 4
2021-08-02 00:00:00 24.6 32.8 27.9 80 0 8.1 4
2021-08-03 00:00:00 24.4 32.8 27.9 82 6.3 8.4 3
2021-08-04 00:00:00 25 34.2 28.6 76 0 6.8 6
2021-08-05 00:00:00 25.8 33.8 29.1 71 0 8.2 6
2021-08-06 00:00:00 25.8 33.6 29 66 0 10.4 4
2021-08-07 00:00:00 24.6 33.4 29.5 72 0 10 5
2021-08-08 00:00:00 26.4 33.6 29.4 74 0 9.3 7
2021-08-09 00:00:00 26.8 34.8 29.3 76 0 9.4 6
2021-08-10 00:00:00 26 34 29.2 73 0 9.7 4
2021-08-11 00:00:00 25.2 34.2 29 63 0 9.3 5
2021-08-12 00:00:00 23.6 34.8 27.5 75 0 10.6 4
2021-08-13 00:00:00 24.8 33 28.4 76 0 6.5 4
2021-08-14 00:00:00 23.8 33.6 28 80 21.8 9 6
2021-08-15 00:00:00 25 33.8 29 73 0.4 8.7 6
2021-08-16 00:00:00 25.2 34.2 28.5 77 0 10.6 7
2021-08-17 00:00:00 25.4 34.4 29.1 70 0 9.9 4
2021-08-18 00:00:00 25.2 33.2 28 75 0 10.1 4
2021-08-19 00:00:00 25.8 31.8 27.6 83 0 10.8 5
2021-08-20 00:00:00 24 33.6 28.4 73 15.4 5.3 5
2021-08-21 00:00:00 25.6 33.4 28.7 72 0 8.7 4
2021-08-22 00:00:00 23.8 32.8 27.4 82 0.4 6.4 5
2021-08-23 00:00:00 24.6 34.6 28.7 78 0 9.8 6
2021-08-24 00:00:00 24.8 33.8 28.9 70 0 10 6
2021-08-25 00:00:00 22.8 34 28.4 72 0 10 4
2021-08-26 00:00:00 23.2 34.2 28.2 74 0 8.8 4
2021-08-27 00:00:00 23.4 34.2 28.2 70 0 9.6 6
2021-08-28 00:00:00 24.2 34.4 28.6 73 0 9.8 8
2021-08-29 00:00:00 25.2 35 29.3 76 17.2 9.5 6
2021-08-30 00:00:00 25 34.4 28.8 77 0 9 6
2021-08-31 00:00:00 25.6 34.8 29.6 73 0 6.8 5
2021-09-01 00:00:00 25.2 33.8 28.7 77 0 8.4 4
2021-09-02 00:00:00 25 35 29.2 69 0 10.5 7
2021-09-03 00:00:00 19 33.4 28.7 71 0 8.8 3
2021-09-04 00:00:00 24 33 28.6 71 0 7 6
2021-09-05 00:00:00 25.6 32.4 28.4 78 0 9.6 4
2021-09-06 00:00:00 26 33.8 29.2 75 0 0.5 8
2021-09-07 00:00:00 27.2 34 29.7 74 0 9.6 5
2021-09-08 00:00:00 24.6 35.2 28.6 82 13.7 9.7 8
2021-09-09 00:00:00 23 33.8 28.1 70 2.8 8.5 5
2021-09-10 00:00:00 23 34 28.7 80 0 9.5 6
2021-09-11 00:00:00 26 31.6 27.8 84 0 9.3 6
2021-09-12 00:00:00 25.2 33.2 28.6 79 8.8 3.7 5
2021-09-13 00:00:00 26.2 33 29.9 74 0.2 6.4 8
2021-09-14 00:00:00 27.6 32.2 27.8 82 0 8.1 5
2021-09-15 00:00:00 24 33.6 28.1 78 14.8 3.2 7
2021-09-16 00:00:00 25.2 32.8 28.4 78 0 9.8 4
2021-09-17 00:00:00 24 35.2 28.3 80 10.6 10.3 8
2021-09-18 00:00:00 24.8 35.6 29.5 69 0 9.8 6
2021-09-19 00:00:00 25.2 35.2 29.5 70 0 10.7 7
2021-09-20 00:00:00 24.4 33 28.7 72 0 9.8 5
2021-09-21 00:00:00 24.6 34.2 27.9 78 24.4 10.1 4
2021-09-22 00:00:00 23.2 32.8 28.5 70 7.2 6.4 9
2021-09-23 00:00:00 26.6 34.2 29.8 67 0.2 6.2 6
2021-09-24 00:00:00 26 33.6 29.5 71 0.3 8.4 4
2021-09-25 00:00:00 25.1 32.9 28.45 77 34.65 8.9 5
2021-09-26 00:00:00 24.2 32.2 27.4 83 69 9.4 6
2021-09-27 00:00:00 24.8 33.4 28.4 80 10.5 5.8 4
2021-09-28 00:00:00 25.2 33.8 28.8 81 36 8.3 3
2021-09-29 00:00:00 25 35.2 29.4 69 0 9 6
2021-09-30 00:00:00 25.2 35.4 30.1 68 0 10.1 7
2021-10-01 00:00:00 26.6 33.8 29.8 73 0 10.6 5
2021-10-02 00:00:00 25.2 32.8 29.1 73 0 7.2 4
2021-10-03 00:00:00 25.2 32.8 28.8 74 0 6.8 4
2021-10-04 00:00:00 25.8 32.6 28.5 74 0 9.3 5
2021-10-05 00:00:00 25.2 32.8 28.6 77 0 6.1 4
2021-10-06 00:00:00 24.8 32.8 28.8 70 0 0 4
2021-10-07 00:00:00 24.2 33.6 28.2 73 0 7.2 5
2021-10-08 00:00:00 24.8 33.2 28.3 79 0 8.8 4
2021-10-09 00:00:00 24.4 32.8 29 75 2.3 9.3 5
2021-10-10 00:00:00 25 35.6 29.1 75 0 9.8 4
2021-10-11 00:00:00 26 34.2 29.6 74 0 10.6 5
2021-10-12 00:00:00 24.8 36 29.2 71 0 8.7 6
2021-10-13 00:00:00 25.4 33.4 29.5 71 0 11.4 6
2021-10-14 00:00:00 25.6 34.8 29.7 69 0 10.4 3
2021-10-15 00:00:00 26 35 29.6 76 0 7.4 6
2021-10-16 00:00:00 25.8 35 30.7 72 0 7.5 4
2021-10-17 00:00:00 26.4 34 29.9 77 4.7 6.3 5
2021-10-18 00:00:00 25.4 33.2 28.1 83 7.7 9 5
2021-10-19 00:00:00 25.2 31.8 28.5 81 0.4 3.3 4
2021-10-20 00:00:00 25.8 33 29.5 80 0 6.6 5
2021-10-21 00:00:00 26 32.6 29.3 82 10.2 9.5 5
2021-10-22 00:00:00 24.8 33.2 27.6 86 15 9.8 4
2021-10-23 00:00:00 25 34.8 29.3 78 12.3 9.1 4
2021-10-24 00:00:00 26 32.2 29.1 81 9.3 7 5
2021-10-25 00:00:00 26 33.2 29.5 80 0 0 5
2021-10-26 00:00:00 23.4 34.6 29.2 76 34.3 9.8 4
2021-10-27 00:00:00 26.4 34 29.1 78 0.3 8.8 6
2021-10-28 00:00:00 26.2 33.8 29.7 75 1.7 7.7 6
2021-10-29 00:00:00 26.4 32.2 28.5 84 3.1 7.3 6
2021-10-30 00:00:00 26.4 32 28 84 8.4 4.7 4
2021-10-31 00:00:00 26.4 33.4 28.6 84 9.4 6 6
2021-11-01 00:00:00 25 32.4 28.4 82 32 6.6 5
2021-11-02 00:00:00 25.4 31.8 27.6 85 3.4 5.8 3
2021-11-03 00:00:00 25.2 31.8 28.4 82 3 4.6 6
2021-11-04 00:00:00 26.2 32.8 27.9 85 0 8.7 5
2021-11-05 00:00:00 22.8 31.4 28 84 110.8 8 4
2021-11-06 00:00:00 26.2 32.4 29.8 78 0 4.5 5
2021-11-07 00:00:00 26.4 32.4 29.4 81 3.6 7.9 5
2021-11-08 00:00:00 24.4 32 28.5 83 1.8 7.5 5
2021-11-09 00:00:00 26.6 32.2 29 82 0 4.7 5
2021-11-10 00:00:00 25.4 31.4 27.4 89 9.4 4.1 3
2021-11-11 00:00:00 24.8 31 27.9 85 42.4 5.6 4
2021-11-12 00:00:00 25.6 30.6 26.9 87 0.5 1.2 3
2021-11-13 00:00:00 24.4 31.4 27.8 85 30.6 0.5 5
2021-11-14 00:00:00 25.2 31 28 84 19.1 8.4 4
2021-11-15 00:00:00 25.4 29.2 26.1 92 0 2.9 4
2021-11-16 00:00:00 24 30.6 26.8 86 53.2 0 4
2021-11-17 00:00:00 24.4 32.4 27.9 80 0.6 2.3 5
2021-11-18 00:00:00 25.2 32 28.1 81 4 5.1 5
2021-11-19 00:00:00 26 31.6 28.3 83 0 7.5 5
2021-11-20 00:00:00 24.8 30 27.1 88 2.8 5.6 4
2021-11-21 00:00:00 25.6 31.4 28.2 84 0 0 5
2021-11-22 00:00:00 25.4 30.4 27.7 86 0.8 4.1 5
2021-11-23 00:00:00 24.8 31 27.9 86 4.1 3.5 5
2021-11-24 00:00:00 25.2 30.6 27.8 84 4.1 3.5 4
2021-11-25 00:00:00 26 31.4 27.7 87 0.4 2.3 5
2021-11-26 00:00:00 24.8 31.4 27.2 86 1.1 4 6
2021-11-27 00:00:00 24.2 30.6 27.3 86 15.9 2.5 5
2021-11-28 00:00:00 25 28.4 26.8 90 1.6 3.8 3
2021-11-29 00:00:00 25 31.4 27.8 82 0 0 7
2021-11-30 00:00:00 25.2 31.4 28.1 80 4.5 7.1 5
2021-12-01 00:00:00 23.8 31.4 27.6 79 1.8 8.2 5
2021-12-02 00:00:00 25 32.2 28.4 79 0 6.5 5
2021-12-03 00:00:00 25.6 30.8 28.3 85 3.2 6 4
2021-12-04 00:00:00 25.4 30.6 27.7 87 1.1 0.9 5
2021-12-05 00:00:00 25 30.4 26.9 86 3.1 1.6 6
2021-12-06 00:00:00 24.4 30.2 27 91 3.8 0.2 5
2021-12-07 00:00:00 24.6 31 27.5 84 6 0 6
2021-12-08 00:00:00 25.6 31.8 28.3 83 0.6 2.8 8
2021-12-09 00:00:00 25.8 31.6 28.4 82 0 5.6 7
2021-12-10 00:00:00 25.8 31 27.5 84 0 5.3 6
2021-12-11 00:00:00 25 31 27.8 84 3.7 2.3 5
2021-12-12 00:00:00 25.4 31.8 29.2 80 0.6 2.3 5
2021-12-13 00:00:00 26.4 31.6 28.7 85 0 7 4
2021-12-14 00:00:00 26.4 31.4 28.05 87.5 0.4 6.6 4.5
2021-12-15 00:00:00 26.4 31.2 27.4 90 0.8 6.2 5
2021-12-16 00:00:00 24.2 32 27.7 86 12.8 4.6 4
2021-12-17 00:00:00 24.6 32 28.3 84 4 3.6 4
2021-12-18 00:00:00 26.6 31.8 28.3 88 3.3 7.8 4
2021-12-19 00:00:00 25.2 32.2 28.5 83 2.9 3.4 5
2021-12-20 00:00:00 26.2 31.2 28 85 0.9 8.3 6
2021-12-21 00:00:00 25.6 29.4 26.5 90 5.8 2.1 3
2021-12-22 00:00:00 23.4 31.2 27.8 84 3.1 0 4
2021-12-23 00:00:00 25.8 32.2 28.4 80 0 9 5
2021-12-24 00:00:00 24.2 31.2 27.4 86 22.2 5.6 4
2021-12-25 00:00:00 26 31.2 27.8 84 0 7.1 4
2021-12-26 00:00:00 24.8 32 27.3 86 11 3 5
2021-12-27 00:00:00 25 31.2 26.9 86 5.5 6.2 11
2021-12-28 00:00:00 23.8 30.8 27.6 84 56.8 3.1 7
2021-12-29 00:00:00 25.2 31.2 27.7 84 8.1 5.3 5
2021-12-30 00:00:00 25 31 28 83 0 5.7 5
2021-12-31 00:00:00 25.2 31 26.8 86 11.5 3.2 5
2022-01-01 00:00:00 23.4 30.8 27.8 80 68.5 5.7 5
2022-01-02 00:00:00 24.6 31.2 27.6 84 0.2 5.7 5
2022-01-03 00:00:00 25.4 31.4 28.1 83 0 6.6 4
2022-01-04 00:00:00 24.4 31.8 28.2 78 0 6 4
2022-01-05 00:00:00 25.2 30.8 27.8 79 0 7.1 4
2022-01-06 00:00:00 25.6 31 27.1 84 2 6.5 4
2022-01-07 00:00:00 23 31 26.9 86 58.8 4.5 5
2022-01-08 00:00:00 25 30.8 27.7 83 0.4 5.7 5
2022-01-09 00:00:00 26 29.8 27.5 87 1.2 7 4
2022-01-10 00:00:00 25.2 31 27.3 87 4 0 5
2022-01-11 00:00:00 25.4 31.2 26.8 88 1 6.9 8
2022-01-12 00:00:00 24.4 29.6 26.4 88 23.5 5.2 6
2022-01-13 00:00:00 25 30.6 26.4 86 0.2 0 10
2022-01-14 00:00:00 24.8 30.2 27.1 83 16.3 3.1 8
2022-01-15 00:00:00 25.2 29 27.1 84 0 1 6
2022-01-16 00:00:00 25.6 28.8 26.7 89 10.5 0.6 6
2022-01-17 00:00:00 25.2 31.6 27.6 83 0.8 0 6
2022-01-18 00:00:00 22.8 30.8 26.9 86 60.5 5.6 8
2022-01-19 00:00:00 24.4 30.4 27.1 86 4.6 3.2 7
2022-01-20 00:00:00 24.2 29.8 26.2 91 50 7 6
2022-01-21 00:00:00 23.4 30.6 26.8 86 2.4 1.1 5
2022-01-22 00:00:00 25.4 31.4 28.2 82 11.6 6.9 8
2022-01-23 00:00:00 25.4 31 27.6 85 0 0 6
2022-01-24 00:00:00 24.8 31.8 28.1 83 0.8 5.1 5
2022-01-25 00:00:00 25.4 31.6 28.3 79 0 9.4 7
2022-01-26 00:00:00 25.2 30.6 27.3 87 1.7 6.2 11
2022-01-27 00:00:00 24.8 31.4 27.5 86 10.3 3.7 8
2022-01-28 00:00:00 25.4 31.8 27.9 80 0 5.4 5
2022-01-29 00:00:00 25.6 32 28.2 82 0 5.9 7
2022-01-30 00:00:00 26 32.4 28.7 81 0 6.2 6
2022-01-31 00:00:00 25.8 30.4 27.6 82 0 7.2 7
2022-02-01 00:00:00 25.2 31.8 27.2 86 3.3 1.4 9
2022-02-02 00:00:00 23.2 31.2 27.4 86 7.6 6.4 7
2022-02-03 00:00:00 25.2 31.8 28.4 80 0 5.3 5
2022-02-04 00:00:00 25.8 31.6 28 82 0 6.9 7
2022-02-05 00:00:00 25.4 30.4 26.1 91 4.2 4.4 6
2022-02-06 00:00:00 25 30.8 27.3 86 24.9 0.3 10
2022-02-07 00:00:00 23.4 28.2 25.3 93 33 5.8 4
2022-02-08 00:00:00 23.4 30.4 26.9 86 4.4 0 10
2022-02-09 00:00:00 24.6 31.6 27.2 84 15.2 1.2 8
2022-02-10 00:00:00 23.8 30.8 27.2 84 5 6.7 7
2022-02-11 00:00:00 24.6 31.4 27.9 82 52.5 3.2 6
2022-02-12 00:00:00 24.6 30.4 27 89 10.2 5.5 6
2022-02-13 00:00:00 24 30.4 26.7 89 41.7 5 6
2022-02-14 00:00:00 24.2 33.2 27.3 82 3 1.1 4
2022-02-15 00:00:00 24.2 31.6 27.7 85 24.4 4.4 3
2022-02-16 00:00:00 25.8 34.4 28.1 83 0 2.2 7
2022-02-17 00:00:00 24.4 32.6 27.2 87 6.4 8.9 5
2022-02-18 00:00:00 24.2 27 25.5 94 32.7 6 4
2022-02-19 00:00:00 24 31.2 27.5 82 28.5 0 4
2022-02-20 00:00:00 25.4 31.6 27.7 86 14.25 9.1 4
2022-02-21 00:00:00 23.8 30.6 27.3 83 0 1.6 4
2022-02-22 00:00:00 23.8 31.6 26.9 85 10.8 0.4 4
2022-02-23 00:00:00 23.6 31.2 27.3 83 0 1 6
2022-02-24 00:00:00 24 31.4 27.8 86 3 4.8 5
2022-02-25 00:00:00 23.8 30.6 27.2 84 3.4 8.5 4
2022-02-26 00:00:00 25.4 31.4 28.3 84 0 4.2 5
2022-02-27 00:00:00 26 31.8 28.8 74 2.6 5.5 9
2022-02-28 00:00:00 24.6 29.6 27.2 90 19.8 6.8 10
2022-03-01 00:00:00 24.4 31 27.2 86 13.2 0 8
2022-03-02 00:00:00 24.2 31.6 27.3 88 0 6.1 8
2022-03-03 00:00:00 24.2 31.2 27.6 85 18.5 8.1 5
2022-03-04 00:00:00 25.2 30.8 27.8 84 1.2 6.4 5
2022-03-05 00:00:00 25.2 31.2 27.5 90 0 6.3 5
2022-03-06 00:00:00 25 31.4 27.9 86 1 4.4 4
2022-03-07 00:00:00 26 31.2 27.1 91 0 7.3 3
2022-03-08 00:00:00 23.8 31 26.3 89 11.4 2.3 6
2022-03-09 00:00:00 24.4 30.8 26.9 90 29 7.1 6
2022-03-10 00:00:00 24 30.6 27.1 88 5.9 2.5 4
2022-03-11 00:00:00 24.4 31 27.7 85 0.5 4.9 6
2022-03-12 00:00:00 25 30.6 27.3 90 17.5 8.3 5
2022-03-13 00:00:00 25 31.4 28.6 84 5.6 1.2 6
2022-03-14 00:00:00 25 32.4 27.2 90 5.8 9.4 6
2022-03-15 00:00:00 25.2 30.4 27 94 20.9 7.5 2
2022-03-16 00:00:00 24 32 27.5 83 4.9 0.5 5
2022-03-17 00:00:00 24.6 31.6 28.2 80 0 6.9 5
2022-03-18 00:00:00 25.6 32.2 29.2 84 0 10.2 6
2022-03-19 00:00:00 26.6 32.2 26.8 88 0 8.8 5
2022-03-20 00:00:00 24.4 32.2 27.9 87 19.5 5.3 4
2022-03-21 00:00:00 25 31.4 28.4 81 4 6 5
2022-03-22 00:00:00 25.4 30.6 27.3 86 0 5.3 4
2022-03-23 00:00:00 25.2 31.8 28.5 85 4.7 2.4 7
2022-03-24 00:00:00 24.8 31.6 28.2 84 1.2 3.3 6
2022-03-25 00:00:00 25 31.8 28.4 79 0 9 4
2022-03-26 00:00:00 26.2 32.2 28.8 82 0 7.4 6
2022-03-27 00:00:00 26 31.9 28.6 80 0 7.7 5.5
2022-03-28 00:00:00 25.8 31.6 28.4 78 0 8 5
2022-03-29 00:00:00 24.8 32 28.8 76 0 4.6 6
2022-03-30 00:00:00 25.4 32.6 28.9 76 0 8.5 5
2022-03-31 00:00:00 24.8 32.6 28.3 74 0 9.4 5
2022-04-01 00:00:00 24.2 33 28 82 14.5 8.2 4
2022-04-02 00:00:00 24.6 32.4 28.3 76 1 8.7 5
2022-04-03 00:00:00 26.2 32.2 28.1 81 0 9.6 4
2022-04-04 00:00:00 24.4 32.4 28.3 80 0 6 4
2022-04-05 00:00:00 23.8 32 28.7 80 0 8 4
2022-04-06 00:00:00 25 34.8 28.9 77 21.2 9.2 5
2022-04-07 00:00:00 25 32 28 84 11.1 8.2 4
2022-04-08 00:00:00 24.8 32 28 78 1 5.8 5
2022-04-09 00:00:00 25.2 32.8 27.9 81 1 7.8 5
2022-04-10 00:00:00 25.2 32.4 28.7 78 2.7 7.9 3
2022-04-11 00:00:00 25.8 33.6 28.9 82 0 5.8 6
2022-04-12 00:00:00 24 32.4 28.4 75 32.2 10 4
2022-04-13 00:00:00 25.2 33.2 28.6 75 0 8.3 5
2022-04-14 00:00:00 26 32.8 29.3 75 0 9 5
2022-04-15 00:00:00 25.2 33.6 28.9 74 0 8.9 5
2022-04-16 00:00:00 26.2 33.6 29.5 77 0 10.4 6
2022-04-17 00:00:00 24.4 34 29 78 0 10.2 5
2022-04-18 00:00:00 24.8 33 29.1 82 7 10.4 6
2022-04-19 00:00:00 26 32.4 28 84 2.4 9.6 5
2022-04-20 00:00:00 24.4 31.4 27.4 86 5.4 8 4
2022-04-21 00:00:00 24.8 29.4 25.5 94 4.6 5 10
2022-04-22 00:00:00 23.6 32.4 28.2 78 4.4 1.9 5
2022-04-23 00:00:00 24.8 33.8 27.7 82 0 10.1 4
2022-04-24 00:00:00 25 32.2 28.5 82 6.2 7.4 5
2022-04-25 00:00:00 24.6 32.4 28 84 0.3 6.1 5
2022-04-26 00:00:00 24.8 31.6 27.2 90 15.2 6.6 7
2022-04-27 00:00:00 25.4 31.6 28 84 0 2.6 4
2022-04-28 00:00:00 25 31.6 27.7 82 3.8 4.5 4
2022-04-29 00:00:00 26 32 28.3 81 0 2 5
2022-04-30 00:00:00 26.4 33.2 28.8 81 2.5 5.5 5
2022-05-01 00:00:00 26.1 33.8 29.2 77.5 1.25 6 6
2022-05-02 00:00:00 25.8 34.4 29.6 74 0 6.5 7
2022-05-03 00:00:00 25.8 35.2 30.2 70 0 7.1 8
2022-05-04 00:00:00 26 33.8 28.9 78 0 9.5 8
2022-05-05 00:00:00 25 33.2 29 76 0 9.5 5
2022-05-06 00:00:00 25.5 33.5 29.4 76 0.5 8.5 5.5
2022-05-07 00:00:00 26 33.8 29.8 76 1 7.5 6
2022-05-08 00:00:00 24.6 32.8 28.7 83 18.8 9.5 7
2022-05-09 00:00:00 26 32.4 27.5 85 0 8.4 4
2022-05-10 00:00:00 25 34 29.4 77 28.2 4 5
2022-05-11 00:00:00 26.4 32.2 29.1 81 0 6.8 5
2022-05-12 00:00:00 26 32.8 29.2 82 10.5 6.3 6
2022-05-13 00:00:00 26.2 32.8 29 82 0 6.5 6
2022-05-14 00:00:00 26.8 32.6 28.1 84 0 8.5 5
2022-05-15 00:00:00 25.4 33.2 28.4 85 4.7 3.9 4
2022-05-16 00:00:00 26.6 32.8 28.6 83 0 6.2 5
2022-05-17 00:00:00 22 34.4 28.4 76 0 8.3 4
2022-05-18 00:00:00 25.2 34.6 28.9 80 0.4 7.9 5
2022-05-19 00:00:00 25.8 33.2 28.8 79 3.2 8.5 5
2022-05-20 00:00:00 24.2 33.4 28.2 82 8.2 6.5 4
2022-05-21 00:00:00 24.8 32.6 27.9 81 51.4 9.1 5
2022-05-22 00:00:00 25.6 33 29.2 74 1 3.2 7
2022-05-23 00:00:00 26.2 32.2 29.1 74 0.4 6.5 7
2022-05-24 00:00:00 26.6 33.6 29.5 74 0 1.5 4
2022-05-25 00:00:00 26.8 31.2 28.4 80 17.96667 6.5 4
2022-05-26 00:00:00 25 31.5 27.95 81 35.93333 3.6 4.5
2022-05-27 00:00:00 23.2 31.8 27.5 82 53.9 0.7 5
2022-05-28 00:00:00 25 32.4 28.3 78 0 8.7 5
2022-05-29 00:00:00 24.8 31.4 27.9 82 0 10.9 5
2022-05-30 00:00:00 24.2 32 28.1 79 8 5.4 7
2022-05-31 00:00:00 25 31.8 28.2 79 0 10.5 6
2022-06-01 00:00:00 25 32.6 28.4 79 0 10.5 5
2022-06-02 00:00:00 24.8 32.8 28.5 79 0 5.5 4
2022-06-03 00:00:00 24.4 32.8 27.8 83 3.4 8.7 4
2022-06-04 00:00:00 23.8 33.8 27.9 80 3 5.3 4
2022-06-05 00:00:00 24.6 33 26.9 84 0 8.3 4
2022-06-06 00:00:00 23 31.4 26.3 88 48.5 6.3 5
2022-06-07 00:00:00 23.6 33.6 27.7 80 16.4 2.7 8
2022-06-08 00:00:00 25.4 33.2 28.2 80 0 7.5 8
2022-06-09 00:00:00 24 32.4 27.6 80 0 3.4 6
2022-06-10 00:00:00 23.8 34.4 28.8 75 0 3.9 8
2022-06-11 00:00:00 25.4 33.4 28.7 79 0 8.3 4
2022-06-12 00:00:00 24 32.8 27.9 82 32.3 9.4 4
2022-06-13 00:00:00 23.2 32.2 27.5 83 30.6 8 5
2022-06-14 00:00:00 24.8 33.2 28.3 76 0.4 5.3 7
2022-06-15 00:00:00 26 32 28.5 77 0 8 7
2022-06-16 00:00:00 25.4 33 28.5 76 0.3 3 6
2022-06-17 00:00:00 25 31.2 27.7 80 1.5 5.3 3
2022-06-18 00:00:00 22.6 31.6 27.1 82 0.6 0 4
2022-06-19 00:00:00 23.1 32.9 27.75 80 2.2 0.9 4.5
2022-06-20 00:00:00 23.6 34.2 28.4 78 3.8 1.8 5
2022-06-21 00:00:00 24 32.4 27.8 82 6 9.6 5
2022-06-22 00:00:00 24.6 33.4 28.9 72 0 8.4 8
2022-06-23 00:00:00 23.2 33.4 27.1 79 0 10 4
2022-06-24 00:00:00 23.6 32 27.5 81 2.6 6.5 4
2022-06-25 00:00:00 24 32 27.3 82 0 5.2 6
2022-06-26 00:00:00 23.8 30.4 26.6 88 39.7 6.2 4
2022-06-27 00:00:00 24.6 31.4 27.2 87 7.1 1.1 4
2022-06-28 00:00:00 23.4 32.8 27.6 78 35.2 5.4 4
2022-06-29 00:00:00 24.8 34.6 28.3 64 0 6.6 4
2022-06-30 00:00:00 21 32.4 26.5 72 0 9.5 4
2022-07-01 00:00:00 23.2 33.8 27.9 74 0 9.7 7
2022-07-02 00:00:00 23.4 34.4 28.9 70 0 9.5 7
2022-07-03 00:00:00 25 33.2 28.8 80 5 10 6
2022-07-04 00:00:00 26 32.4 28.9 80 0 9 5
2022-07-05 00:00:00 25.6 33.2 28.6 81 0 5 5
2022-07-06 00:00:00 25 32.4 27.3 87 4.8 7.8 5
2022-07-07 00:00:00 24.2 33.8 28.6 81 2.7 4.2 6
2022-07-08 00:00:00 23.6 34 27.8 75 0 8.3 6
2022-07-09 00:00:00 21.6 33.4 27.4 65 0 10 7
2022-07-10 00:00:00 22.8 33.8 27.6 71 0.2 9 9
2022-07-11 00:00:00 24.6 33.4 27.6 78 0 10.5 5
2022-07-12 00:00:00 25.8 34 29 76 0 2.2 7
2022-07-13 00:00:00 25.2 32.2 28 86 1.4 9.8 6
2022-07-14 00:00:00 24 32.8 27.7 84 67.1 2.8 6
2022-07-15 00:00:00 26 33.6 29.2 76 0.6 7 6
2022-07-16 00:00:00 27 32.4 28.3 79 0 9.4 8
2022-07-17 00:00:00 23.4 29.6 26.4 86 43.7 0 4
2022-07-18 00:00:00 24.6 32.6 27.9 80 0 3 6
2022-07-19 00:00:00 24.8 34 28.6 73 0 7.8 5
2022-07-20 00:00:00 23.4 33.8 28.6 72 0 9.6 5
2022-07-21 00:00:00 21.2 35.2 28.8 71 0 10.4 6
2022-07-22 00:00:00 24.2 33.4 29 72 0 8.7 6
2022-07-23 00:00:00 24.8 33.8 28.2 78 0 5.2 6
2022-07-24 00:00:00 23.8 33.8 28.5 78 0 6.8 4
2022-07-25 00:00:00 22.8 33.4 27.75 74.5 0 7.75 4
2022-07-26 00:00:00 21.8 33 27 71 0 8.7 4
2022-07-27 00:00:00 24 33.8 28.7 71 0 10.5 8
2022-07-28 00:00:00 26.2 33.8 29.4 68 0 9 6
2022-07-29 00:00:00 25.6 33.4 29 66 0 9.2 6
2022-07-30 00:00:00 23.8 32.8 27.7 76 0 7.6 5
2022-07-31 00:00:00 23.6 33.8 27.8 76 0 9.6 8
2022-08-01 00:00:00 25.2 33.6 28.5 75 0 8.7 6
2022-08-02 00:00:00 24.4 33.8 28.8 72 0 10.4 7
2022-08-03 00:00:00 26.8 33.6 29.7 73 0 6.6 8
2022-08-04 00:00:00 25 33 28.3 81 0 8.3 4
2022-08-05 00:00:00 22 32.8 27 78 0.8 8.2 5
2022-08-06 00:00:00 23.2 32.2 27.8 75 0 9.9 4
2022-08-07 00:00:00 23.8 33.2 28.3 80 0 9.6 4
2022-08-08 00:00:00 23 34.4 28.9 70 0 7.3 4
2022-08-09 00:00:00 23.8 34.8 28.5 72 0 7.2 6
2022-08-10 00:00:00 24 34.4 28.5 76 0 9.2 6
2022-08-11 00:00:00 25.4 34.2 29.4 72 2.3 4.8 8
2022-08-12 00:00:00 25.6 33.4 28.5 79 0 9.9 7
2022-08-13 00:00:00 25.4 34 28.1 82 0 8.1 11
2022-08-14 00:00:00 22.2 33 27.4 81 29 6.5 5
2022-08-15 00:00:00 26.2 32 28.8 78 0 6.8 5
2022-08-16 00:00:00 23.2 33.6 28.9 80 29.5 5 4
2022-08-17 00:00:00 24.8 33.6 29.3 70 0 9.2 6
2022-08-18 00:00:00 25 34 28.3 68 0 10 6
2022-08-19 00:00:00 24.2 34.4 29.6 70 2.4 8.2 8
2022-08-20 00:00:00 23.8 33.8 28.5 69 0 9.4 6
2022-08-21 00:00:00 25.6 34 28.6 74 2.5 9.8 4
2022-08-22 00:00:00 24.9 34.2 28.7 74 1.25 9.1 5
2022-08-23 00:00:00 24.2 34.4 28.8 74 0 8.4 6
2022-08-24 00:00:00 24 34 29.8 61 0.4 0 8
2022-08-25 00:00:00 24.2 34 29 64 0 9.7 7
2022-08-26 00:00:00 24.7 34.3 28.95 69 0 9.45 6
2022-08-27 00:00:00 25.2 34.6 28.9 74 0 9.2 5
2022-08-28 00:00:00 23.2 32.8 27.8 76 6.8 8.5 4
2022-08-29 00:00:00 22.8 33.8 28.4 68 0 3.8 5
2022-08-30 00:00:00 23.4 32.8 28.3 78 0 6.4 5
2022-08-31 00:00:00 24.6 32.6 28.1 85 8.6 7.8 4
2022-09-01 00:00:00 25.6 34.4 29.7 71 4.3 4.1 8
2022-09-02 00:00:00 26.2 34.2 30.1 72 0 6.3 6
2022-09-03 00:00:00 25.2 33 28.8 78 0 10.3 6
2022-09-04 00:00:00 24.4 33.2 28.4 75 0 7 5
2022-09-05 00:00:00 24.8 33.2 28.4 79 0 5.7 6
2022-09-06 00:00:00 24.8 34 28.9 80 3 4.2 9
2022-09-07 00:00:00 25.4 35 29.9 73 0 8.8 10
2022-09-08 00:00:00 24.4 32 27.6 85 19 7.9 4
2022-09-09 00:00:00 25 32.2 28.3 81 0 2.3 5
2022-09-10 00:00:00 23.4 32.2 27.7 82 23 7.8 5
2022-09-11 00:00:00 23.4 33.2 27.8 81 39.5 7.4 5
2022-09-12 00:00:00 25 33.2 29.3 74 3.6 8.4 7
2022-09-13 00:00:00 24.4 33 29.1 76 0 10.4 7
2022-09-14 00:00:00 23.8 33.2 28.9 77 3.7 9.9 4
2022-09-15 00:00:00 23.6 34.6 28.9 76 0 9.1 5
2022-09-16 00:00:00 24.8 34.6 29.2 72 1.5 9.4 7
2022-09-17 00:00:00 23.6 35.4 29.1 72 18.8 7.9 6
2022-09-18 00:00:00 24.6 36 29.9 67 0 9.9 5
2022-09-19 00:00:00 24 33.4 28.7 71 0 10.4 5
2022-09-20 00:00:00 24.2 34.2 29 74 2 10 5
2022-09-21 00:00:00 24.8 33.2 28.4 76 0 4.5 5
2022-09-22 00:00:00 25.4 35.2 28.8 79 0 4.6 5
2022-09-23 00:00:00 24.4 34.4 28.9 76 6.4 7 5
2022-09-24 00:00:00 24 34.8 29.1 77 3.2 7 4
2022-09-25 00:00:00 23.2 35.6 30.1 67 0 7.6 6
2022-09-26 00:00:00 24.6 34.2 29.8 72 0 10.4 3
2022-09-27 00:00:00 23.4 35.8 29.6 66 0 7.2 7
2022-09-28 00:00:00 24.6 35.6 29.5 66 0 9.2 8
2022-09-29 00:00:00 25.4 34.8 29.5 72 0 9.6 5
2022-09-30 00:00:00 24.4 33.4 29.3 73 0 8.5 5
2022-10-01 00:00:00 24.8 34 29.6 74 0 5.1 8
2022-10-02 00:00:00 26.4 32.8 29 78 0 8.5 4
2022-10-03 00:00:00 25.4 32.4 28.6 77 0 4.1 5
2022-10-04 00:00:00 26.2 32.4 28.2 79 0 4.5 4
2022-10-05 00:00:00 25.6 32.6 28 80 0 2.8 6
2022-10-06 00:00:00 24.2 33.8 27.5 82 25 5.7 5
2022-10-07 00:00:00 22.8 32.6 28.2 81 34.4 3.2 6
2022-10-08 00:00:00 25.6 33.8 27.8 85 0.4 6.5 6
2022-10-09 00:00:00 23.2 32.4 26.7 85 21.4 4.8 5
2022-10-10 00:00:00 23.2 32 27 85 18.4 4.6 13
2022-10-11 00:00:00 23.8 31.2 27.2 84 15.8 7.2 4
2022-10-12 00:00:00 23.4 32.2 26.8 85 0.4 3.9 4
2022-10-13 00:00:00 24.2 31.6 27 88 12 5.8 3
2022-10-14 00:00:00 25 33.8 27.7 84 5.6 4.7 5
2022-10-15 00:00:00 24.6 33 27.9 83 83.2 4 4
2022-10-16 00:00:00 25 34.8 29.5 77 7.2 4.1 5
2022-10-17 00:00:00 26 32.2 28.1 83 4.8 8 4
2022-10-18 00:00:00 25 30.8 27.2 87 3.5 2.4 4
2022-10-19 00:00:00 24.4 30.4 27.2 86 24.4 0 5
2022-10-20 00:00:00 24.4 32.4 29 78 0 1.7 7
2022-10-21 00:00:00 24.8 30.6 26.7 89 2 8 4
2022-10-22 00:00:00 23.8 30.4 27.8 82 5 0.6 4
2022-10-23 00:00:00 25.6 31.8 28.6 80 0 3.8 4
2022-10-24 00:00:00 25.4 31.8 27.1 87 0 4.6 3
2022-10-25 00:00:00 24.2 30.8 27 85 18.2 2.1 4
2022-10-26 00:00:00 23.8 30.8 27.5 85 15 0 4
2022-10-27 00:00:00 24 31.2 27.5 79 0 1.8 4
2022-10-28 00:00:00 25 32.8 28.9 74 0 7 5
2022-10-29 00:00:00 25.2 32 28.5 75 0 8.4 6
2022-10-30 00:00:00 24.2 32.2 28.8 71 0 4.8 5
2022-10-31 00:00:00 24.8 32.2 29 72 0 6.1 5
2022-11-01 00:00:00 24.2 32 28.2 78 0 6.8 4
2022-11-02 00:00:00 25.4 33.6 28.4 82 1.8 2.9 7
2022-11-03 00:00:00 25.4 32.8 29.2 77 2.2 6.3 4
2022-11-04 00:00:00 26.2 34.6 28.6 82 0 7.8 8
2022-11-05 00:00:00 21.6 32 28.4 82 64 6.5 6
2022-11-06 00:00:00 24.6 32.4 27.1 88 16 5.1 4
2022-11-07 00:00:00 23.8 31.4 27.8 78 92 4.9 4
2022-11-08 00:00:00 24 31.4 27.7 81 4.7 7.3 5
2022-11-09 00:00:00 24.8 31.8 28.1 80 0 4.3 4
2022-11-10 00:00:00 24.4 32 28.6 76 8.5 2.1 4
2022-11-11 00:00:00 25.2 32 28.2 83 1.6 5.6 4
2022-11-12 00:00:00 25.2 32.4 27.7 86 24.3 4.5 4
2022-11-13 00:00:00 24.6 32.8 29.1 80 47 5.2 4
2022-11-14 00:00:00 25.6 32.8 28.5 84 29 3.2 6
2022-11-15 00:00:00 25 31.6 28 86 11 6.3 4
2022-11-16 00:00:00 23 31.4 29 76 0 5.6 6
2022-11-17 00:00:00 25.4 31.4 27.4 84 0 3.2 12
2022-11-18 00:00:00 25 31.8 28.4 79 1.4 2 5
2022-11-19 00:00:00 24 30.4 27 81 5 0 6
2022-11-20 00:00:00 25.2 32.2 29 78 0 4 4
2022-11-21 00:00:00 25 32.8 29 77 0 7.6 5
2022-11-22 00:00:00 25.2 32.4 27.9 84 9.2 7.8 4
2022-11-23 00:00:00 25 31.4 27.6 82 1.3 6.2 3
2022-11-24 00:00:00 26.2 31.8 28 82 0 1.1 4
2022-11-25 00:00:00 25.4 31.4 28.1 78 0 1.6 6
2022-11-26 00:00:00 25 31.6 27.1 86 0 3.4 5
2022-11-27 00:00:00 24 31.2 27.2 85 4.1 0.6 5
2022-11-28 00:00:00 24 31.8 28.2 78 1.3 3.3 4
2022-11-29 00:00:00 25.6 32.6 27.3 84 0 6.3 5
2022-11-30 00:00:00 24.2 31.4 26.7 88 12.4 6.3 4
2022-12-01 00:00:00 24 32.2 28 79 3.3 2.7 4
2022-12-02 00:00:00 25 30.2 27.9 80 0 6.5 3
2022-12-03 00:00:00 25.6 31.8 28.8 78 0 0.3 5
2022-12-04 00:00:00 24.4 32 27.4 88 1.9 7.1 4
2022-12-05 00:00:00 24 32.2 27.8 82 11 4.9 4
2022-12-06 00:00:00 24.6 32.2 28.7 77 0 3.6 4
2022-12-07 00:00:00 25.6 31.4 28.5 80 0 8.4 5
2022-12-08 00:00:00 26.6 31.4 28.5 83 0 5.2 5
2022-12-09 00:00:00 24.2 33.2 28.5 73 0 0.5 5
2022-12-10 00:00:00 24 33.2 29.3 75 1.6 6.6 5
2022-12-11 00:00:00 24.2 33.4 29 77 0 6.5 6
2022-12-12 00:00:00 23.2 32.6 28.9 74 18.2 6.8 5
2022-12-13 00:00:00 24.6 32.4 28.8 81 6 8.4 6
2022-12-14 00:00:00 25.6 31.8 28.8 80 0 8.8 4
2022-12-15 00:00:00 26 32.8 28.1 82 0 5.8 4
2022-12-16 00:00:00 25 31.6 26.7 88 0.8 6 6
2022-12-17 00:00:00 22.8 32.4 27.4 84 32.5 2.3 6
2022-12-18 00:00:00 24.2 32 28.2 82 1.2 8.2 5
2022-12-19 00:00:00 25.4 31 28.8 82 0.3 8.6 4
2022-12-20 00:00:00 25.2 32.4 27.7 86 0 2.4 4
2022-12-21 00:00:00 24.6 32 28.1 83 5.5 5.6 5
2022-12-22 00:00:00 25.2 32 28 84 2.7 6.8 7
2022-12-23 00:00:00 23.6 31 28.1 78 5.5 3 9
2022-12-24 00:00:00 25.4 31.6 27.6 83 3.3 0.6 8
2022-12-25 00:00:00 24.2 29.8 27.1 86 8.5 3 9
2022-12-26 00:00:00 24.6 30.6 26.4 84 0.1 0 7
2022-12-27 00:00:00 22.6 29.6 26.3 87 82.5 0 7
2022-12-28 00:00:00 23.8 31.6 28.2 78 0 0 7
2022-12-29 00:00:00 24 33.4 26.4 89 74.3 7.1 9
2022-12-30 00:00:00 24.2 28.6 25.8 91 2.7 0.8 7
2022-12-31 00:00:00 23.6 27 24.6 96 95.3 0 4
2023-01-01 00:00:00 23 29.6 26.7 83 137.6 0 8
2023-01-02 00:00:00 23.1 30.2 26.8 84.5 76.25 1.8 8
2023-01-03 00:00:00 23.2 30.8 26.9 86 14.9 3.6 8
2023-01-04 00:00:00 25.2 31.4 27.7 82 0.2 3 9
2023-01-05 00:00:00 24.2 31.6 27.7 83 2.2 6.3 7
2023-01-06 00:00:00 24.4 31 26.4 88 23.5 0 5
2023-01-07 00:00:00 24.2 31 27.2 87 15.3 6.2 4
2023-01-08 00:00:00 25.2 31 27.2 88 3.6 6.5 4
2023-01-09 00:00:00 25.2 31.4 28 84 0 5 7
2023-01-10 00:00:00 25.4 31.6 27.9 85 0 5.2 4
2023-01-11 00:00:00 25.4 32.2 28.3 85 1.5 5.3 7
2023-01-12 00:00:00 25 32.2 28.7 80 0 5.7 4
2023-01-13 00:00:00 24.6 31.8 27.4 86 0 9.4 4
2023-01-14 00:00:00 24 32 28.4 79 2.8 7.9 5
2023-01-15 00:00:00 25.8 31.8 28.4 82 1 10.5 7
2023-01-16 00:00:00 23.6 32 28.1 85 13.8 5.5 7
2023-01-17 00:00:00 21 29.6 26.9 88 15.15 7.4 7
2023-01-18 00:00:00 23.8 30 25.9 90 16.5 0 4
2023-01-19 00:00:00 24.2 31 26.9 88 23.2 0 6
2023-01-20 00:00:00 25.2 30 27.3 88 0 2.6 4
2023-01-21 00:00:00 25 31 27.6 86 0 1.1 6
2023-01-22 00:00:00 24.8 31 27.6 83 0 4.8 5
2023-01-23 00:00:00 25.2 31.2 26.7 89 1.5 7.2 4
2023-01-24 00:00:00 25 32 27.9 85 8.5 4.5 6
2023-01-25 00:00:00 25 30.2 26.4 90 8 5.9 5
2023-01-26 00:00:00 24.8 31.6 27.5 84 0.2 1.5 4
2023-01-27 00:00:00 24.8 30.2 26.7 90 11.5 2.7 6
2023-01-28 00:00:00 24.8 27.8 26 93 0.9 0 5
2023-01-29 00:00:00 23.6 30 26.4 90 4 0.9 9
2023-01-30 00:00:00 25 31.4 27.9 84 0 2 5
2023-01-31 00:00:00 25.4 31.6 27.3 88 0 1.9 5
2023-02-01 00:00:00 25 29.8 27 87 4.8 1.3 9
2023-02-02 00:00:00 25 30.2 26.5 91 0.6 2.2 5
2023-02-03 00:00:00 23.6 29.4 26.7 86 62.2 0 4
2023-02-04 00:00:00 24.8 31.2 27.2 87 0 1.1 5
2023-02-05 00:00:00 24.6 30.6 27.6 86 27.4 3.6 5
2023-02-06 00:00:00 25.4 30.8 27.4 85 0 1.5 5
2023-02-07 00:00:00 25.2 31.6 27.2 87 0.2 2.1 7
2023-02-08 00:00:00 24.6 30 26.8 90 0.4 2.2 5
2023-02-09 00:00:00 25 31 27.2 89 3.6 1.2 6
2023-02-10 00:00:00 24.8 31.4 27.6 80 21.1 4.4 5
2023-02-11 00:00:00 24 30.4 26.7 88 38.6 8 8
2023-02-12 00:00:00 24.6 31.6 28.1 82 7 2.5 8
2023-02-13 00:00:00 24.6 31 26.8 86 0 4.7 4
2023-02-14 00:00:00 24.6 31 26.7 88 1 5.1 6
2023-02-15 00:00:00 24.8 31.8 27.2 86 2.3 5.9 4
2023-02-16 00:00:00 24.6 31.2 26.4 87 1.9 4.2 7
2023-02-17 00:00:00 24.4 31 27.3 87 27.3 4.5 7
2023-02-18 00:00:00 25 31 26.6 88 2.2 4.8 5
2023-02-19 00:00:00 23.4 31 26.1 88 3.2 3.3 6
2023-02-20 00:00:00 24.4 31.2 26.9 86 17 8.6 5
2023-02-21 00:00:00 24.4 31.4 27.4 84 49 6.1 5
2023-02-22 00:00:00 24.8 30 26.7 86 15.5 8.8 5
2023-02-23 00:00:00 23.4 30.8 26.1 83 13.9 3.2 6
2023-02-24 00:00:00 24 31 26.7 86 13.1 2.7 9
2023-02-25 00:00:00 24.6 30.2 27.4 85 1.2 2.8 8
2023-02-26 00:00:00 24.6 31 26.5 89 6.5 2.5 10
2023-02-27 00:00:00 24.2 29.2 25.3 93 11.8 3.4 8
2023-02-28 00:00:00 23.6 30.4 25.4 92 48.9 1.5 9
2023-03-01 00:00:00 23 30.6 26 86 3.8 1.6 6
2023-03-02 00:00:00 24.4 28.2 24.9 94 13.5 2.7 5
2023-03-03 00:00:00 23.4 31 26.8 86 47.4 0.4 4
2023-03-04 00:00:00 23.9 31.2 27.1 84.5 37.85 3.2 5.5
2023-03-05 00:00:00 24.4 31.4 27.4 83 28.3 6 7
2023-03-06 00:00:00 24.8 31.4 27.9 81 1.8 8.3 5
2023-03-07 00:00:00 25.2 31 27.7 84 0 7.5 5
2023-03-08 00:00:00 25 31.4 27.9 85 0 8.6 5
2023-03-09 00:00:00 25.6 31.4 27.9 83 8.5 4.4 5
2023-03-10 00:00:00 25 32 28.1 80 0 6 6
2023-03-11 00:00:00 25.6 32.6 28.5 79 0 8.7 5
2023-03-12 00:00:00 25.4 31.4 28.5 81 0 7.2 3
2023-03-13 00:00:00 24 31.2 27.4 80 0 7.4 7
2023-03-14 00:00:00 26 32.2 28.1 81 0 9.7 7
2023-03-15 00:00:00 23.8 31.8 27.8 81 7.4 6.6 5
2023-03-16 00:00:00 25.6 32.4 28.8 80 0 3.2 5
2023-03-17 00:00:00 25.6 32.2 28.4 80 0 6.2 6
2023-03-18 00:00:00 25 32.6 28 82 0 7.7 3
2023-03-19 00:00:00 25.2 33 29 80 0 7.1 6
2023-03-20 00:00:00 25.8 32 27.9 83 0 6.6 4
2023-03-21 00:00:00 24.2 33.4 27.9 81 8.1 6.6 4
2023-03-22 00:00:00 25.4 32.2 28.4 79 0 5.1 5
2023-03-23 00:00:00 26 32.2 28.7 82 23.6 8.1 7
2023-03-24 00:00:00 25.2 32.4 28.8 79 0 10.4 5
2023-03-25 00:00:00 26.2 31.6 28.6 84 0 9.9 4
2023-03-26 00:00:00 24.8 31.8 28.4 82 0 5.8 5
2023-03-27 00:00:00 24.4 31.6 27.7 84 7.4 5.7 6
2023-03-28 00:00:00 25 31.2 27.6 85 1.2 5.7 5
2023-03-29 00:00:00 24.6 31.8 27.8 82 4.2 4.3 6
2023-03-30 00:00:00 25.4 32.2 28.6 79 0.6 5.1 6
2023-03-31 00:00:00 25.4 32.2 27.9 83 0.2 4.2 4
2023-04-01 00:00:00 24.6 32 26.5 88 0 3.4 4
2023-04-02 00:00:00 24 31.6 26.8 82 13.3 2.6 4
2023-04-03 00:00:00 24.6 31.6 27.3 87 0 6.6 4
2023-04-04 00:00:00 24.6 31.6 28.1 80 9.2 8.5 5
2023-04-05 00:00:00 24.8 32 27.9 80 0 5.7 5
2023-04-06 00:00:00 25.6 32.2 27.7 83 0 9.6 6
2023-04-07 00:00:00 25 32.6 28.1 77 0 4.3 7
2023-04-08 00:00:00 24.8 31.8 27.2 84 0 4.7 7
2023-04-09 00:00:00 24 31 27.7 84 9.4 6.9 5
2023-04-10 00:00:00 24.4 31.2 27.4 84 0 7.9 6
2023-04-11 00:00:00 24.6 31.4 28 82 5.4 4.9 5
2023-04-12 00:00:00 25.4 32.6 29.1 79 3.7 5.8 5
2023-04-13 00:00:00 25 32 28.1 83 9 0 3
2023-04-14 00:00:00 24.8 32.2 28.4 82 0 3.4 6
2023-04-15 00:00:00 24.8 33 29.1 77 0 6.6 5
2023-04-16 00:00:00 24.6 32.2 29 77 0 6.6 5
2023-04-17 00:00:00 26.4 32.2 28.9 80 0 5.7 5
2023-04-18 00:00:00 27 34.6 29.9 77 0 5.8 5
2023-04-19 00:00:00 27 34.8 30.1 74 0 7.3 4
2023-04-20 00:00:00 26.2 33.2 28.8 84 0 8.6 4
2023-04-21 00:00:00 25.8 33.2 29 82 1.4 6.5 6
2023-04-22 00:00:00 26.4 34.2 29.4 77 2.8 5.3 7
2023-04-23 00:00:00 26.6 34.6 30.3 74 5.8 9.6 6
2023-04-24 00:00:00 27 34.2 29.8 74 0 9.4 6
2023-04-25 00:00:00 24.4 33.6 28.8 83 4 8.4 5
2023-04-26 00:00:00 25.4 33.4 29.2 81 21 8.1 5
2023-04-27 00:00:00 25.4 34.8 29.4 78 11.6 10.5 4
2023-04-28 00:00:00 25.2 33.2 29.4 80 0.2 6 5
2023-04-29 00:00:00 25 31.2 27.8 88 14 10.3 3
2023-04-30 00:00:00 25.6 32.2 28.7 80 0.5 3.9 5
2023-05-01 00:00:00 25.2 32.6 29.1 82 3.1 8.7 4
2023-05-02 00:00:00 24.8 33 28.5 83 0 6.3 6
2023-05-03 00:00:00 25.4 33.8 28.5 84 25.4 7.7 5
2023-05-04 00:00:00 25.4 33.6 29.6 78 22.4 4 5
2023-05-05 00:00:00 25.6 34.8 28 82 0 8.7 5
2023-05-06 00:00:00 25 33.8 28.9 84 28.7 8.8 5
2023-05-07 00:00:00 25 33.4 29.2 79 0 7.2 4
2023-05-08 00:00:00 26.2 33.2 29.3 81 0.6 7.7 5
2023-05-09 00:00:00 26.4 32.8 30.1 79 0 7.8 4
2023-05-10 00:00:00 27 34 30.4 71 0 3.8 6
2023-05-11 00:00:00 27.2 30.4 26.8 90 0 6.2 5
2023-05-12 00:00:00 25.2 35 31.6 68 19.4 0 6
2023-05-13 00:00:00 26.2 34 29.6 79 0 8.8 4
2023-05-14 00:00:00 22.2 33.5 30.5 64 0 6.4 4
2023-05-15 00:00:00 24 33.8 28.7 74 0 10 4
2023-05-16 00:00:00 23.6 33.4 28 72 0 7.9 6
2023-05-17 00:00:00 22 34.4 29.3 64 0 9.5 6
2023-05-18 00:00:00 23.4 34.2 29 67 0 9.5 5
2023-05-19 00:00:00 25 33.8 28.9 68 0 8.6 4
2023-05-20 00:00:00 25.6 34.2 28.9 74 0 8.8 5
2023-05-21 00:00:00 25.4 34.2 29 77 0 8 4
2023-05-22 00:00:00 25 33.4 28.7 75 0 9.2 5
2023-05-23 00:00:00 24.8 33.4 28.5 76 0 9.6 6
2023-05-24 00:00:00 24.2 34 28.6 76 0 9.7 4
2023-05-25 00:00:00 24.2 35.2 29.1 74 0 8.4 7
2023-05-26 00:00:00 24.2 34 30.6 70 10.7 8.7 7
2023-05-27 00:00:00 26 33.6 29.7 72 0 9.5 6
2023-05-28 00:00:00 24.2 33 28.4 72 0 7.9 4
2023-05-29 00:00:00 24.2 33.6 30.3 65 0 9.9 4
2023-05-30 00:00:00 25.6 33.8 30.2 66 0.4 5.5 5
2023-05-31 00:00:00 25 34.6 30.9 65 0.2 7.3 5
2023-06-01 00:00:00 24.8 34.4 28.4 74 0 8.1 5
2023-06-02 00:00:00 25 35.2 29.7 73 0 9.5 7
2023-06-03 00:00:00 24.4 34 30.9 71 0 10 5
2023-06-04 00:00:00 25.8 34.4 29.1 76 0 8.9 5
2023-06-05 00:00:00 25.4 33.6 28.7 81 19.8 7.8 4
2023-06-06 00:00:00 25.4 34.2 28.2 79 0 5.6 5
2023-06-07 00:00:00 25.2 33.6 30.5 69 33.6 6.9 4
2023-06-08 00:00:00 25.2 34.4 29.5 74 4.5 6 6
2023-06-09 00:00:00 25.2 34.8 29.3 76 0 10.1 6
2023-06-10 00:00:00 24 34.4 28.8 75 0 10.1 5
2023-06-11 00:00:00 24.4 35.2 29.3 76 0 10.2 5
2023-06-12 00:00:00 24.8 34.4 31.1 69 14.6 9 7
2023-06-13 00:00:00 26 33.6 29.5 74 0 8.3 4
2023-06-14 00:00:00 25.8 34.6 30.7 68 0 9.8 4
2023-06-15 00:00:00 24.8 33 30 67 0 9.2 4
2023-06-16 00:00:00 24.76 33.2 29.7 70 0.1 9.44 4
2023-06-17 00:00:00 24.72 33.4 29.4 73 0.2 9.68 4
2023-06-18 00:00:00 24.68 33.6 29.1 76 0.3 9.92 4
2023-06-19 00:00:00 24.64 33.8 28.8 79 0.4 10.16 4
2023-06-20 00:00:00 24.6 34 28.5 82 0.5 10.4 4
2023-06-21 00:00:00 25.4 35.2 29.3 77 0 8 6
2023-06-22 00:00:00 24 34.4 28.3 76 0 6.8 5
2023-06-23 00:00:00 25.2 32.8 28.5 76 0 9.4 5
2023-06-24 00:00:00 25 34.4 28.4 76 0 9 6
2023-06-25 00:00:00 24.8 33.8 27.6 82 0 8 5
2023-06-26 00:00:00 23.6 32 27.3 77 17 7.4 4
2023-06-27 00:00:00 25.2 33.4 28.6 79 0 6.3 5
2023-06-28 00:00:00 24.2 34.4 28.3 78 0 6.9 5
2023-06-29 00:00:00 24.4 34.4 28.9 80 0 7.2 4
2023-06-30 00:00:00 24.2 34.2 28.675 80 1.25 7.25 4.25
2023-07-01 00:00:00 24 34 28.45 80 2.5 7.3 4.5
2023-07-02 00:00:00 23.8 33.8 28.225 80 3.75 7.35 4.75
2023-07-03 00:00:00 23.6 33.6 28 80 5 7.4 5
2023-07-04 00:00:00 23.93333 33.66667 28.23333 78.33333 3.333333 6.8 5
2023-07-05 00:00:00 24.26667 33.73333 28.46667 76.66667 1.666667 6.2 5
2023-07-06 00:00:00 24.6 33.8 28.7 75 0 5.6 5
2023-07-07 00:00:00 24.2 31.4 26.9 89 61.2 8.4 5
2023-07-08 00:00:00 25 32.6 27.8 83 3 3.9 5
2023-07-09 00:00:00 24.6 33.8 28.6 78 0 4.7 5
2023-07-10 00:00:00 24.7 33.1 28.4 77 0 7.45 5.5
2023-07-11 00:00:00 24.8 32.4 28.2 76 0 10.2 6
2023-07-12 00:00:00 22.4 34.2 27.1 82 32.8 9.6 5
2023-07-13 00:00:00 22.9 34 27.425 80.25 24.6 9.475 4.5
2023-07-14 00:00:00 23.4 33.8 27.75 78.5 16.4 9.35 4
2023-07-15 00:00:00 23.9 33.6 28.075 76.75 8.2 9.225 3.5
2023-07-16 00:00:00 24.4 33.4 28.4 75 0 9.1 3
2023-07-17 00:00:00 23.2 34 28.2 64 0 7.2 5
2023-07-18 00:00:00 22.4 34.1 27.65 68 0 8.6 6.5
2023-07-19 00:00:00 21.6 34.2 27.1 72 0 10 8
2023-07-20 00:00:00 21.8 34.8 27.2 69 0 9 6
2023-07-21 00:00:00 22.2 33.8 27.9 69 0 10.5 5
2023-07-22 00:00:00 23 34.6 27.6 66 0 8 8
2023-07-23 00:00:00 24.2 34.2 28.4 72 0 10.1 5
2023-07-24 00:00:00 24 33.2 28 74 7.2 6.4 4
2023-07-25 00:00:00 24.4 33.6 28.4 76 0 7.6 6
2023-07-26 00:00:00 24 34.8 28 70 0 8.3 5
2023-07-27 00:00:00 22.2 33.8 27.2 64 0 9.5 5
2023-07-28 00:00:00 22.2 33.8 27.9 72 0 10.5 5
2023-07-29 00:00:00 22.4 34.8 27.3 71 0 9.5 5
2023-07-30 00:00:00 24 34.6 27.5 67 0 9.8 7
2023-07-31 00:00:00 21.4 34.6 27.7 70 0 9.1 5
2023-08-01 00:00:00 22 34.75 28.025 70.25 0 9.1 4.75
2023-08-02 00:00:00 22.6 34.9 28.35 70.5 0 9.1 4.5
2023-08-03 00:00:00 23.2 35.05 28.675 70.75 0 9.1 4.25
2023-08-04 00:00:00 23.8 35.2 29 71 0 9.1 4
2023-08-05 00:00:00 22.4 35.2 28.5 70 0 9.3 5
2023-08-06 00:00:00 24.2 34.6 28.6 71 0 10.2 4
2023-08-07 00:00:00 24 35.2 28.8 72 0 8.6 5
2023-08-08 00:00:00 23.4 33.6 28.2 75 28.7 9.8 4
2023-08-09 00:00:00 24.4 33.6 28.1 71 0 9.8 5
2023-08-10 00:00:00 24.6 33.4 28.1 74 0 8.9 6
2023-08-11 00:00:00 20.8 33.2 26.3 70 0 9 6
2023-08-12 00:00:00 20.8 34.6 27.7 61 0 9.9 5
2023-08-13 00:00:00 20.6 34.2 27.9 72 0 8.8 7
2023-08-14 00:00:00 22.8 35 28.1 70 0 10 5
2023-08-15 00:00:00 24 34.8 27.8 70 0 9.8 7
2023-08-16 00:00:00 22 34.2 27.4 71 0 9 6
2023-08-17 00:00:00 22.2 34.2 28 66 0 9.8 7
2023-08-18 00:00:00 22 33.6 27.9 68 0 10 5
2023-08-19 00:00:00 23.6 34.8 28.2 68 0 8.6 6
2023-08-20 00:00:00 25 35.2 30 60 0 10.4 7
2023-08-21 00:00:00 23.8 35.2 28.7 66 0 9.5 6
2023-08-22 00:00:00 25.2 35.2 29.1 68 0 9.9 6
2023-08-23 00:00:00 23.8 35.4 28.6 68 0 9.6 5
2023-08-24 00:00:00 24.2 36 29.2 66 0 9.8 6
2023-08-25 00:00:00 24.2 35.4 28.8 71 0 10 6
2023-08-26 00:00:00 25.2 33.6 28.9 70 0 10 6
2023-08-27 00:00:00 23.7 34.3 28.5 69 0 9.6 5.5
2023-08-28 00:00:00 22.2 35 28.1 68 0 9.2 5
2023-08-29 00:00:00 25 35.6 29.3 62 0 9.8 7
2023-08-30 00:00:00 24.4 35.2 29.2 61 0 9.7 7
2023-08-31 00:00:00 24.8 35 29 70 0 10.1 7
2023-09-01 00:00:00 22.4 34.2 28.3 72 0 9.6 7
2023-09-02 00:00:00 22.8 34.6 27.9 65 0 10.1 6
2023-09-03 00:00:00 22.4 34.4 28.5 65 0 9.5 6
2023-09-04 00:00:00 22.3 35.3 28.65 63.5 0 9.65 6.5
2023-09-05 00:00:00 22.2 36.2 28.8 62 0 9.8 7
2023-09-06 00:00:00 22.4 34.2 28.1 67 0 10 5
2023-09-07 00:00:00 23 34 28.8 69 0 9.1 5
2023-09-08 00:00:00 24 35.2 28.7 72 0 9.5 5
2023-09-09 00:00:00 22 35.6 28.6 62 0 9 5
2023-09-10 00:00:00 23.6 36 28.9 65 0 11.1 4
2023-09-11 00:00:00 23.4 36.6 30.1 62 0 9.9 4
2023-09-12 00:00:00 24 37.2 30 70 0 9.8 6
2023-09-13 00:00:00 23.6 35.8 29.5 71 0 10.1 6
2023-09-14 00:00:00 25.4 36 30.2 66 0 9.5 8
2023-09-15 00:00:00 22.8 36.4 28.8 68 2.8 8.7 6
2023-09-16 00:00:00 25.2 35.2 29.5 72 2.2 10.1 5
2023-09-17 00:00:00 26.2 35.6 29.7 71 0 9.9 5
2023-09-18 00:00:00 25.4 35.2 30.1 69 0 4.4 6
2023-09-19 00:00:00 23.2 36 28.9 68 0 7.7 6
2023-09-20 00:00:00 24.4 36.4 29.3 68 0 9.3 6
2023-09-21 00:00:00 24.8 37.2 29.4 65 0 9.8 5
2023-09-22 00:00:00 22.2 35.8 29.3 64 0 9.5 7
2023-09-23 00:00:00 23.4 35.8 29.5 61 0 9.1 5
2023-09-24 00:00:00 22.6 36.8 29.6 65 0 9.9 9
2023-09-25 00:00:00 24.8 38 30.4 64 0 10.2 5
2023-09-26 00:00:00 22 37.8 29.6 59 0 9 7
2023-09-27 00:00:00 22.2 37.8 30 62 0 10.3 5
2023-09-28 00:00:00 24.2 37.8 30 68 0 10.4 5
2023-09-29 00:00:00 25.2 38 30.4 66 0 10.6 5
2023-09-30 00:00:00 25.2 37.4 29.5 69 0 10 7
2023-10-01 00:00:00 24.6 37.05 29.8 67.5 0 10.05 6.5
2023-10-02 00:00:00 24 36.7 30.1 66 0 10.1 6
2023-10-03 00:00:00 24.2 34.8 29.7 66 0 8.3 6
2023-10-04 00:00:00 25.2 37.2 30.8 65 0 8.9 6
2023-10-05 00:00:00 24.8 35.8 29.8 72 0 10.3 7
2023-10-06 00:00:00 25.2 38.6 30.9 66 0 10.6 7
2023-10-07 00:00:00 25 37 30.6 67 0 10.5 7
2023-10-08 00:00:00 25.6 37.8 31.2 62 0.2 9.5 5
2023-10-09 00:00:00 25.4 36.8 30.55 68 0.1 9.75 5.5
2023-10-10 00:00:00 25.2 35.8 29.9 74 0 10 6
2023-10-11 00:00:00 25.8 35.6 30.3 72 0 9.3 7
2023-10-12 00:00:00 26 38 30.6 66 0 9 8
2023-10-13 00:00:00 25.8 35.2 30.1 67 0 9.8 5
2023-10-14 00:00:00 24.4 37.2 30.3 70 11.4 8.8 5
2023-10-15 00:00:00 26.6 37.4 32.4 52 0.6 8.6 6
2023-10-16 00:00:00 26 37.4 31.6 64 0 10.1 6
2023-10-17 00:00:00 25 37.8 31.2 61 0 10.15 7
2023-10-18 00:00:00 24 38.2 30.8 58 0 10.2 8
2023-10-19 00:00:00 24.8 35.2 30.7 62 0 9.9 6
2023-10-20 00:00:00 25.6 37.8 31.4 60 0 9.8 8
2023-10-21 00:00:00 26 33.8 30.4 70 0 8.6 3
2023-10-22 00:00:00 26.8 35.8 30.6 70 0 8.6 4
2023-10-23 00:00:00 26.9 35 30.2 70 1.9 7.45 5
2023-10-24 00:00:00 27 34.2 29.8 70 3.8 6.3 6
2023-10-25 00:00:00 23.8 36 29.8 71 5.7 6.1 6
2023-10-26 00:00:00 24.2 35.8 30 72 6.4 8.3 5
2023-10-27 00:00:00 25.8 38.2 31.2 62 0 9.6 5
2023-10-28 00:00:00 24.2 38.8 31 60 0 9.6 6
2023-10-29 00:00:00 25 38.2 31.4 60 0 10.9 7
2023-10-30 00:00:00 25.4 37 32.1 61 0 10.7 4
2023-10-31 00:00:00 26 36.8 32.1 62 0 10.3 6
2023-11-01 00:00:00 26.2 37 31.6 64 0 8.7 6
2023-11-02 00:00:00 27 35.6 32.2 61 0 6.7 6
2023-11-03 00:00:00 25.2 37.2 31.5 63 0 9.9 6
2023-11-04 00:00:00 25.2 34.6 30 74 2.1 8.8 5
2023-11-05 00:00:00 25 36 31.2 69 2.8 5.8 6
2023-11-06 00:00:00 26.6 35.4 31.6 68 0 7.3 5
2023-11-07 00:00:00 26.2 36.4 31.8 61 0 9.5 6
2023-11-08 00:00:00 26.4 35 31.7 66 0 9.1 6
2023-11-09 00:00:00 26.4 35.4 30.4 70 0 10.2 6
2023-11-10 00:00:00 23.4 34.8 30.4 72 10 8 5
2023-11-11 00:00:00 26 35.4 30.8 70 2.4 8.3 5
2023-11-12 00:00:00 25.2 36.4 31.6 64 6.4 8.6 6
2023-11-13 00:00:00 26.2 35.6 31.2 69 2.6 8.4 4
2023-11-14 00:00:00 27.2 36.4 30.9 70 0.6 6.8 7
2023-11-15 00:00:00 25.4 34.6 30.9 71 23 5 4
2023-11-16 00:00:00 26.8 34.4 30.8 73 0 8.6 4
2023-11-17 00:00:00 25.6 34 30.8 74 22.5 6.1 5
2023-11-18 00:00:00 25.8 35.2 31.9 65 0 6.8 3
2023-11-19 00:00:00 25.8 35.4 31.6 62 0 8.6 5
2023-11-20 00:00:00 26 35.6 31.5 67 0 8.6 6
2023-11-21 00:00:00 25 36.2 31.4 70 29.7 10.1 6
2023-11-22 00:00:00 25.2 37.2 31.9 65 3.4 8.9 6
2023-11-23 00:00:00 24.2 31.6 29.3 84 27.4 9 4
2023-11-24 00:00:00 24.2 31.8 28.8 83 32.7 7.55 6
2023-11-25 00:00:00 24.2 32 28.3 82 38 6.1 8
2023-11-26 00:00:00 24.5 32.7 29.15 77.5 19 6.4 6.5
2023-11-27 00:00:00 24.8 33.4 30 73 0 6.7 5
2023-11-28 00:00:00 23.6 30.8 28.6 82 34.9 4.4 3
2023-11-29 00:00:00 25.4 33.8 30 71 0 0.4 6
2023-11-30 00:00:00 25.8 35.6 30.6 72 10.4 1.7 5
2023-12-01 00:00:00 26.2 28.8 26.1 91 0.2 7 3
2023-12-02 00:00:00 23.8 32 29 80 51 0 4
2023-12-03 00:00:00 25.2 34.8 29.2 79 2.8 4.8 4
2023-12-04 00:00:00 24 33.6 28.8 79 67 6.7 5
2023-12-05 00:00:00 24 32.4 29.6 77 7.2 2.9 4
2023-12-06 00:00:00 25.4 32.2 29.6 78 3.9 8.5 5
2023-12-07 00:00:00 26.4 32.8 29.9 76 0 4.9 5
2023-12-08 00:00:00 25.6 32.8 29.8 75 0.6 4.7 5
2023-12-09 00:00:00 26.2 32.4 30 77 0 6.2 3
2023-12-10 00:00:00 25.8 33.4 30.5 73.5 0.5 3.6 4
2023-12-11 00:00:00 25.4 34.4 31 70 1 1 5
2023-12-12 00:00:00 25 33.6 30.9 66 0 9.8 4
2023-12-13 00:00:00 25.6 33.2 30.4 71 0 10.9 5
2023-12-14 00:00:00 26.6 33.4 30.9 68 0 8.1 4
2023-12-15 00:00:00 26.6 33.6 30.6 68 0 5.8 5
2023-12-16 00:00:00 26 33.8 30.9 71 0 9.3 3
2023-12-17 00:00:00 26 33.8 30.9 68 0 10.2 6
2023-12-18 00:00:00 25.6 33.6 31.2 67 0 9.1 6
2023-12-19 00:00:00 25.8 33.8 30.9 65 0 8 4
2023-12-20 00:00:00 25.6 33.8 30.5 66 0 8.4 4
2023-12-21 00:00:00 24.6 33.2 30.5 65 0 9.1 5
2023-12-22 00:00:00 25.4 33.6 31.2 66 0 10.1 5
2023-12-23 00:00:00 26 36 31.8 62 1.5 10.2 5
2023-12-24 00:00:00 26 33.6 31.2 68 0 10.5 5
2023-12-25 00:00:00 25.6 32.2 28.4 80 6.2 9 6
2023-12-26 00:00:00 25.6 33.4 29.8 70 4.2 1 4
2023-12-27 00:00:00 26 34 30.9 69 2.2 2.3 6
2023-12-28 00:00:00 26.8 36.4 30.5 72 0.2 6.5 10
2023-12-29 00:00:00 25.4 36 31.5 69 12.2 6.5 4
2023-12-30 00:00:00 24.2 33.2 30 74 97.8 8.4 5
2023-12-31 00:00:00 25.8 33.4 30 78 0 7 4
ddd_x ff_avg ddd_car
315 4 NW Keterangan:
315 3 NW Tn= Minimum Temp (°C)
315 3 NW Tx= Maximum Temp (°C)
315 4 NW Tavg= Average Temp (°C)
315 4 NW RH_avg= Average Humidity(%)
315 5 NW RR= Rainfall (mm)
270 6W ss= Duration of sunshine (hours)
270 6W ff_x= Maximum Wind Speed (m/s)
315 1 NW ddd_x: Wind Direction at Maximum Speed (°)
315 4W ff_avg: Average Wind Speed (m/s)
315 8 NW ddd_car: Most Common Wind Direction (°)
315 3 NW
315 2 NW
315 4 NW Sumber: [Link]
315 3 NW
315 3 NW
270 2W
370 3W
360 3N
315 3N
315 3N
315 2N
270 4W
360 3N
315 3 NW
315 2 NW
315 2N
360 0N
315 2 NW
315 3 NW
270 2N
360 2N
350 2N
300 2N
330 2N
360 1N
200 2N
340 2N
340 2N
340 1N
340 1N
340 1N
360 3N
360 1N
340 2N
220 2N
360 2N
330 2 NW
290 4W
280 2W
300 1N
320 2N
360 2N
340 1N
20 2N
340 2N
350 1N
350 2N
360 2N
360 1N
200 2N
100 2N
10 1N
340 3N
315 3 NW
315 2 NW
315 2N
360 2N
315 2 NW
315 3 NW
90 2E
315 2 NW
315 3 NW
360 2N
360 2N
360 2N
360 3N
360 2N
315 3 NW
90 3 SW
315 3 NW
360 2N
360 2N
360 3N
315 2 NW
315 3 NE
315 0 NW
45 0 NE
90 3E
90 3E
360 2 NW
360 3 NW
45 3 NE
45 2 NE
90 3 NE
360 24 N
135 3 SE
90 4E
90 3 SE
90 3 SE
45 3 NE
135 2S
45 2 NW
90 3E
90 3E
315 2N
100 2E
360 2N
135 2 SE
60 2N
110 2N
10 2N
90 3E
90 3E
270 3W
90 4 SE
45 0 NE
135 0 SE
90 0E
135 0 SE
360 2N
360 2N
360 2 NW
90 1C
45 3 NE
135 3 SE
90 4 SE
135 4 SE
90 3E
90 3E
90 2E
315 3 NW
135 3 SE
45 4 NE
135 4 SE
315 3E
45 4 NE
135 3 SE
315 3 NW
315 2 NW
135 2 SE
135 2E
90 39 SE
90 2E
360 3N
360 2N
360 4N
90 0E
315 0 NW
135 0 SE
315 4E
135 3 SE
90 2 SE
90 3E
90 3
90 3E
360 3 SE
315 2 NW
315 2 NW
360 2N
360 2N
285 2
210 2
135 2 SE
45 4 NE
90 3E
135 2 SE
135 5 SE
112.5 3.5
90 2 SE
90 3 SE
90 3 SE
135 3 SE
135 3 SE
135 4 SE
135 3 SE
100 2E
90 2 SW
90 2.5
90 3E
315 3 NW
1 4 SE
0 2 SE
0 3W
0 3E
1 2 NW
0 3 NW
1 4 NW
0 2 NW
0 2 NW
0 3W
0 3N
0 0 NW
0 2 NE
0 6N
0 3 SE
0 3 NW
0 3 NW
1 4E
1 3N
0 2 SE
0 3E
0 4E
1 3E
1 4 SE
1 4 SE
1 3E
1 6 NE
5 0E
0 3N
0 3N
0 3 SE
135 3 SE
135 3 NW
270 3E
315 3 NW
90 3E
90 3E
135 6 SE
90 4 SE
90 3E
360 3N
360 3N
90 5E
360 3N
360 3N
135 4 SE
90 4E
45 3 NE
135 2 SE
270 3E
270 3 NW
90 3N
90 3E
45 3 NE
360 3N
45 4 NE
135 4 SE
360 4N
360 2N
90 3E
360 4N
360 3 NW
360 3N
315 2 NW
90 3E
360 3N
360 3N
135 3N
360 3N
360 3N
360 2N
180 2N
90 3N
315 2 NW
315 3 NW
315 2 NW
270 3 NW
360 2 NW
270 3 NW
315 2 NW
315 3 NW
315 2 NW
315 3 NW
360 4S
180 2S
360 3N
315 3 NW
315 2 NW
315 0 NW
360 2N
315 2 NW
315 2 NW
315 3 NW
360 3N
360 4N
225 0 SW
360 3N
225 3 SW
225 3N
315 2 NW
225 3 SW
270 3W
360 2N
360 2N
360 3N
315 3 NW
360 2N
315 2 NW
225 2 SW
360 2N
315 2 NW
315 2 NW
315 2 NW
315 2 NW
315 2 NW
315 2 NW
225 3 SW
360 2N
360 2N
360 0N
270 2W
270 2W
270 2W
315 2 NW
315 3 NW
360 2N
360 2N
360 3 NW
315 3 NW
270 2N
270 2 SE
315 2 NW
315 2 NW
360 2 NW
360 2N
360 2 NW
270 3 NW
270 3 SE
270 3W
270 4W
270 4W
315 3 NW
315 4 NW
315 2 NW
315 3 NW
315 2 NW
315 2 NW
315 3 NW
315 6 NW
315 0 NW
315 3 NW
315 2 NW
315 2 NW
315 2 NW
315 3 NW
315 3 NW
315 3 NW
315 2 NW
315 2 NW
315 2 NW
315 3 NW
315 2 NW
315 3 NW
270 6W
270 2W
270 4W
315 3 NW
315 3 NW
270 5W
315 4 NW
270 4W
270 3W
270 2W
315 1 NW
270 4W
270 4W
270 4W
315 3 NW
315 3 NW
315 7 NW
315 0 NW
270 3W
270 4W
315 5 NW
315 4 NW
270 3 NW
270 5 NW
270 3 SW
270 3 SW
270 4W
270 4W
315 3 NW
315 3 NW
315 3 NW
270 3W
270 5W
270 4W
270 3W
270 3 NW
315 4 NW
315 4 NW
270 1 NW
315 4 NW
315 2 NW
315 3 NW
315 2 NW
315 3 NW
315 2 NW
360 2 SE
235 3N
360 3N
270 0W
315 2 NW
315 3N
315 3 NW
315 3 NW
315 2 NW
360 3N
315 3 NW
315 2 NW
360 2N
315 3 NW
315 3 NW
315 2 NW
360 4N
315 2 NW
360 3N
315 3 NW
315 2 NW
315 2 NW
315 4 NW
315 2 NW
315 3 NW
315 4 NW
315 2 NW
360 2N
360 2N
315 3 NW
315 2 NW
360 0N
360 2N
360 3N
315 2 NW
360 2N
315 3 NW
315 3 NW
360 2N
135 3 NW
90 3 SE
90 3 SE
360 3 NW
90 3 NE
235 3E
135 4 SE
360 3N
360 3N
90 1E
90 0E
360 0N
360 0N
360 1N
360 2N
315 2W
180 3S
135 3E
90 3N
360 2N
360 4 SE
135 3 SE
135 3N
360 0E
270 3E
90 2E
90 2 NE
315 2 NW
360 2 NW
90 3E
135 4 SE
135 5 SE
90 3N
135 2 NE
90 3 SE
90 6 SE
45 3W
315 3 SE
45 3 NE
180 3N
135 4E
135 6 SE
360 2N
90 3E
90 3E
315 2 NW
135 4 SE
135 5 SE
135 4 SE
360 3N
90 3E
90 2E
90 4E
315 0 SE
315 3 SE
90 2E
360 2N
315 3 NW
135 2E
135 2 SE
360 3 NW
135 3N
315 2 NW
315 3 NW
90 3E
90 1 NW
90 0 SE
90 2 SE
315 1 NW
360 1N
90 2E
90 2 SE
90 2 SE
90 2 NE
135 2 SE
90 3 SE
90 3 SE
135 6 SE
315 5 NW
135 3 NW
135 2 SE
315 3 NW
315 3 NW
315 3 NW
315 0 NW
135 3 SE
315 1 NW
315 3 NW
90 3N
315 2 NW
360 2 NW
180 4 SE
90 3E
135 3E
90 3E
135 3E
90 3 SW
315 2 NW
315 3 NW
90 3 NE
315 2 NW
315 2 NW
45 3 SE
135 3N
135 3 NE
135 3 SE
90 4 SE
90 2 SE
315 2 NW
360 3 NW
90 4E
315 3 NW
315 3 NW
90 3 NW
90 0 SE
270 2 NW
360 3N
315 3E
315 3 NW
135 3S
135 3 SE
315 2 NW
360 2 NW
360 3W
90 3E
270 4 NE
135 3N
315 3 NE
255 3
195 3
135 3 SE
360 3 NE
270 3 SE
315 3 SE
315 3 NW
135 3 SE
45 4 NE
90 2 NE
315 3W
315 4 NW
360 2 NW
315 3 NW
315 3 NW
90 3E
90 3E
90 3E
360 3N
45 3 NE
90 3E
315 0N
315 0 NW
315 0N
45 0 SE
360 0 SE
360 0 NW
90 0 NE
90 0 SE
45 0 NE
135 0 SE
270 0E
315 0 NW
135 0 SE
90 0E
90 0E
90 0E
90 0E
90 0N
360 0N
270 0W
135 0 SE
315 0 NW
90 0E
360 0N
315 0 NW
315 0 NW
270 0E
90 0E
135 0 NW
315 0 NW
360 3 NW
360 3 NW
315 3 NW
315 4N
90 3E
90 3N
90 3 NE
90 4 SE
360 3 NW
270 3 NW
315 3 NW
360 3N
315 3 NW
315 3 NW
360 3 NW
360 4 NW
315 3 NW
315 3 NW
315 3 NW
315 3 NW
360 3N
270 3E
315 3 NW
360 2 NW
360 3 NW
315 3 NW
315 3 NE
315 2N
360 3N
270 2N
360 2N
360 4 NW
315 3 NE
360 3 SW
315 3N
315 3 NW
315 2 NW
315 3 NW
315 2 NW
360 3 NW
360 3 NW
360 3 NW
360 3N
315 3N
360 3W
360 3N
270 0N
360 5N
360 2 NW
360 3 NW
315 3N
315 3N
270 2 NW
270 3 NW
360 2N
315 3N
90 4N
360 3 NW
315 0 NW
315 2N
360 3W
260 3W
100 0N
150 2N
50 3N
350 1N
350 2N
350 4N
360 2N
70 2N
350 3N
30 1N
330 1N
330 1N
250 1N
290 1N
350 2N
340 2N
340 1N
343.3333 1
346.6667 1
350 1
353.3333 1
356.6667 1
360 1C
285 1
210 1C
280 1
350 1C
340 2C
350 2N
330 3N T RH
350 3N
270 2W jan 27.6129 84.91935
10 1C feb 27.94464 83.66071
175 1.5 mar 27.6 87.03226
340 2C apr 28.625 81.58333
320 2C may 28.89677 76.09677
360 2N jun 28.27333 72.43333
360 1C jul 27.8371 68.90323
360 2C aug 28.00968 66.09677
300 1C sep 28.75167 66.41667
340 1C okt 29.82258 71.83871
360 2N nov 30.09333 75.4
290 1C des 28.62903 84.1129
270 2W
270 2C
270 2C
270 4W
350 1C
340 1C
350 0C
300 2
250 4W
280 3W
310 4W
280 2W
250 5W
260 2C
300 2C
270 2C
330 3W
340 1C
360 2C
270 2C
300 1.5
330 1C
340 2C
330 1C
290 2C
280 1C
360 1C
360 2N
340 2C
350 1C
350 1C
305 1
260 1C
130 2C
250 2C
360 2C
350 1C
280 2C
310 1C
340 1C
320 2C
320 2C
30 2C
110 4 SE
340 3E
320 2C
270 2
220 2C
110 1C
330 1C
300 3W
290 2W
110 1C
340 1C
360 1C
320 1C
330 1C
280 3W
340 2C
270 3W
360 2N
340 2C
270 0C
320 1C
230 1C
320 2C
280 3W
300 2W
330 2 NW
30 0C
300 1C
290 1C
360 2C
210 1C
360 2C
330 2C
340 1C
160 1C
360 1C
360 1C
110 2E
350 2C
360 2C
350 2
340 2N
320 2C
215 1.5
110 1C
360 2C
120 2C
260 2E
350 2C
100 2C
350 2C
110 2E
110 2C
100 2C
100 2C
100 2E
150 3E
120 2C
120 2E
110 2C
350 1C
360 1C
360 2C
350 1C
50 2C
106 1.8
162 1.6
218 1.4
274 1.2
330 1C
70 2C
340 2C
160 1C
50 2C
100 3C
110 2C
90 2E
100 2E
120 2C
20 2C
110 2C
360 1C
40 1C
100 2C
80 2E
10 2C
90 2E
130 3E
30 2C
140 2C
40 3E
70 3E
110 4E
90 2E
90 2C
110 2C
320 1C
350 1C
340 1C
110 2C
110 3E
110 3E
100 2C
90 2C
50 2C
100 3E
50 2C
70 2C
350 1C
150 2C
100 2C
90 2 NE
80 4E
40 1C
110 2C
100 2C
110 2C
110 2C
90 2C
90 2C
300 2E
300 2C
120 2C
360 1C
50 1C
140 3E
120 3C
100 3C
70 2 NE
60 4C
85 3.5
110 3C
90 3E
100 2C
110 2C
340 3E
120 4C
40 2C
110 2C
110 2C
110 2C
50 2C
60 3C
120 3E
90 2C
60 2C
10 2C
340 2C
100 2C
110 2C
340 3C
120 2C
120 2
120 2C
40 2C
85 2.5
130 3C
90 3E
90 2C
80 1C
360 2C
270 2C
260 2C
100 1C
110 3E
30 2C
40 3C
120 3 SE
110 5E
90 4E
140 3E
100 3C
90 2C
340 2E
330 2C
90 3E
120 5E
100 3E
100 2C
270 2C
270 3 NW
340 2C
360 2C
140 3E
340 4E
110 3E
100 4E
185 3
270 2C
330 3N
10 2 NE
120 3E
70 2C
90 3E
90 2N
350 3E
110 3E
360 3C
350 3C
60 2C
60 2C
340 3C
350 3E
100 3E
100 2E
330 3E
70 3E
100 2 NW
330 3E
340 3C
100 3E
350 3C
100 3E
40 2 NE
350 3C
90 4E
110 3C
340 2C
300 2C
110 3C
100 2C
110 3E
100 2C
340 2C
50 2C
350 3C
100 3C
110 2C
320 2C
310 1C
80 1C
350 1C
340 2C
340 3C
350 2C
350 1C
90 2C
110 2C
70 1C
80 3C
100 3C
350 2C
310 2N
350 2C
110 3W
350 3 NW
350 2C
290 2C
230 2C
263.3333 1.666667
296.6667 1.333333
330 1C
120 1C
360 2C
340 3N
280 3 NW
350 2C
340 2C
350 1C
100 2E
90 3E
350 2C
330 2C
100 4E
80 3C
90 3E
340 2C
350 2C
340 2C
330 2C
330 3C
90 3C
20 2C
360 2C
350 2N
350 1C
350 2C
280 2C
305 2
330 2C
340 3C
350 3N
60 1C
350 2C
45 2C
360 2W
340 2 NW
260 2C
10 2C
280 1C
260 2C
280 2C
320 1C
280 2C
350 2C
310 1C
350 2C
350 2N
340 2C
350 1C
360 1C
10 2C
360 2C
340 2C
360 2C
280 2C
310 2C
310 1C
330 1C
280 4W
280 3W
270 3W
270 2C
270 2C
360 2C
280 2C
360 2C
260 2C
290 2W
330 1C
320 2W
310 2
300 2W
320 1.5
340 1C
300 2C
350 2C
360 2N
250 2C
300 2
350 2C
330 2C
305 2
280 2C
350 2C
350 2N
330 2C
300 2C
270 1C
300 2W
310 2C
270 2W
330 2C
200 2C
290 1C
340 3 NW
300 2C
260 3W
295 2.5
330 2N
350 1C
336.6667 1.333333
323.3333 1.666667
310 2N
280 1C
350 2C
260 1C
270 2W
310 3W
280 2W
270 3W
290 2C
290 3 NW
290 3W
300 4W
330 2C
280 3C
280 2C
290 3C
310 2C
290 2W
310 2C
270 1C
350 2C
320 2W
290 2C
340 2C
360 1C
350 1C
360 2W
320 2C
320 1C
360 2C
360 2C
290 2C
340 2N
40 2C
350 2C
330 2C
360 2C
360 2C
310 2E
320 2C
350 2C
360 2C
360 1C
290 2C
360 1C
290 2C
340 1C
350 2C
350 1C
340 2C
326.6667 1.666667
313.3333 1.333333
300 1C
350 1C
350 1C
140 2C
80 2C
360 1C
210 2C
350 1C
340 2C
340 2C
330 1.75
320 1.5
310 1.25
300 1C
330 1C
60 2C
120 2C
100 2E
160 2C
110 2C
340 1C
130 2C
105 2.5
80 3E
146.6667 2.666667
213.3333 2.333333
280 2C
160 1C
120 2C
350 2C
120 3E
110 2E
145 2
180 2C
45 1C
45 3 NE
90 2E
150 2C
130 2C
120 2C
100 2C
110 2C
340 2C
120 3 SE
350 2C
340 1C
340 1.333333
340 1.666667
340 2C
10 2C
40 2C
10 1C
360 2E
330 1C
140 2C
350 3E
270 3
190 3
110 3 SE
100 2E
100 2C
330 1C
120 1C
80 2C
20 2C
120 2C
120 2C
100 2E
103.3333 2
106.6667 2
110 2C
120 2C
100 3E
80 2C
90 2E
105 2
120 2C
100 4E
100 2C
100 2
100 2
100 2
100 2C
50 1C
120 2C
140 2C
190 3
240 4 SE
230 2C
120 2C
100 3E
100 2
100 1C
120 1.5
140 2C
300 1C
90 1C
95 1.5
100 2C
110 2E
120 2C
340 3 SE
120 2C
110 1C
30 2C
120 2C
100 2E
90 2C
110 2C
80 2C
150 2C
120 2C
120 3C
130 3 SE
140 2C
310 2C
300 1C
172.5 1.5
45 2C
90 2C
100 1C
360 1C
90 3C
300 2C
310 2.25
320 2.5
330 2.75
340 3E
120 2C
90 3E
130 2C
45 3W
100 3E
80 4E
330 2C
120 2C
100 3E
130 3E
130 3C
120 2.75
110 2.5
100 2.25
90 2E
100 2E
100 3E
340 2N
110 2E
20 3E
100 3E
330 2C
100 2C
360 2C
40 3 NE
110 2C
360 1C
45 3E
80 2E
60 2C
360 2C
330 2C
60 2 NW
320 2C
100 2C
100 2.5
100 3
100 3.5
100 4E
90 2C
150 2C
250 2C
280 2C
350 2C
70 2C
340 3C
360 2C
150 2E
220 2
290 2
360 2C
350 2C
130 2C
160 3 SE
120 2C
140 2C
340 2C
110 3E
80 2C
70 2C
86.66667 2
103.3333 2
120 2C
350 2N
150 2C
300 1C
330 1C
100 2C
120 2E
30 2C
80 2C
250 1C
350 2C
80 2C
123.3333 1.666667
166.6667 1.333333
210 1C
110 2E
110 2C
110 2C
340 1C
340 2C
320 1C
80 1C
150 2C
97.5 2
45 2C
340 2N
360 2C
90 3W
280 2C
340 3N
110 3 SE
120 3C
340 2C
70 1C
100 2
130 3 SE
90 2C
360 4N
360 2C
330 1C
350 2C
320 2 NW
235 1.5
150 1C
340 1C
340 1
340 1C
360 0C
330 1C
350 1C
360 2C
330 1C
310 2 NW
260 4 NW
260 2C
260 2C
270 6W
280 4C
290 4W
270 2W
270 2W
270 2W
330 1C
340 2C
340 1C
280 2C
340 1C
340 2C
10 2C
185 1.5
360 1C
355 1
350 1C
360 1C
320 2C
360 2C
320 2C
360 2C
190 2C
320 2C
340 1C
360 1C
350 1
340 1C
350 2C
340 3C
270 3N
350 1C
350 1C
340 2C
270 1C
290 2C
290 2C
80 2C
300 2C
330 1C
300 2C
280 2W
280 2W
280 3W
290 2C
320 1C
316.6667 1.333333
313.3333 1.666667
310 2C
360 1C
260 2W
260 2C
320 2 NW
320 2 NW
250 3W
270 4W
270 4W
290 6W
280 4.75
270 3.5
260 2.25
250 1C
280 3W
275 2.5
270 2C
350 2C
320 2C
290 3W
330 2W
300 1C
300 2C
300 1C
320 4W
280 3W
270 2W
270 3W
280 2C
350 2C
270 2C
260 2W
290 2W
270 1C
360 1C
360 1C
350 1.5
340 2C
360 2C
270 2C
310 2C
280 2C
330 2C
290 2C
270 2W
270 2W
320 2C
340 1C
340 2C
270 1C
270 2C
340 2C
360 2N
320 2C
360 2C
20 1C
340 2C
340 2C
360 2N
200 2C
350 1C
350 2N
360 2C
330 2C
330 1C
340 2C
360 2C
320 1C
280 4W
340 2C
280 3 NW
300 3W
280 1C
330 4W
260 3W
320 1C
330 2C
360 1C
340 2C
170 1C
20 1C
340 2C
345 1.5
350 1C
270 1C
340 2C
110 2E
350 2C
340 2C
100 2C
60 2C
80 2C
110 3E
60 1C
360 2C
350 2C
235 2
120 2C
140 2C
120 2C
140 2C
100 2C
320 1C
110 1C
45 2C
60 3E
110 3E
80 3 SE
130 2C
70 2E
10 2C
40 2C
200 2E
360 0C
90 1C
180 2C
90 1C
300 2C
360 1C
80 2E
20 1C
120 3C
110 2C
150 2 SE
235 1.5
320 1C
270 1C
340 2C
100 2C
130 2C
130 2C
110 2C
220 2
330 2C
350 1C
40 2C
40 2E
45 2C
90 2E
130 3E
120 2 SE
350 2C
353.3333 2
356.6667 2
360 2C
20 1C
350 2C
60 1C
70 2C
120 2E
290 1C
120 2C
130 2C
120 2C
90 2C
60 2C
80 2C
100 2C
120 2C
360 2C
50 1C
140 2 SE
120 3 SE
360 2C
350 2C
150 2 SE
90 3E
80 4E
110 3E
110 2C
100 1C
150 2C
100 2C
100 1C
110 2E
340 2C
110 3C
270 2C
160 2C
255 2
350 2C
120 2C
100 2C
90 2C
110 1C
230 1.5
350 2C
360 2C
100 2C
340 2C
310 1C
110 2E
80 2E
350 2C
80 2E
90 4E
130 3E
100 2C
120 2C
270 2C
10 2W
100 2E
130 3C
90 3E
120 2C
350 1C
360 1C
110 2E
320 2C
320 2 NW
110 2C
130 2C
80 2C
330 2C
340 2C
170 2C
110 3E
340 2C
45 2E
340 2N
130 3C
130 1C
340 2C
10 1C
360 3N
50 3W
130 2C
280 2W
360 2C
340 2N
50 3 SE
110 3E
110 2C
70 2C
340 2C
90 2C
80 2C
150 3C
300 3 NW
50 2C
90 3 SE
130 3 SE
130 2C
100 2
70 2C
90 2C
280 1C
100 2W
120 3C
310 2W
330 2C
340 2C
180 2C
350 2C
330 1C
350 1C
350 2C
350 2N
360 2C
350 2C
110 3E
250 2C
45 1C
90 2C
130 2W
330 2C
130 2C
310 2C
330 2C
350 2C
340 1C
140 2C
90 2C
280 2C
360 2C
30 3 SE
350 3C
250 1C
250 2C
330 2C
350 2C
360 2C
310 2C
260 2C
340 2N
10 2C
340 2N
360 1C
340 2C
360 1C
260 1C
330 1C
320 2C
150 1C
250 1C
200 2C
360 2C
320 2C
360 2W
110 1C
340 2C
310 3W
350 2N
280 1C
340 2C
360 1C
360 2C
330 1C
45 3N
45 2C
360 2C
310 1C
350 1C
320 2C
290 2W
300 2C
310 3W
300 4W
280 2C
300 2C
290 2C
340 2C
350 2C
355 2
360 2C
330 2C
350 2C
330 2C
360 2C
340 2C
120 1C
330 2C
360 2C
350 2C
360 2C
330 2C
250 2C
320 2W
330 2C
360 1C
340 1C
350 2C
350 2C
330 1C
340 2C
360 2C
360 2C
350 2C
360 2N
290 2C
320 2C
300 3W
270 3W
330 3W
330 4W
250 4W
270 2C
350 2C
300 4W
280 4 NW
320 2C
320 2 NW
320 2C
320 2C
330 2 NW
180 3 NW
290 4W
320 3C
330 2C
350 3C
330 3 NW
330 2C
270 3W
290 3W
290 2C
290 2C
270 1C
300 4W
280 2W
290 3W
290 2C
280 3C
310 3 NW
310 3C
310 2 NW
100 1C
60 1C
110 2C
90 2C
80 1C
300 1C
350 1C
340 2C
290 1C
180 2C
340 2C
330 2C
320 2W
330 4W
270 3W
280 3W
320 4W
290 2C
340 2C
340 1C
360 2C
330 1C
340 2C
330 2C
280 2C
320 3W
350 2C
340 2C
320 2 NW
320 0C
350 2C
330 2C
290 2W
290 2C
120 2C
360 2C
340 1C
240 3W
340 2C
330 1C
330 2W
340 2
350 2C
280 2C
340 2C
20 2C
280 2C
360 2C
340 2C
290 2 SE
270 2W
260 2C
270 2C
140 2C
350 2C
120 1C
360 3 NW
350 2N
350 2C
340 2C
330 2C
360 3N
360 2N
350 2C
330 2N
350 2N
280 2C
50 2C
120 2C
340 1C
320 2C
360 1C
0 1C
290 2W
350 2C
320 2C
185 2.5
50 3 SE
120 3 SE
350 2N
350 2C
225 2.5
100 3C
120 2 NW
290 2C
80 2C
340 2N
350 2 NW
340 2N
350 2N
100 1C
340 1C
150 1C
90 3C
130 2C
70 2C
140 2 SE
130 3 SE
120 2 SE
150 2 SE
160 2C
250 2
340 2C
340 2C
290 2C
330 2 NW
340 2N
40 1C
330 2C
270 1C
360 2C
220 2C
310 2 NW
310 4 NW
80 3 SE
50 3 SE
30 2C
110 2C
50 2C
20 2C
65 3E
130 3E
115 3E
50 1C
350 1C
230 1.5
110 2C
330 2C
105 3E
280 2 NE
300 2 NW
120 1C
350 2W
20 1C
290 1C
100 1C
270 2W
100 3 SE
55 3C
100 3 SE
130 2C
330 2C
350 2C
330 2C
280 2 NW
120 2E
80 3E
130 2C
60 4E
110 2C
80 3E
150 2C
250 2 SE
340 1N
70 2C
110 2E
90 3C
80 2C
50 3E
60 3E
300 2W
210 1.5
120 1C
110 3E
80 2E
150 3E
90 2C
330 2C
290 3E
100 3E
120 3E
360 2C
360 1C
360 2C
300 2C
300 2C
90 2C
30 3E
100 3C
90 3E
220 3E
80 2C
20 2E
130 2C
90 4E
120 4 SE
70 3E
100 3E
350 2C
205 2.5
60 3E
90 4E
120 3E
115 2.5
110 2 NE
350 1C
110 2C
340 2C
340 2N
100 4 SE
120 3 SE
340 2C
350 2C
40 2C
340 3 SE
340 4E
360 2N
90 3C
360 2C
100 2C
110 2C
180 3C
290 2N
340 2 NW
120 3E
140 2C
170 2C
300 2C
100 2C
290 2C
120 2 SE
280 2N
160 2N
130 2C
360 2 NW
120 2C
80 3E
50 2 NE
120 2 SE
360 2C
330 2W
340 2N
340 2N
200 2C
100 2C
290 2C
210 2C
320 2N
0 3N
20 2C
350 1C
270 1C
260 1C
120 2C
90 2C
150 1C
340 1N
10 2N
20 3N
330 2C
330 1C
300 1C
280 1 SE
10 2N
200 1C
330 2C
340 2C
45 2C
350 1C
340 2C
340 2C
120 2E
0 1C
270 2C
130 2N
360 2C
60 2C
360 2C
350 2N
200 2N
350 1C
360 2C
150 2C
340 2C
350 2C
340 2C
320 2W
0 2N
340 2C
360 2C
360 2C
340 1C
360 1N
20 2E
340 2C
340 2C
220 1C
360 1C
350 2C
330 1C
270 2C
280 2W
340 2C
340 1C
70 1E
340 2N
10 2 NW
350 2C
340 3C
350 2C
190 2C
350 1C
340 2C
340 1C
190 1C
270 2C
350 2C
340 2C
340 2N
350 1N
320 1C
290 3C
280 5W
280 4W
280 3W
280 2 SW
280 2W
290 3W
290 3W
350 2C
280 2W
290 4W
300 4
310 4W
290 5 NW
280 3W
340 2C
350 1C
360 2C
360 2C
340 2N
350 2N
280 2W
280 2C
330 3 NW
330 2C
330 3W
240 1C
320 1C
320 2C
40 2C
340 2C
330 2C
340 2C
320 2W
260 2W
280 2W
280 2C
240 1C
330 3W
290 2W
310 1C
280 2W
280 2W
250 2W
260 2C
260 2W
320 2C
320 3W
320 2C
290 3W
280 3W
250 3W
280 3W
360 1C
290 2C
340 2C
30 2C
320 3C
290 1C
280 2C
350 1C
310 2W
300 3W
320 3W
270 4W
270 4W
300 4W
270 3W
270 3W
320 2C
290 2W
320 2C
305 2.5
290 3W
290 2W
340 2C
320 2C
290 2C
360 2C
350 2C
350 2W
340 3N
350 2C
20 2C
340 2C
340 2C
150 2N
350 2N
260 2C
45 2 NE
350 2N
350 2C
280 2C
310 2C
280 2W
340 2C
350 2C
350 2C
340 2 NW
340 2C
170 1C
360 2C
360 2C
350 1C
350 2C
320 2C
350 2 SW
350 2C
340 2C
250 2C
350 2C
20 2C
320 0C
350 2C
320 2 NW
320 2 NW
10 2N
350 2N
350 2N
100 1C
340 2C
340 3C
110 2C
130 3C
120 2C
40 2N
70 2C
310 2C
360 1C
30 2C
340 2C
340 3N
340 2C
340 2C
110 2C
360 2C
350 2C
340 2C
270 1C
70 4E
140 2 SE
120 3 SE
360 2C
170 2C
170 1C
45 2C
120 2C
40 2 SE
80 2E
120 2C
130 2C
80 2C
30 2C
70 1C
90 2C
110 3E
300 1C
340 2N
40 2N
130 2 SE
90 2C
350 2C
40 2E
340 2C
350 2C
120 2C
80 2E
110 2E
100 2E
110 2C
50 2C
130 2C
70 3E
90 2E
110 2E
110 2C
98 2
86 2
74 2
62 2
50 2C
130 2C
40 2E
110 2C
45 3E
360 2C
360 1C
10 1C
10 2C
300 1C
312.5 1.25
325 1.5
337.5 1.75
350 2C
266.6667 2
183.3333 2
100 2C
170 1C
80 1C
70 3E
60 2.5
50 2C
340 1C
342.5 1
345 1
347.5 1
350 1C
150 2C
97.5 2
45 2C
110 3E
110 1C
60 2E
100 2E
80 2C
90 2E
45 2C
50 2C
340 2C
130 2C
110 3E
100 2C
110 2
120 2
130 2
140 2C
350 2C
340 2C
150 2C
120 2N
330 2C
290 3 NW
320 2C
130 2C
110 3C
120 2C
320 2 NW
340 2C
104 2 SE
20 2 NW
200 2C
140 3E
110 2C
100 3E
320 2C
100 3E
340 2 NE
320 3C
210 2.5
100 2E
350 3E
80 2E
340 3C
360 3N
100 3C
140 4E
240 3.5
340 3E
350 2N
340 2C
30 2C
80 2E
100 2C
360 1C
330 2E
30 3C
140 2C
360 2C
60 2C
30 3E
340 3N
80 2N
120 3N
100 2C
280 2C
360 3N
350 4E
100 3E
350 3C
80 2C
360 2C
320 2 NW
90 3C
105 3
120 3 SE
350 2N
350 3W
10 2C
100 3C
300 3C
90 3E
110 3.5
130 4W
340 2C
360 2E
320 2N
60 2E
100 3E
100 2C
100 2.5
100 3C
20 3W
330 3W
280 1C
330 2C
330 2.5
330 3 NW
310 2N
350 2C
70 2 SE
90 2C
70 2C
360 2C
30 3C
300 2C
360 2N
360 3C
340 2C
360 2C
360 2W
340 2C
320 2N
100 2C
280 2C
330 2C
20 2C
40 2N
40 3E
240 1C
260 1C
270 2C
290 1N
290 2N
280 2W
350 2C
110 2C
280 1C
320 1.5
360 2C
355 2.5
350 3N
350 1C
210 2C
90 2C
260 1C
360 1C
270 2C
360 2N
230 1C
340 1C
350 2W
20 2C
340 1C
350 1.5
360 2C
360 3 NW
350 2N
340 2C
350 2C
10 2C
330 2C
360 2C
260 2C
360 1C
290 2C
320 2C
340 2C
310 2C
360 1C
330 1C
340 2N
20 2C
40 2C
350 2C
340 2N
9/climate-data-in-semarang-2017-2023?resource=download
Data Suhu (Celcius) Rata-rata Bulanan Kota Se
No Tahun Januari Februari Maret April Mei Juni Juli
1 2019 27.6 27.9 27.6 28.6 28.9 28.3 27.8
2 2020 27.9 27.5 28.1 28.6 29.0 28.8 28.3
3 2021 26.9 26.7 27.6 28.3 29.0 28.3 28.3
4 2022 27.4 27.3 27.8 28.3 28.7 27.8 28.2
5 2023 27.3 26.8 27.9 28.5 29.3 29.1 27.9

Data Kelembaban (%) Rata-rata Bulanan Kota S


No Tahun Januari Februari Maret April Mei Juni Juli
1 2019 84.9 83.7 87.0 81.6 76.1 72.4 68.9
2 2020 87.1 87.8 86.8 84.6 82.5 80.7 79.5
3 2021 88.4 91.6 88.8 82.1 79.6 78.4 70.1
4 2022 84.1 85.2 84.6 80.8 79.0 79.5 76.0
5 2023 85.9 86.9 82.4 80.7 74.5 75.4 74.5
Bulanan Kota Semarang
Agustus September Oktober November Desember 2019
28.0 28.8 29.8 30.1 28.6 T RH
28.7 29.3 28.8 28.6 27.5 jan 27.6129 84.91935
28.6 28.8 29.0 27.9 27.8 feb 27.94464 83.66071
28.6 29.0 27.9 28.1 27.8 mar 27.6 87.03226
28.4 29.3 30.7 30.7 30.2 apr 28.625 81.58333
may 28.89677 76.09677
jun 28.27333 72.43333
jul 27.8371 68.90323
aug 28.00968 66.09677
a Bulanan Kota Semarang sep 28.75167 66.41667
Agustus September Oktober November Desember okt 29.82258 71.83871
66.1 66.4 71.8 75.4 84.1 nov 30.09333 75.4
78.6 76.3 80.1 82.9 86.7 des 28.62903 84.1129
74.5 75.2 76.9 84.4 84.7
74.1 74.7 81.3 81.5 82.3
68.7 66.4 65.6 70.4 72.2
2020 2021 2022
T RH T RH
jan 27.92258 87.14516 jan 26.92258 88.3871 jan
feb 27.52414 87.81034 feb 26.65893 91.64286 feb
mar 28.09355 86.83871 mar 27.57742 88.79032 mar
apr 28.59278 84.57778 apr 28.30167 82.13333 apr
may 29.02796 82.52151 may 28.99677 79.6129 may
jun 28.77 80.71667 jun 28.33667 78.36667 jun
jul 28.33871 79.54839 jul 28.32903 70.12903 jul
aug 28.68065 78.56452 aug 28.6 74.48387 aug
sep 29.3 76.3 sep 28.75833 75.23333 sep
okt 28.84516 80.12903 okt 29.04516 76.93548 okt
nov 28.64667 82.88333 nov 27.86 84.43333 nov
des 27.53548 86.72581 des 27.79839 84.69355 des
2022 2023
T RH T RH
27.43548 84.12903 jan 27.31613 85.91935
27.3 85.21429 feb 26.83929 86.85714
27.82903 84.6129 mar 27.8871 82.37097
28.26333 80.76667 apr 28.53 80.7
28.72419 79.04839 may 29.25484 74.54839
27.775 79.53333 jun 29.1025 75.43333
28.22419 75.98387 jul 27.89597 74.5
28.59516 74.12903 aug 28.42097 68.72581
29.02333 74.66667 sep 29.30167 66.35
27.92258 81.29032 okt 30.68871 65.59677
28.05 81.5 nov 30.74833 70.41667
27.81935 82.25806 des 30.20968 72.20968
2020-01-01 00:00:00 24.2 31.4 27 88
2020-01-02 00:00:00 24 31 27.4 87 2020
2020-01-03 00:00:00 24.8 32.2 28.4 84 T RH
2020-01-04 00:00:00 22 31.4 27.1 90 jan 27.92258 87.14516
2020-01-05 00:00:00 25.4 30.4 26.8 92 feb 27.52414 87.81034
2020-01-06 00:00:00 24.6 29.6 26.3 92 mar 28.09355 86.83871
2020-01-07 00:00:00 23.6 30.4 26.7 94 apr 28.59278 84.57778
2020-01-08 00:00:00 24.6 30.2 26.9 93 may 29.02796 82.52151
2020-01-09 00:00:00 24.2 30.2 26.4 90 jun 28.77 80.71667
2020-01-10 00:00:00 25.2 29.8 26.9 93 jul 28.33871 79.54839
2020-01-11 00:00:00 24.6 29.4 27.1 89 aug 28.68065 78.56452
2020-01-12 00:00:00 24.2 31.6 27.7 86 sep 29.3 76.3
2020-01-13 00:00:00 24.5 31.1 27.75 86.5 okt 28.84516 80.12903
2020-01-14 00:00:00 24.8 30.6 27.8 87 nov 28.64667 82.88333
2020-01-15 00:00:00 25.4 30.8 27.7 89 des 27.53548 86.72581
2020-01-16 00:00:00 26 31 27.6 91
2020-01-17 00:00:00 24.8 31.8 27.8 88
2020-01-18 00:00:00 24.6 31.8 28.6 82
2020-01-19 00:00:00 26 32.2 29.3 82
2020-01-20 00:00:00 25.4 32.2 29.3 85
2020-01-21 00:00:00 25.4 32.3 29.15 84
2020-01-22 00:00:00 25.4 32.4 29 83
2020-01-23 00:00:00 25.4 33 29.4 80
2020-01-24 00:00:00 25.8 32.2 28.3 86
2020-01-25 00:00:00 26.2 31.4 27.2 92
2020-01-26 00:00:00 24.6 31 27.8 86
2020-01-27 00:00:00 26 31.4 28.9 84
2020-01-28 00:00:00 26 32.2 29 84
2020-01-29 00:00:00 26.4 31.8 29.1 85
2020-01-30 00:00:00 26.2 31.4 28.7 84
2020-01-31 00:00:00 26 32.2 28.5 85
2020-02-01 00:00:00 25 31.8 27.7 88
2020-02-02 00:00:00 25.8 30.6 27 90
2020-02-03 00:00:00 25 31.6 27.2 90
2020-02-04 00:00:00 22.2 31 28.2 85
2020-02-05 00:00:00 25 31.4 27.6 86
2020-02-06 00:00:00 25.2 31 27.8 87
2020-02-07 00:00:00 25 31.2 26.8 89
2020-02-08 00:00:00 22.6 31.6 27.7 85
2020-02-09 00:00:00 24 31.2 27.6 86.5
2020-02-10 00:00:00 25.4 30.8 27.5 88
2020-02-11 00:00:00 24.8 30.6 27.6 87
2020-02-12 00:00:00 24 30.93333 27.96667 84.66667
2020-02-13 00:00:00 23.2 31.26667 28.33333 82.33333
2020-02-14 00:00:00 22.4 31.6 28.7 80
2020-02-15 00:00:00 26.6 31.6 28 90
2020-02-16 00:00:00 25.4 31.6 27.8 87
2020-02-17 00:00:00 25.8 31 27.6 88
2020-02-18 00:00:00 25.6 30.8 27.6 90
2020-02-19 00:00:00 25 30.4 27 90
2020-02-20 00:00:00 24 27.4 25.7 93
2020-02-21 00:00:00 23.8 30.4 27.5 85
2020-02-22 00:00:00 23.2 31 27.7 87
2020-02-23 00:00:00 23 31.2 27.7 90
2020-02-24 00:00:00 22 28.4 26.5 93
2020-02-25 00:00:00 25 31 27.4 88
2020-02-26 00:00:00 26 30.6 28 87
2020-02-27 00:00:00 24.8 31.6 27.6 90
2020-02-28 00:00:00 25.2 31 27.3 90
2020-02-29 00:00:00 25.2 30.8 27.1 90
2020-03-01 00:00:00 24.8 29.8 26.4 94
2020-03-02 00:00:00 25 30.6 27.5 90
2020-03-03 00:00:00 26 31 28.2 89
2020-03-04 00:00:00 25 31 27.1 88
2020-03-05 00:00:00 24.6 31.2 27.2 90
2020-03-06 00:00:00 24.8 31 27.5 88
2020-03-07 00:00:00 25.2 31.2 27.6 89
2020-03-08 00:00:00 25.4 31.4 27 91
2020-03-09 00:00:00 25.4 30.6 27.4 90
2020-03-10 00:00:00 25.2 30.6 27.9 87
2020-03-11 00:00:00 25.4 31.8 28.8 87
2020-03-12 00:00:00 26.6 31.8 28.9 85
2020-03-13 00:00:00 25.6 31.8 28.6 83
2020-03-14 00:00:00 27.2 33 29.3 84
2020-03-15 00:00:00 25.8 32.2 28.8 85
2020-03-16 00:00:00 24 32.8 28.4 86
2020-03-17 00:00:00 25.6 32.2 28.5 88
2020-03-18 00:00:00 25 33.4 28.9 81
2020-03-19 00:00:00 24.4 31.8 26.9 91
2020-03-20 00:00:00 24.6 31.6 27.8 88
2020-03-21 00:00:00 25.2 31.6 28.2 84
2020-03-22 00:00:00 26.2 32 29.1 80
2020-03-23 00:00:00 26.2 32.2 28.8 85
2020-03-24 00:00:00 24.6 31.4 28 84
2020-03-25 00:00:00 25.4 31.8 28.7 85
2020-03-26 00:00:00 26.2 32.8 28.9 84
2020-03-27 00:00:00 25.2 32.6 28.9 84
2020-03-28 00:00:00 26.4 32 28.9 84
2020-03-29 00:00:00 25.8 32.2 28.2 86
2020-03-30 00:00:00 26.6 32 27.7 88
2020-03-31 00:00:00 25.2 31.2 26.8 94
2020-04-01 00:00:00 24.6 31.6 28.3 86
2020-04-02 00:00:00 24.6 32.2 27.8 88
2020-04-03 00:00:00 24.8 32.2 29.1 84
2020-04-04 00:00:00 24.93333 31.93333 28.5 86
2020-04-05 00:00:00 25.06667 31.66667 27.9 88
2020-04-06 00:00:00 25.2 31.4 27.3 90
2020-04-07 00:00:00 24.8 30.6 26.9 90
2020-04-08 00:00:00 24.8 30.8 27.2 88
2020-04-09 00:00:00 25.2 34.2 28.2 84
2020-04-10 00:00:00 25.6 34.4 29 82
2020-04-11 00:00:00 25.2 32 27.1 91
2020-04-12 00:00:00 25 32.6 27.3 89
2020-04-13 00:00:00 23.6 31.6 27.9 87
2020-04-14 00:00:00 22.4 31.6 28.4 84
2020-04-15 00:00:00 25.8 33 29.4 82
2020-04-16 00:00:00 25.75 32.7 29.15 83.75
2020-04-17 00:00:00 25.7 32.4 28.9 85.5
2020-04-18 00:00:00 25.65 32.1 28.65 87.25
2020-04-19 00:00:00 25.6 31.8 28.4 89
2020-04-20 00:00:00 26.4 33.2 29.6 84
2020-04-21 00:00:00 24.6 32.4 28.1 88
2020-04-22 00:00:00 25.4 34.6 29.2 83
2020-04-23 00:00:00 27.6 34.2 30.8 76
2020-04-24 00:00:00 27.4 33.8 29.5 78
2020-04-25 00:00:00 26 33.4 29.1 82
2020-04-26 00:00:00 26.2 32 27.8 88
2020-04-27 00:00:00 25.2 34.2 29.6 79
2020-04-28 00:00:00 25 33.8 29.75 77.5
2020-04-29 00:00:00 24.8 33.4 29.9 76
2020-04-30 00:00:00 24.66667 32.4 29.03333 81.33333
2020-05-01 00:00:00 24.53333 31.4 28.16667 86.66667
2020-05-02 00:00:00 24.4 30.4 27.3 92
2020-05-03 00:00:00 25.2 32.2 28.8 82
2020-05-04 00:00:00 26.2 33.2 29.8 77
2020-05-05 00:00:00 27 33.6 29.9 80
2020-05-06 00:00:00 27.2 33.8 30.3 77
2020-05-07 00:00:00 25.4 34.2 30.3 76
2020-05-08 00:00:00 26.6 34 29.9 78.5
2020-05-09 00:00:00 27.8 33.8 29.5 81
2020-05-10 00:00:00 24.6 33.6 28.8 81
2020-05-11 00:00:00 27.2 33.2 29.1 81
2020-05-12 00:00:00 25.6 33.4 29.2 82
2020-05-13 00:00:00 28 33.8 30.5 76
2020-05-14 00:00:00 27 33.2 29.8 76
2020-05-15 00:00:00 25.8 33.2 28.7 81
2020-05-16 00:00:00 25.6 35 30.1 76
2020-05-17 00:00:00 26.6 35.4 28.9 84
2020-05-18 00:00:00 25.2 32.4 28.5 88
2020-05-19 00:00:00 25.2 33.6 28.2 86
2020-05-20 00:00:00 25.6 33.4 29 87
2020-05-21 00:00:00 24 31.8 28 86
2020-05-22 00:00:00 24.6 32.2 28.4 85.66667
2020-05-23 00:00:00 25.2 32.6 28.8 85.33333
2020-05-24 00:00:00 25.8 33 29.2 85
2020-05-25 00:00:00 24.8 32.2 29.2 83
2020-05-26 00:00:00 26.4 32 28.7 85
2020-05-27 00:00:00 24.6 32.2 28.7 84
2020-05-28 00:00:00 26 30.8 27.7 89
2020-05-29 00:00:00 24.8 32 28 88
2020-05-30 00:00:00 26.4 33.6 29.6 77
2020-05-31 00:00:00 25 33.4 28.8 82
2020-06-01 00:00:00 25.26667 33 28.86667 81.33333
2020-06-02 00:00:00 25.53333 32.6 28.93333 80.66667
2020-06-03 00:00:00 25.8 32.2 29 80
2020-06-04 00:00:00 26.2 33.4 29 81
2020-06-05 00:00:00 25.4 33.4 28.5 83
2020-06-06 00:00:00 25.2 31.6 27.9 86
2020-06-07 00:00:00 25.6 32.2 28.4 82
2020-06-08 00:00:00 25.8 32.4 28.7 83
2020-06-09 00:00:00 26 32.8 29.1 82
2020-06-10 00:00:00 25.6 32.4 29 80
2020-06-11 00:00:00 26 32.2 29 83
2020-06-12 00:00:00 24.4 32.6 28.3 82
2020-06-13 00:00:00 24.93333 33 28.93333 81.33333
2020-06-14 00:00:00 25.46667 33.4 29.56667 80.66667
2020-06-15 00:00:00 26 33.8 30.2 80
2020-06-16 00:00:00 26.6 33.2 28.7 84
2020-06-17 00:00:00 24.2 34 28.6 78
2020-06-18 00:00:00 25.4 33.6 28.8 84
2020-06-19 00:00:00 26.4 33.2 29.4 82
2020-06-20 00:00:00 25.3 33.3 29.15 79.5
2020-06-21 00:00:00 24.2 33.4 28.9 77
2020-06-22 00:00:00 25.8 33.2 29.6 78
2020-06-23 00:00:00 25 33 28.7 78
2020-06-24 00:00:00 24.8 33 28.475 78.5
2020-06-25 00:00:00 24.6 33 28.25 79
2020-06-26 00:00:00 24.4 33 28.025 79.5
2020-06-27 00:00:00 24.2 33 27.8 80
2020-06-28 00:00:00 24.2 33.6 28 82
2020-06-29 00:00:00 24.8 34.2 28.7 76
2020-06-30 00:00:00 24.6 34 28.6 80
2020-07-01 00:00:00 24.8 33.6 27.95 82
2020-07-02 00:00:00 25 33.2 27.3 84
2020-07-03 00:00:00 24 33.2 28.7 82
2020-07-04 00:00:00 24.2 32.2 28.4 79
2020-07-05 00:00:00 25.8 32 28.8 76
2020-07-06 00:00:00 25 32.2 28.25 79
2020-07-07 00:00:00 24.2 32.4 27.7 82
2020-07-08 00:00:00 24.2 32.5 27.85 82
2020-07-09 00:00:00 24.2 32.6 28 82
2020-07-10 00:00:00 25.2 32.6 28.4 85
2020-07-11 00:00:00 24.6 33.4 28 84
2020-07-12 00:00:00 25.3 33.4 28.55 82
2020-07-13 00:00:00 26 33.4 29.1 80
2020-07-14 00:00:00 26.2 34.2 29.2 83
2020-07-15 00:00:00 26.6 31.8 27.9 80
2020-07-16 00:00:00 25.6 33.2 28.8 82
2020-07-17 00:00:00 26.2 33.4 29.4 76
2020-07-18 00:00:00 25.2 33.4 28.8 82
2020-07-19 00:00:00 24.4 33.6 29.1 77
2020-07-20 00:00:00 23.8 33.4 29 82
2020-07-21 00:00:00 26.6 34 28.5 84
2020-07-22 00:00:00 24.8 33.4 28.4 82
2020-07-23 00:00:00 25 33.8 28.4 80
2020-07-24 00:00:00 24.2 33.4 28.2 80
2020-07-25 00:00:00 23.8 33.4 27.8 74
2020-07-26 00:00:00 22 32.6 26.8 75
2020-07-27 00:00:00 23 33.8 28.4 70
2020-07-28 00:00:00 23 33.6 28.2 72
2020-07-29 00:00:00 23.8 33.2 28.5 72
2020-07-30 00:00:00 22.4 31.8 29.3 76
2020-07-31 00:00:00 21.4 31.6 26.8 80
2020-08-01 00:00:00 22.6 32.6 27.25 81
2020-08-02 00:00:00 23.8 33.6 27.7 82
2020-08-03 00:00:00 24.2 33 27.9 80
2020-08-04 00:00:00 25.2 32.8 28.9 80
2020-08-05 00:00:00 25 32.8 28.1 82
2020-08-06 00:00:00 25 34.8 28.3 79
2020-08-07 00:00:00 26.6 32.6 28.7 82
2020-08-08 00:00:00 25.75 33 28.875 80
2020-08-09 00:00:00 24.9 33.4 29.05 78
2020-08-10 00:00:00 24.05 33.8 29.225 76
2020-08-11 00:00:00 23.2 34.2 29.4 74
2020-08-12 00:00:00 25 33.8 28.9 80
2020-08-13 00:00:00 25.8 34.2 28.4 82
2020-08-14 00:00:00 25.2 33.6 28.5 86
2020-08-15 00:00:00 25.6 32.6 29 78
2020-08-16 00:00:00 24.8 33 28.2 87
2020-08-17 00:00:00 25.8 34.2 29.6 75
2020-08-18 00:00:00 25.4 32.2 27.9 85
2020-08-19 00:00:00 25.4 34.6 28.9 81
2020-08-20 00:00:00 24.8 33.8 29.3 75
2020-08-21 00:00:00 26 33.8 29.6 72
2020-08-22 00:00:00 26 34 29.9 71
2020-08-23 00:00:00 25.25 34.25 29.45 72.75
2020-08-24 00:00:00 24.5 34.5 29 74.5
2020-08-25 00:00:00 23.75 34.75 28.55 76.25
2020-08-26 00:00:00 23 35 28.1 78
2020-08-27 00:00:00 21.8 34.2 27.3 80
2020-08-28 00:00:00 24.2 34.2 28.9 76
2020-08-29 00:00:00 25.4 34.2 29.1 78
2020-08-30 00:00:00 24.6 34.8 28.8 80
2020-08-31 00:00:00 24.2 34.6 28.3 74
2020-09-01 00:00:00 23.8 35.4 29.5 72
2020-09-02 00:00:00 24 34 28.8 77
2020-09-03 00:00:00 24.8 34.2 27.9 84
2020-09-04 00:00:00 24 34.2 29.5 79
2020-09-05 00:00:00 25.8 34.2 29.3 79
2020-09-06 00:00:00 24.2 34.8 28.8 76
2020-09-07 00:00:00 25.4 34.8 28.6 82
2020-09-08 00:00:00 25 34.4 29.1 72
2020-09-09 00:00:00 25.4 34.6 29.1 76
2020-09-10 00:00:00 25.2 33.6 29 78
2020-09-11 00:00:00 26 34.4 29.4 73
2020-09-12 00:00:00 24.4 34.2 28.4 80
2020-09-13 00:00:00 26 33.6 29.7 74
2020-09-14 00:00:00 24.8 33.8 28.8 73
2020-09-15 00:00:00 25.4 34.2 29.4 74
2020-09-16 00:00:00 25.6 34.6 29.75 72
2020-09-17 00:00:00 25.8 35 30.1 70
2020-09-18 00:00:00 26 35.4 30.45 68
2020-09-19 00:00:00 26.2 35.8 30.8 66
2020-09-20 00:00:00 27.8 34.4 30.6 70
2020-09-21 00:00:00 26.6 34.4 29.8 77
2020-09-22 00:00:00 24.8 31.6 27 86
2020-09-23 00:00:00 23.6 35 28.7 83
2020-09-24 00:00:00 26.4 35.8 29.8 80
2020-09-25 00:00:00 25.2 35.4 29.4 83
2020-09-26 00:00:00 25 35.4 29.7 74
2020-09-27 00:00:00 25.2 32.8 29 80
2020-09-28 00:00:00 24.6 33.8 29.2 78
2020-09-29 00:00:00 24.93333 34.26667 29.53333 77
2020-09-30 00:00:00 25.26667 34.73333 29.86667 76
2020-10-01 00:00:00 25.6 35.2 30.2 75
2020-10-02 00:00:00 25.2 35 29.4 80
2020-10-03 00:00:00 24.8 35.4 29.1 80
2020-10-04 00:00:00 24.8 34 29.3 72
2020-10-05 00:00:00 25.4 33.6 29.1 77
2020-10-06 00:00:00 25 33.2 28.5 78
2020-10-07 00:00:00 25.4 33.2 28.6 78
2020-10-08 00:00:00 26 34.2 29.8 72
2020-10-09 00:00:00 25.6 33.2 29.1 80
2020-10-10 00:00:00 26.4 33 28.2 81
2020-10-11 00:00:00 25.73333 33.6 28.76667 79.66667
2020-10-12 00:00:00 25.06667 34.2 29.33333 78.33333
2020-10-13 00:00:00 24.4 34.8 29.9 77
2020-10-14 00:00:00 26 36 29.4 77
2020-10-15 00:00:00 24.4 32.8 28.2 83
2020-10-16 00:00:00 23.6 32 28.1 85
2020-10-17 00:00:00 25.6 33 29 81
2020-10-18 00:00:00 25.4 33 28.6 80
2020-10-19 00:00:00 26.6 31.6 28.9 78
2020-10-20 00:00:00 26 33.2 29.6 74
2020-10-21 00:00:00 26.2 33 27.6 87
2020-10-22 00:00:00 25.2 30.6 28.3 86
2020-10-23 00:00:00 25.4 31.4 28.3 84
2020-10-24 00:00:00 25.2 33.4 29.7 80
2020-10-25 00:00:00 25.26667 32.66667 28.83333 82.66667
2020-10-26 00:00:00 25.33333 31.93333 27.96667 85.33333
2020-10-27 00:00:00 25.4 31.2 27.1 88
2020-10-28 00:00:00 24.4 33.6 28.5 81
2020-10-29 00:00:00 25 33.8 30 79
2020-10-30 00:00:00 27.8 31.6 29.5 77
2020-10-31 00:00:00 25.6 30.6 27.3 88
2020-11-01 00:00:00 24.4 30.2 27.3 88
2020-11-02 00:00:00 25.2 30 27.5 87
2020-11-03 00:00:00 25 31.4 27.9 86
2020-11-04 00:00:00 24 33.6 28.9 79
2020-11-05 00:00:00 24.4 33.4 28.8 80
2020-11-06 00:00:00 24.8 33.2 28.7 81
2020-11-07 00:00:00 25.6 33.6 29.8 80
2020-11-08 00:00:00 24.4 34.2 29.5 80
2020-11-09 00:00:00 24.2 33.6 29 83
2020-11-10 00:00:00 25 32.8 29.2 81
2020-11-11 00:00:00 24.6 33 28.8 82
2020-11-12 00:00:00 27 33.8 30.7 74
2020-11-13 00:00:00 27.2 35 31.1 72
2020-11-14 00:00:00 26.6 33.2 30.1 79
2020-11-15 00:00:00 26.2 34.4 29.5 80
2020-11-16 00:00:00 25.6 34.1 29.65 80.5
2020-11-17 00:00:00 25 33.8 29.8 81
2020-11-18 00:00:00 25.2 34.8 27.8 86
2020-11-19 00:00:00 23 35.2 29.4 80
2020-11-20 00:00:00 25.2 32.2 28.7 84
2020-11-21 00:00:00 24.4 31.8 28.9 87
2020-11-22 00:00:00 25.4 32.2 28.3 84
2020-11-23 00:00:00 24.8 30.8 28 86
2020-11-24 00:00:00 24.2 31 27.8 86
2020-11-25 00:00:00 23.6 31.2 27.6 86
2020-11-26 00:00:00 24.4 31.4 27.7 84
2020-11-27 00:00:00 24.8 30.9 27.85 85
2020-11-28 00:00:00 25.2 30.4 28 86
2020-11-29 00:00:00 25 29.6 26 94
2020-11-30 00:00:00 23 30.6 27.1 85
2020-12-01 00:00:00 26 31.8 28.4 83
2020-12-02 00:00:00 25.4 31.4 27.9 85
2020-12-03 00:00:00 23.4 31.6 27.7 88
2020-12-04 00:00:00 26 31.2 28.2 85
2020-12-05 00:00:00 25.2 31.8 28 84
2020-12-06 00:00:00 24.8 31.6 25.9 90
2020-12-07 00:00:00 24 27 25.2 95
2020-12-08 00:00:00 24.4 31.6 28.4 80
2020-12-09 00:00:00 25 30.2 27.9 82
2020-12-10 00:00:00 25.4 30.4 27.4 89
2020-12-11 00:00:00 24.8 30.4 27.6 88
2020-12-12 00:00:00 25.2 31 27.7 88
2020-12-13 00:00:00 24.2 29.6 27 92
2020-12-14 00:00:00 25.2 30.2 26.8 90
2020-12-15 00:00:00 25 30 27.1 89
2020-12-16 00:00:00 24.6 30.8 26.8 90
2020-12-17 00:00:00 25.2 29.6 26.9 90
2020-12-18 00:00:00 24.2 30.4 26.4 90
2020-12-19 00:00:00 23.8 30.2 26.9 86
2020-12-20 00:00:00 24.2 30.4 27.6 84
2020-12-21 00:00:00 23.6 30.4 27.9 85
2020-12-22 00:00:00 23 30.4 28.2 86
2020-12-23 00:00:00 24.2 31 28.3 84.5
2020-12-24 00:00:00 25.4 31.6 28.4 83
2020-12-25 00:00:00 25.2 32.6 28.6 81
2020-12-26 00:00:00 25.4 31.4 28.3 85
2020-12-27 00:00:00 26 31.6 28 85
2020-12-28 00:00:00 25.4 31.4 28.1 86
2020-12-29 00:00:00 26 31 27.7 90
2020-12-30 00:00:00 25 29.8 27 88
2020-12-31 00:00:00 24.8 30.2 27.3 87
2021-01-01 00:00:00 25.6 30 27.6 85
2021-01-02 00:00:00 25 30.4 27.8 84 2021
2021-01-03 00:00:00 24.7 30.7 27.7 84 T
2021-01-04 00:00:00 24.4 31 27.6 84 jan 26.92258
2021-01-05 00:00:00 25.4 30.2 27.1 88 feb 26.65893
2021-01-06 00:00:00 25.8 31.4 28 86 mar 27.57742
2021-01-07 00:00:00 26 29.8 27 88 apr 28.30167
2021-01-08 00:00:00 26 30.6 27.4 87 may 28.99677
2021-01-09 00:00:00 25 30.6 26.8 89 jun 28.33667
2021-01-10 00:00:00 25 30.2 27.6 86 jul 28.32903
2021-01-11 00:00:00 25.2 30 28 88 aug 28.6
2021-01-12 00:00:00 25 30.4 27.9 85 sep 28.75833
2021-01-13 00:00:00 24.6 31.2 27.4 88 okt 29.04516
2021-01-14 00:00:00 25.2 30 26.8 88 nov 27.86
2021-01-15 00:00:00 25 30.4 27.4 87 des 27.79839
2021-01-16 00:00:00 25.2 30.8 27.1 88
2021-01-17 00:00:00 24.6 31.2 26.6 90
2021-01-18 00:00:00 24.8 28.4 25.8 94
2021-01-19 00:00:00 23.4 26.8 24.5 96
2021-01-20 00:00:00 22.4 29.8 27.9 86
2021-01-21 00:00:00 25.6 30.2 27.1 88
2021-01-22 00:00:00 25.4 29.8 26.8 89
2021-01-23 00:00:00 24.93333 30 26.93333 88
2021-01-24 00:00:00 24.46667 30.2 27.06667 87
2021-01-25 00:00:00 24 30.4 27.2 86
2021-01-26 00:00:00 25 30.6 26.6 87
2021-01-27 00:00:00 24.4 30.2 26.1 91
2021-01-28 00:00:00 24.2 30.4 26.4 90
2021-01-29 00:00:00 24.6 27.6 25.6 94
2021-01-30 00:00:00 24.4 26.2 25.3 93
2021-01-31 00:00:00 23.2 29.8 25.5 96
2021-02-01 00:00:00 23.8 30.2 26.8 90
2021-02-02 00:00:00 24.6 30 27 90
2021-02-03 00:00:00 24.2 29.4 26.8 90
2021-02-04 00:00:00 24.35 28.95 26.625 91
2021-02-05 00:00:00 24.5 28.5 26.45 92
2021-02-06 00:00:00 24.65 28.05 26.275 93
2021-02-07 00:00:00 24.8 27.6 26.1 94
2021-02-08 00:00:00 23.8 27.6 25.2 96
2021-02-09 00:00:00 24.7 28.9 26.1 95
2021-02-10 00:00:00 25.6 30.2 27 94
2021-02-11 00:00:00 24.8 31.2 27.3 90
2021-02-12 00:00:00 25 30.8 27.5 91
2021-02-13 00:00:00 24.8 31 27.3 92
2021-02-14 00:00:00 25.8 29.6 27.2 91
2021-02-15 00:00:00 24.2 29.6 27 92
2021-02-16 00:00:00 24.6 29.2 27.4 88
2021-02-17 00:00:00 24.4 29.2 26.7 93
2021-02-18 00:00:00 24.4 29.8 26.8 92
2021-02-19 00:00:00 24 27.4 25 94
2021-02-20 00:00:00 24.2 29.8 25.8 92
2021-02-21 00:00:00 24.6 31.6 27.4 89
2021-02-22 00:00:00 25.6 30.8 27.4 90
2021-02-23 00:00:00 23.8 31.2 26 91
2021-02-24 00:00:00 24.8 30.2 26.7 91
2021-02-25 00:00:00 20.8 28.2 25.2 95
2021-02-26 00:00:00 23.2 30.6 26.4 92
2021-02-27 00:00:00 23.4 31 28 88
2021-02-28 00:00:00 24.8 29.4 27 90
2021-03-01 00:00:00 24.8 30.8 27.5 90
2021-03-02 00:00:00 24.9 30.9 27.4 91.5
2021-03-03 00:00:00 25 31 27.3 93
2021-03-04 00:00:00 25 31.2 26.8 92
2021-03-05 00:00:00 24.8 31.2 27.1 93
2021-03-06 00:00:00 25.6 30.8 27.9 89
2021-03-07 00:00:00 25.4 30.6 26.9 91
2021-03-08 00:00:00 24.2 30.2 27.2 91
2021-03-09 00:00:00 24.2 30.3 27.1 90
2021-03-10 00:00:00 24.2 29.4 26.8 93
2021-03-11 00:00:00 25 30.8 27.6 91
2021-03-12 00:00:00 25.4 31 27.5 91
2021-03-13 00:00:00 25 30.8 26.2 96
2021-03-14 00:00:00 24.2 30.8 26.8 92
2021-03-15 00:00:00 25 29.6 27.2 92
2021-03-16 00:00:00 24 30.2 27.9 92
2021-03-17 00:00:00 23.6 31.6 27.8 86
2021-03-18 00:00:00 25.4 31.6 28.2 85
2021-03-19 00:00:00 26 31.4 28 85
2021-03-20 00:00:00 25.2 31.2 27.7 84
2021-03-21 00:00:00 26 31.2 28.1 84
2021-03-22 00:00:00 25.4 30.6 27.6 86
2021-03-23 00:00:00 25.2 31.2 27.9 85
2021-03-24 00:00:00 26 30.8 28.4 85
2021-03-25 00:00:00 25.8 30.4 27.9 86
2021-03-26 00:00:00 25.8 32 28.3 86
2021-03-27 00:00:00 26.2 31.8 28.4 86
2021-03-28 00:00:00 25.8 32 28.1 86
2021-03-29 00:00:00 25.4 32.2 28.2 86
2021-03-30 00:00:00 24.4 30.8 27.1 90
2021-03-31 00:00:00 25 31.6 28 85
2021-04-01 00:00:00 26.4 31.4 28.3 87
2021-04-02 00:00:00 26 31.4 28.6 86
2021-04-03 00:00:00 25.6 31.6 28.3 83
2021-04-04 00:00:00 25.8 31.2 28.5 83
2021-04-05 00:00:00 26.6 30.8 29.1 78
2021-04-06 00:00:00 25.2 31.6 28.7 84
2021-04-07 00:00:00 23.4 30 27.1 88
2021-04-08 00:00:00 25.6 31.2 27.1 89
2021-04-09 00:00:00 24.4 31.8 28.1 84
2021-04-10 00:00:00 25.6 31.2 28.2 84
2021-04-11 00:00:00 26 32.6 28.7 81
2021-04-12 00:00:00 24.6 31.8 27.5 90
2021-04-13 00:00:00 25.4 30.8 27.8 86
2021-04-14 00:00:00 25.4 30.8 27.6 84
2021-04-15 00:00:00 25.8 32.2 28.5 81
2021-04-16 00:00:00 26.2 32 28.7 79
2021-04-17 00:00:00 25.7 31.7 28.45 80
2021-04-18 00:00:00 25.2 31.4 28.2 81
2021-04-19 00:00:00 24.8 32.6 28.3 84
2021-04-20 00:00:00 25.4 32.6 28.1 82
2021-04-21 00:00:00 23.6 34.4 28 74
2021-04-22 00:00:00 24.8 33.6 28.3 74
2021-04-23 00:00:00 25.4 31.8 28.3 80
2021-04-24 00:00:00 25.2 33.4 28.4 78
2021-04-25 00:00:00 24.8 32.6 28.2 82
2021-04-26 00:00:00 26.4 33.4 29.8 75
2021-04-27 00:00:00 26.8 33.8 29.4 79
2021-04-28 00:00:00 26.2 30.2 28 86
2021-04-29 00:00:00 25.2 32.4 28 82
2021-04-30 00:00:00 24.4 33.2 28.8 80
2021-05-01 00:00:00 25.7 33.7 29.35 80
2021-05-02 00:00:00 27 34.2 29.9 80
2021-05-03 00:00:00 27 33.4 29.9 76
2021-05-04 00:00:00 26.4 34.2 29.7 76
2021-05-05 00:00:00 26.6 32.6 28.7 82
2021-05-06 00:00:00 25.4 33.2 28.4 82
2021-05-07 00:00:00 26.2 31.6 28.2 86
2021-05-08 00:00:00 25.8 31.8 27.9 86
2021-05-09 00:00:00 24.2 33.4 28.6 75
2021-05-10 00:00:00 24.4 33.6 29.4 73
2021-05-11 00:00:00 26.8 34.4 30.8 73
2021-05-12 00:00:00 26.6 34 30.1 75
2021-05-13 00:00:00 25.6 33.6 29.2 77
2021-05-14 00:00:00 25.6 33.6 30.1 75
2021-05-15 00:00:00 26.6 33.4 29 81
2021-05-16 00:00:00 26 33.6 29.6 78
2021-05-17 00:00:00 25.6 33.6 29 80
2021-05-18 00:00:00 25.4 32.2 28.2 84
2021-05-19 00:00:00 25.6 32.2 28.2 84
2021-05-20 00:00:00 26 32.8 27.5 88
2021-05-21 00:00:00 23.4 33.4 28.6 84
2021-05-22 00:00:00 26.6 33.6 28.8 80
2021-05-23 00:00:00 25.6 34.4 28.2 85
2021-05-24 00:00:00 23.4 33.4 28.8 82
2021-05-25 00:00:00 21.8 32.2 28 80
2021-05-26 00:00:00 25.2 32.6 29.2 78
2021-05-27 00:00:00 25.6 32.6 29.8 72
2021-05-28 00:00:00 26.4 32.6 29.7 74
2021-05-29 00:00:00 25.6 32.7 28.85 80
2021-05-30 00:00:00 24.8 32.8 28 86
2021-05-31 00:00:00 26.8 33 29.2 76
2021-06-01 00:00:00 26 32.2 28.5 80
2021-06-02 00:00:00 26.6 32.6 28.8 81
2021-06-03 00:00:00 27.6 33 29.7 77
2021-06-04 00:00:00 27.4 34 30.1 73
2021-06-05 00:00:00 27 33.6 29.8 73
2021-06-06 00:00:00 26.5 32.8 29.2 75
2021-06-07 00:00:00 26 32 28.6 77
2021-06-08 00:00:00 26 32.6 28.7 75
2021-06-09 00:00:00 25.4 32.8 28.4 78
2021-06-10 00:00:00 25.4 33.2 29.1 77
2021-06-11 00:00:00 25.4 33.2 28.4 79
2021-06-12 00:00:00 26 32.8 28.6 76
2021-06-13 00:00:00 26.8 33 29.8 68
2021-06-14 00:00:00 26 32.2 28.4 73
2021-06-15 00:00:00 26.6 32.4 28.5 78
2021-06-16 00:00:00 25.93333 32.46667 28.33333 77.66667
2021-06-17 00:00:00 25.26667 32.53333 28.16667 77.33333
2021-06-18 00:00:00 24.6 32.6 28 77
2021-06-19 00:00:00 24.4 32.8 26.5 88
2021-06-20 00:00:00 24 32.2 27 84
2021-06-21 00:00:00 23.8 31.4 26.7 84
2021-06-22 00:00:00 24.2 32.6 27.9 79
2021-06-23 00:00:00 25 32.2 27.5 82
2021-06-24 00:00:00 25.2 29.4 26.2 87
2021-06-25 00:00:00 24 32.2 27.8 79
2021-06-26 00:00:00 26.4 33.2 28.9 78
2021-06-27 00:00:00 25.6 33.2 28.9 82
2021-06-28 00:00:00 25.6 31.2 27 84
2021-06-29 00:00:00 24 33 28 76
2021-06-30 00:00:00 25.2 32.8 28.6 76
2021-07-01 00:00:00 25.4 32.6 28.6 75
2021-07-02 00:00:00 24.4 32 27.9 75
2021-07-03 00:00:00 25 32.8 28.1 70
2021-07-04 00:00:00 24.2 34 28.6 72
2021-07-05 00:00:00 25 34 28.6 70
2021-07-06 00:00:00 22.6 33.4 28.6 54
2021-07-07 00:00:00 22.4 33.4 27.8 63
2021-07-08 00:00:00 23.6 33.6 27.8 74
2021-07-09 00:00:00 25.4 33.4 28.7 76
2021-07-10 00:00:00 26.6 33.6 29.6 72
2021-07-11 00:00:00 27.4 33.4 29.8 69
2021-07-12 00:00:00 24.4 33 28.3 70
2021-07-13 00:00:00 22.6 34.6 27.9 63
2021-07-14 00:00:00 25 32.6 28.5 66
2021-07-15 00:00:00 24.4 33 28.5 65
2021-07-16 00:00:00 23.2 32 27 69
2021-07-17 00:00:00 22.3 32.8 27.1 74
2021-07-18 00:00:00 25 34.6 28.3 77
2021-07-19 00:00:00 25 33.6 28.6 78
2021-07-20 00:00:00 27 34.4 29.7 72
2021-07-21 00:00:00 26.6 33.4 28.8 70
2021-07-22 00:00:00 26.2 32.6 28.7 77
2021-07-23 00:00:00 25.2 33.5 28.45 77
2021-07-24 00:00:00 24.2 34.4 28.2 77
2021-07-25 00:00:00 22.8 34.6 29.4 58
2021-07-26 00:00:00 22.6 33.2 27.6 67
2021-07-27 00:00:00 20.8 33.6 27.6 62
2021-07-28 00:00:00 20.4 34.2 27.7 62
2021-07-29 00:00:00 22 33.8 27.85 68
2021-07-30 00:00:00 23.6 33.4 28 74
2021-07-31 00:00:00 24 32.4 27.9 78
2021-08-01 00:00:00 24 33.8 28.4 77
2021-08-02 00:00:00 24.6 32.8 27.9 80
2021-08-03 00:00:00 24.4 32.8 27.9 82
2021-08-04 00:00:00 25 34.2 28.6 76
2021-08-05 00:00:00 25.8 33.8 29.1 71
2021-08-06 00:00:00 25.8 33.6 29 66
2021-08-07 00:00:00 24.6 33.4 29.5 72
2021-08-08 00:00:00 26.4 33.6 29.4 74
2021-08-09 00:00:00 26.8 34.8 29.3 76
2021-08-10 00:00:00 26 34 29.2 73
2021-08-11 00:00:00 25.2 34.2 29 63
2021-08-12 00:00:00 23.6 34.8 27.5 75
2021-08-13 00:00:00 24.8 33 28.4 76
2021-08-14 00:00:00 23.8 33.6 28 80
2021-08-15 00:00:00 25 33.8 29 73
2021-08-16 00:00:00 25.2 34.2 28.5 77
2021-08-17 00:00:00 25.4 34.4 29.1 70
2021-08-18 00:00:00 25.2 33.2 28 75
2021-08-19 00:00:00 25.8 31.8 27.6 83
2021-08-20 00:00:00 24 33.6 28.4 73
2021-08-21 00:00:00 25.6 33.4 28.7 72
2021-08-22 00:00:00 23.8 32.8 27.4 82
2021-08-23 00:00:00 24.6 34.6 28.7 78
2021-08-24 00:00:00 24.8 33.8 28.9 70
2021-08-25 00:00:00 22.8 34 28.4 72
2021-08-26 00:00:00 23.2 34.2 28.2 74
2021-08-27 00:00:00 23.4 34.2 28.2 70
2021-08-28 00:00:00 24.2 34.4 28.6 73
2021-08-29 00:00:00 25.2 35 29.3 76
2021-08-30 00:00:00 25 34.4 28.8 77
2021-08-31 00:00:00 25.6 34.8 29.6 73
2021-09-01 00:00:00 25.2 33.8 28.7 77
2021-09-02 00:00:00 25 35 29.2 69
2021-09-03 00:00:00 19 33.4 28.7 71
2021-09-04 00:00:00 24 33 28.6 71
2021-09-05 00:00:00 25.6 32.4 28.4 78
2021-09-06 00:00:00 26 33.8 29.2 75
2021-09-07 00:00:00 27.2 34 29.7 74
2021-09-08 00:00:00 24.6 35.2 28.6 82
2021-09-09 00:00:00 23 33.8 28.1 70
2021-09-10 00:00:00 23 34 28.7 80
2021-09-11 00:00:00 26 31.6 27.8 84
2021-09-12 00:00:00 25.2 33.2 28.6 79
2021-09-13 00:00:00 26.2 33 29.9 74
2021-09-14 00:00:00 27.6 32.2 27.8 82
2021-09-15 00:00:00 24 33.6 28.1 78
2021-09-16 00:00:00 25.2 32.8 28.4 78
2021-09-17 00:00:00 24 35.2 28.3 80
2021-09-18 00:00:00 24.8 35.6 29.5 69
2021-09-19 00:00:00 25.2 35.2 29.5 70
2021-09-20 00:00:00 24.4 33 28.7 72
2021-09-21 00:00:00 24.6 34.2 27.9 78
2021-09-22 00:00:00 23.2 32.8 28.5 70
2021-09-23 00:00:00 26.6 34.2 29.8 67
2021-09-24 00:00:00 26 33.6 29.5 71
2021-09-25 00:00:00 25.1 32.9 28.45 77
2021-09-26 00:00:00 24.2 32.2 27.4 83
2021-09-27 00:00:00 24.8 33.4 28.4 80
2021-09-28 00:00:00 25.2 33.8 28.8 81
2021-09-29 00:00:00 25 35.2 29.4 69
2021-09-30 00:00:00 25.2 35.4 30.1 68
2021-10-01 00:00:00 26.6 33.8 29.8 73
2021-10-02 00:00:00 25.2 32.8 29.1 73
2021-10-03 00:00:00 25.2 32.8 28.8 74
2021-10-04 00:00:00 25.8 32.6 28.5 74
2021-10-05 00:00:00 25.2 32.8 28.6 77
2021-10-06 00:00:00 24.8 32.8 28.8 70
2021-10-07 00:00:00 24.2 33.6 28.2 73
2021-10-08 00:00:00 24.8 33.2 28.3 79
2021-10-09 00:00:00 24.4 32.8 29 75
2021-10-10 00:00:00 25 35.6 29.1 75
2021-10-11 00:00:00 26 34.2 29.6 74
2021-10-12 00:00:00 24.8 36 29.2 71
2021-10-13 00:00:00 25.4 33.4 29.5 71
2021-10-14 00:00:00 25.6 34.8 29.7 69
2021-10-15 00:00:00 26 35 29.6 76
2021-10-16 00:00:00 25.8 35 30.7 72
2021-10-17 00:00:00 26.4 34 29.9 77
2021-10-18 00:00:00 25.4 33.2 28.1 83
2021-10-19 00:00:00 25.2 31.8 28.5 81
2021-10-20 00:00:00 25.8 33 29.5 80
2021-10-21 00:00:00 26 32.6 29.3 82
2021-10-22 00:00:00 24.8 33.2 27.6 86
2021-10-23 00:00:00 25 34.8 29.3 78
2021-10-24 00:00:00 26 32.2 29.1 81
2021-10-25 00:00:00 26 33.2 29.5 80
2021-10-26 00:00:00 23.4 34.6 29.2 76
2021-10-27 00:00:00 26.4 34 29.1 78
2021-10-28 00:00:00 26.2 33.8 29.7 75
2021-10-29 00:00:00 26.4 32.2 28.5 84
2021-10-30 00:00:00 26.4 32 28 84
2021-10-31 00:00:00 26.4 33.4 28.6 84
2021-11-01 00:00:00 25 32.4 28.4 82
2021-11-02 00:00:00 25.4 31.8 27.6 85
2021-11-03 00:00:00 25.2 31.8 28.4 82
2021-11-04 00:00:00 26.2 32.8 27.9 85
2021-11-05 00:00:00 22.8 31.4 28 84
2021-11-06 00:00:00 26.2 32.4 29.8 78
2021-11-07 00:00:00 26.4 32.4 29.4 81
2021-11-08 00:00:00 24.4 32 28.5 83
2021-11-09 00:00:00 26.6 32.2 29 82
2021-11-10 00:00:00 25.4 31.4 27.4 89
2021-11-11 00:00:00 24.8 31 27.9 85
2021-11-12 00:00:00 25.6 30.6 26.9 87
2021-11-13 00:00:00 24.4 31.4 27.8 85
2021-11-14 00:00:00 25.2 31 28 84
2021-11-15 00:00:00 25.4 29.2 26.1 92
2021-11-16 00:00:00 24 30.6 26.8 86
2021-11-17 00:00:00 24.4 32.4 27.9 80
2021-11-18 00:00:00 25.2 32 28.1 81
2021-11-19 00:00:00 26 31.6 28.3 83
2021-11-20 00:00:00 24.8 30 27.1 88
2021-11-21 00:00:00 25.6 31.4 28.2 84
2021-11-22 00:00:00 25.4 30.4 27.7 86
2021-11-23 00:00:00 24.8 31 27.9 86
2021-11-24 00:00:00 25.2 30.6 27.8 84
2021-11-25 00:00:00 26 31.4 27.7 87
2021-11-26 00:00:00 24.8 31.4 27.2 86
2021-11-27 00:00:00 24.2 30.6 27.3 86
2021-11-28 00:00:00 25 28.4 26.8 90
2021-11-29 00:00:00 25 31.4 27.8 82
2021-11-30 00:00:00 25.2 31.4 28.1 80
2021-12-01 00:00:00 23.8 31.4 27.6 79
2021-12-02 00:00:00 25 32.2 28.4 79
2021-12-03 00:00:00 25.6 30.8 28.3 85
2021-12-04 00:00:00 25.4 30.6 27.7 87
2021-12-05 00:00:00 25 30.4 26.9 86
2021-12-06 00:00:00 24.4 30.2 27 91
2021-12-07 00:00:00 24.6 31 27.5 84
2021-12-08 00:00:00 25.6 31.8 28.3 83
2021-12-09 00:00:00 25.8 31.6 28.4 82
2021-12-10 00:00:00 25.8 31 27.5 84
2021-12-11 00:00:00 25 31 27.8 84
2021-12-12 00:00:00 25.4 31.8 29.2 80
2021-12-13 00:00:00 26.4 31.6 28.7 85
2021-12-14 00:00:00 26.4 31.4 28.05 87.5
2021-12-15 00:00:00 26.4 31.2 27.4 90
2021-12-16 00:00:00 24.2 32 27.7 86
2021-12-17 00:00:00 24.6 32 28.3 84
2021-12-18 00:00:00 26.6 31.8 28.3 88
2021-12-19 00:00:00 25.2 32.2 28.5 83
2021-12-20 00:00:00 26.2 31.2 28 85
2021-12-21 00:00:00 25.6 29.4 26.5 90
2021-12-22 00:00:00 23.4 31.2 27.8 84
2021-12-23 00:00:00 25.8 32.2 28.4 80
2021-12-24 00:00:00 24.2 31.2 27.4 86
2021-12-25 00:00:00 26 31.2 27.8 84
2021-12-26 00:00:00 24.8 32 27.3 86
2021-12-27 00:00:00 25 31.2 26.9 86
2021-12-28 00:00:00 23.8 30.8 27.6 84
2021-12-29 00:00:00 25.2 31.2 27.7 84
2021-12-30 00:00:00 25 31 28 83
2021-12-31 00:00:00 25.2 31 26.8 86
RH
88.3871
91.64286
88.79032
82.13333
79.6129
78.36667
70.12903
74.48387
75.23333
76.93548
84.43333
84.69355
2022-01-01 00:00:00 23.4 30.8 27.8 80
2022-01-02 00:00:00 24.6 31.2 27.6 84 2022
2022-01-03 00:00:00 25.4 31.4 28.1 83 T
2022-01-04 00:00:00 24.4 31.8 28.2 78 jan 27.43548
2022-01-05 00:00:00 25.2 30.8 27.8 79 feb 27.3
2022-01-06 00:00:00 25.6 31 27.1 84 mar 27.82903
2022-01-07 00:00:00 23 31 26.9 86 apr 28.26333
2022-01-08 00:00:00 25 30.8 27.7 83 may 28.72419
2022-01-09 00:00:00 26 29.8 27.5 87 jun 27.775
2022-01-10 00:00:00 25.2 31 27.3 87 jul 28.22419
2022-01-11 00:00:00 25.4 31.2 26.8 88 aug 28.59516
2022-01-12 00:00:00 24.4 29.6 26.4 88 sep 29.02333
2022-01-13 00:00:00 25 30.6 26.4 86 okt 27.92258
2022-01-14 00:00:00 24.8 30.2 27.1 83 nov 28.05
2022-01-15 00:00:00 25.2 29 27.1 84 des 27.81935
2022-01-16 00:00:00 25.6 28.8 26.7 89
2022-01-17 00:00:00 25.2 31.6 27.6 83
2022-01-18 00:00:00 22.8 30.8 26.9 86
2022-01-19 00:00:00 24.4 30.4 27.1 86
2022-01-20 00:00:00 24.2 29.8 26.2 91
2022-01-21 00:00:00 23.4 30.6 26.8 86
2022-01-22 00:00:00 25.4 31.4 28.2 82
2022-01-23 00:00:00 25.4 31 27.6 85
2022-01-24 00:00:00 24.8 31.8 28.1 83
2022-01-25 00:00:00 25.4 31.6 28.3 79
2022-01-26 00:00:00 25.2 30.6 27.3 87
2022-01-27 00:00:00 24.8 31.4 27.5 86
2022-01-28 00:00:00 25.4 31.8 27.9 80
2022-01-29 00:00:00 25.6 32 28.2 82
2022-01-30 00:00:00 26 32.4 28.7 81
2022-01-31 00:00:00 25.8 30.4 27.6 82
2022-02-01 00:00:00 25.2 31.8 27.2 86
2022-02-02 00:00:00 23.2 31.2 27.4 86
2022-02-03 00:00:00 25.2 31.8 28.4 80
2022-02-04 00:00:00 25.8 31.6 28 82
2022-02-05 00:00:00 25.4 30.4 26.1 91
2022-02-06 00:00:00 25 30.8 27.3 86
2022-02-07 00:00:00 23.4 28.2 25.3 93
2022-02-08 00:00:00 23.4 30.4 26.9 86
2022-02-09 00:00:00 24.6 31.6 27.2 84
2022-02-10 00:00:00 23.8 30.8 27.2 84
2022-02-11 00:00:00 24.6 31.4 27.9 82
2022-02-12 00:00:00 24.6 30.4 27 89
2022-02-13 00:00:00 24 30.4 26.7 89
2022-02-14 00:00:00 24.2 33.2 27.3 82
2022-02-15 00:00:00 24.2 31.6 27.7 85
2022-02-16 00:00:00 25.8 34.4 28.1 83
2022-02-17 00:00:00 24.4 32.6 27.2 87
2022-02-18 00:00:00 24.2 27 25.5 94
2022-02-19 00:00:00 24 31.2 27.5 82
2022-02-20 00:00:00 25.4 31.6 27.7 86
2022-02-21 00:00:00 23.8 30.6 27.3 83
2022-02-22 00:00:00 23.8 31.6 26.9 85
2022-02-23 00:00:00 23.6 31.2 27.3 83
2022-02-24 00:00:00 24 31.4 27.8 86
2022-02-25 00:00:00 23.8 30.6 27.2 84
2022-02-26 00:00:00 25.4 31.4 28.3 84
2022-02-27 00:00:00 26 31.8 28.8 74
2022-02-28 00:00:00 24.6 29.6 27.2 90
2022-03-01 00:00:00 24.4 31 27.2 86
2022-03-02 00:00:00 24.2 31.6 27.3 88
2022-03-03 00:00:00 24.2 31.2 27.6 85
2022-03-04 00:00:00 25.2 30.8 27.8 84
2022-03-05 00:00:00 25.2 31.2 27.5 90
2022-03-06 00:00:00 25 31.4 27.9 86
2022-03-07 00:00:00 26 31.2 27.1 91
2022-03-08 00:00:00 23.8 31 26.3 89
2022-03-09 00:00:00 24.4 30.8 26.9 90
2022-03-10 00:00:00 24 30.6 27.1 88
2022-03-11 00:00:00 24.4 31 27.7 85
2022-03-12 00:00:00 25 30.6 27.3 90
2022-03-13 00:00:00 25 31.4 28.6 84
2022-03-14 00:00:00 25 32.4 27.2 90
2022-03-15 00:00:00 25.2 30.4 27 94
2022-03-16 00:00:00 24 32 27.5 83
2022-03-17 00:00:00 24.6 31.6 28.2 80
2022-03-18 00:00:00 25.6 32.2 29.2 84
2022-03-19 00:00:00 26.6 32.2 26.8 88
2022-03-20 00:00:00 24.4 32.2 27.9 87
2022-03-21 00:00:00 25 31.4 28.4 81
2022-03-22 00:00:00 25.4 30.6 27.3 86
2022-03-23 00:00:00 25.2 31.8 28.5 85
2022-03-24 00:00:00 24.8 31.6 28.2 84
2022-03-25 00:00:00 25 31.8 28.4 79
2022-03-26 00:00:00 26.2 32.2 28.8 82
2022-03-27 00:00:00 26 31.9 28.6 80
2022-03-28 00:00:00 25.8 31.6 28.4 78
2022-03-29 00:00:00 24.8 32 28.8 76
2022-03-30 00:00:00 25.4 32.6 28.9 76
2022-03-31 00:00:00 24.8 32.6 28.3 74
2022-04-01 00:00:00 24.2 33 28 82
2022-04-02 00:00:00 24.6 32.4 28.3 76
2022-04-03 00:00:00 26.2 32.2 28.1 81
2022-04-04 00:00:00 24.4 32.4 28.3 80
2022-04-05 00:00:00 23.8 32 28.7 80
2022-04-06 00:00:00 25 34.8 28.9 77
2022-04-07 00:00:00 25 32 28 84
2022-04-08 00:00:00 24.8 32 28 78
2022-04-09 00:00:00 25.2 32.8 27.9 81
2022-04-10 00:00:00 25.2 32.4 28.7 78
2022-04-11 00:00:00 25.8 33.6 28.9 82
2022-04-12 00:00:00 24 32.4 28.4 75
2022-04-13 00:00:00 25.2 33.2 28.6 75
2022-04-14 00:00:00 26 32.8 29.3 75
2022-04-15 00:00:00 25.2 33.6 28.9 74
2022-04-16 00:00:00 26.2 33.6 29.5 77
2022-04-17 00:00:00 24.4 34 29 78
2022-04-18 00:00:00 24.8 33 29.1 82
2022-04-19 00:00:00 26 32.4 28 84
2022-04-20 00:00:00 24.4 31.4 27.4 86
2022-04-21 00:00:00 24.8 29.4 25.5 94
2022-04-22 00:00:00 23.6 32.4 28.2 78
2022-04-23 00:00:00 24.8 33.8 27.7 82
2022-04-24 00:00:00 25 32.2 28.5 82
2022-04-25 00:00:00 24.6 32.4 28 84
2022-04-26 00:00:00 24.8 31.6 27.2 90
2022-04-27 00:00:00 25.4 31.6 28 84
2022-04-28 00:00:00 25 31.6 27.7 82
2022-04-29 00:00:00 26 32 28.3 81
2022-04-30 00:00:00 26.4 33.2 28.8 81
2022-05-01 00:00:00 26.1 33.8 29.2 77.5
2022-05-02 00:00:00 25.8 34.4 29.6 74
2022-05-03 00:00:00 25.8 35.2 30.2 70
2022-05-04 00:00:00 26 33.8 28.9 78
2022-05-05 00:00:00 25 33.2 29 76
2022-05-06 00:00:00 25.5 33.5 29.4 76
2022-05-07 00:00:00 26 33.8 29.8 76
2022-05-08 00:00:00 24.6 32.8 28.7 83
2022-05-09 00:00:00 26 32.4 27.5 85
2022-05-10 00:00:00 25 34 29.4 77
2022-05-11 00:00:00 26.4 32.2 29.1 81
2022-05-12 00:00:00 26 32.8 29.2 82
2022-05-13 00:00:00 26.2 32.8 29 82
2022-05-14 00:00:00 26.8 32.6 28.1 84
2022-05-15 00:00:00 25.4 33.2 28.4 85
2022-05-16 00:00:00 26.6 32.8 28.6 83
2022-05-17 00:00:00 22 34.4 28.4 76
2022-05-18 00:00:00 25.2 34.6 28.9 80
2022-05-19 00:00:00 25.8 33.2 28.8 79
2022-05-20 00:00:00 24.2 33.4 28.2 82
2022-05-21 00:00:00 24.8 32.6 27.9 81
2022-05-22 00:00:00 25.6 33 29.2 74
2022-05-23 00:00:00 26.2 32.2 29.1 74
2022-05-24 00:00:00 26.6 33.6 29.5 74
2022-05-25 00:00:00 26.8 31.2 28.4 80
2022-05-26 00:00:00 25 31.5 27.95 81
2022-05-27 00:00:00 23.2 31.8 27.5 82
2022-05-28 00:00:00 25 32.4 28.3 78
2022-05-29 00:00:00 24.8 31.4 27.9 82
2022-05-30 00:00:00 24.2 32 28.1 79
2022-05-31 00:00:00 25 31.8 28.2 79
2022-06-01 00:00:00 25 32.6 28.4 79
2022-06-02 00:00:00 24.8 32.8 28.5 79
2022-06-03 00:00:00 24.4 32.8 27.8 83
2022-06-04 00:00:00 23.8 33.8 27.9 80
2022-06-05 00:00:00 24.6 33 26.9 84
2022-06-06 00:00:00 23 31.4 26.3 88
2022-06-07 00:00:00 23.6 33.6 27.7 80
2022-06-08 00:00:00 25.4 33.2 28.2 80
2022-06-09 00:00:00 24 32.4 27.6 80
2022-06-10 00:00:00 23.8 34.4 28.8 75
2022-06-11 00:00:00 25.4 33.4 28.7 79
2022-06-12 00:00:00 24 32.8 27.9 82
2022-06-13 00:00:00 23.2 32.2 27.5 83
2022-06-14 00:00:00 24.8 33.2 28.3 76
2022-06-15 00:00:00 26 32 28.5 77
2022-06-16 00:00:00 25.4 33 28.5 76
2022-06-17 00:00:00 25 31.2 27.7 80
2022-06-18 00:00:00 22.6 31.6 27.1 82
2022-06-19 00:00:00 23.1 32.9 27.75 80
2022-06-20 00:00:00 23.6 34.2 28.4 78
2022-06-21 00:00:00 24 32.4 27.8 82
2022-06-22 00:00:00 24.6 33.4 28.9 72
2022-06-23 00:00:00 23.2 33.4 27.1 79
2022-06-24 00:00:00 23.6 32 27.5 81
2022-06-25 00:00:00 24 32 27.3 82
2022-06-26 00:00:00 23.8 30.4 26.6 88
2022-06-27 00:00:00 24.6 31.4 27.2 87
2022-06-28 00:00:00 23.4 32.8 27.6 78
2022-06-29 00:00:00 24.8 34.6 28.3 64
2022-06-30 00:00:00 21 32.4 26.5 72
2022-07-01 00:00:00 23.2 33.8 27.9 74
2022-07-02 00:00:00 23.4 34.4 28.9 70
2022-07-03 00:00:00 25 33.2 28.8 80
2022-07-04 00:00:00 26 32.4 28.9 80
2022-07-05 00:00:00 25.6 33.2 28.6 81
2022-07-06 00:00:00 25 32.4 27.3 87
2022-07-07 00:00:00 24.2 33.8 28.6 81
2022-07-08 00:00:00 23.6 34 27.8 75
2022-07-09 00:00:00 21.6 33.4 27.4 65
2022-07-10 00:00:00 22.8 33.8 27.6 71
2022-07-11 00:00:00 24.6 33.4 27.6 78
2022-07-12 00:00:00 25.8 34 29 76
2022-07-13 00:00:00 25.2 32.2 28 86
2022-07-14 00:00:00 24 32.8 27.7 84
2022-07-15 00:00:00 26 33.6 29.2 76
2022-07-16 00:00:00 27 32.4 28.3 79
2022-07-17 00:00:00 23.4 29.6 26.4 86
2022-07-18 00:00:00 24.6 32.6 27.9 80
2022-07-19 00:00:00 24.8 34 28.6 73
2022-07-20 00:00:00 23.4 33.8 28.6 72
2022-07-21 00:00:00 21.2 35.2 28.8 71
2022-07-22 00:00:00 24.2 33.4 29 72
2022-07-23 00:00:00 24.8 33.8 28.2 78
2022-07-24 00:00:00 23.8 33.8 28.5 78
2022-07-25 00:00:00 22.8 33.4 27.75 74.5
2022-07-26 00:00:00 21.8 33 27 71
2022-07-27 00:00:00 24 33.8 28.7 71
2022-07-28 00:00:00 26.2 33.8 29.4 68
2022-07-29 00:00:00 25.6 33.4 29 66
2022-07-30 00:00:00 23.8 32.8 27.7 76
2022-07-31 00:00:00 23.6 33.8 27.8 76
2022-08-01 00:00:00 25.2 33.6 28.5 75
2022-08-02 00:00:00 24.4 33.8 28.8 72
2022-08-03 00:00:00 26.8 33.6 29.7 73
2022-08-04 00:00:00 25 33 28.3 81
2022-08-05 00:00:00 22 32.8 27 78
2022-08-06 00:00:00 23.2 32.2 27.8 75
2022-08-07 00:00:00 23.8 33.2 28.3 80
2022-08-08 00:00:00 23 34.4 28.9 70
2022-08-09 00:00:00 23.8 34.8 28.5 72
2022-08-10 00:00:00 24 34.4 28.5 76
2022-08-11 00:00:00 25.4 34.2 29.4 72
2022-08-12 00:00:00 25.6 33.4 28.5 79
2022-08-13 00:00:00 25.4 34 28.1 82
2022-08-14 00:00:00 22.2 33 27.4 81
2022-08-15 00:00:00 26.2 32 28.8 78
2022-08-16 00:00:00 23.2 33.6 28.9 80
2022-08-17 00:00:00 24.8 33.6 29.3 70
2022-08-18 00:00:00 25 34 28.3 68
2022-08-19 00:00:00 24.2 34.4 29.6 70
2022-08-20 00:00:00 23.8 33.8 28.5 69
2022-08-21 00:00:00 25.6 34 28.6 74
2022-08-22 00:00:00 24.9 34.2 28.7 74
2022-08-23 00:00:00 24.2 34.4 28.8 74
2022-08-24 00:00:00 24 34 29.8 61
2022-08-25 00:00:00 24.2 34 29 64
2022-08-26 00:00:00 24.7 34.3 28.95 69
2022-08-27 00:00:00 25.2 34.6 28.9 74
2022-08-28 00:00:00 23.2 32.8 27.8 76
2022-08-29 00:00:00 22.8 33.8 28.4 68
2022-08-30 00:00:00 23.4 32.8 28.3 78
2022-08-31 00:00:00 24.6 32.6 28.1 85
2022-09-01 00:00:00 25.6 34.4 29.7 71
2022-09-02 00:00:00 26.2 34.2 30.1 72
2022-09-03 00:00:00 25.2 33 28.8 78
2022-09-04 00:00:00 24.4 33.2 28.4 75
2022-09-05 00:00:00 24.8 33.2 28.4 79
2022-09-06 00:00:00 24.8 34 28.9 80
2022-09-07 00:00:00 25.4 35 29.9 73
2022-09-08 00:00:00 24.4 32 27.6 85
2022-09-09 00:00:00 25 32.2 28.3 81
2022-09-10 00:00:00 23.4 32.2 27.7 82
2022-09-11 00:00:00 23.4 33.2 27.8 81
2022-09-12 00:00:00 25 33.2 29.3 74
2022-09-13 00:00:00 24.4 33 29.1 76
2022-09-14 00:00:00 23.8 33.2 28.9 77
2022-09-15 00:00:00 23.6 34.6 28.9 76
2022-09-16 00:00:00 24.8 34.6 29.2 72
2022-09-17 00:00:00 23.6 35.4 29.1 72
2022-09-18 00:00:00 24.6 36 29.9 67
2022-09-19 00:00:00 24 33.4 28.7 71
2022-09-20 00:00:00 24.2 34.2 29 74
2022-09-21 00:00:00 24.8 33.2 28.4 76
2022-09-22 00:00:00 25.4 35.2 28.8 79
2022-09-23 00:00:00 24.4 34.4 28.9 76
2022-09-24 00:00:00 24 34.8 29.1 77
2022-09-25 00:00:00 23.2 35.6 30.1 67
2022-09-26 00:00:00 24.6 34.2 29.8 72
2022-09-27 00:00:00 23.4 35.8 29.6 66
2022-09-28 00:00:00 24.6 35.6 29.5 66
2022-09-29 00:00:00 25.4 34.8 29.5 72
2022-09-30 00:00:00 24.4 33.4 29.3 73
2022-10-01 00:00:00 24.8 34 29.6 74
2022-10-02 00:00:00 26.4 32.8 29 78
2022-10-03 00:00:00 25.4 32.4 28.6 77
2022-10-04 00:00:00 26.2 32.4 28.2 79
2022-10-05 00:00:00 25.6 32.6 28 80
2022-10-06 00:00:00 24.2 33.8 27.5 82
2022-10-07 00:00:00 22.8 32.6 28.2 81
2022-10-08 00:00:00 25.6 33.8 27.8 85
2022-10-09 00:00:00 23.2 32.4 26.7 85
2022-10-10 00:00:00 23.2 32 27 85
2022-10-11 00:00:00 23.8 31.2 27.2 84
2022-10-12 00:00:00 23.4 32.2 26.8 85
2022-10-13 00:00:00 24.2 31.6 27 88
2022-10-14 00:00:00 25 33.8 27.7 84
2022-10-15 00:00:00 24.6 33 27.9 83
2022-10-16 00:00:00 25 34.8 29.5 77
2022-10-17 00:00:00 26 32.2 28.1 83
2022-10-18 00:00:00 25 30.8 27.2 87
2022-10-19 00:00:00 24.4 30.4 27.2 86
2022-10-20 00:00:00 24.4 32.4 29 78
2022-10-21 00:00:00 24.8 30.6 26.7 89
2022-10-22 00:00:00 23.8 30.4 27.8 82
2022-10-23 00:00:00 25.6 31.8 28.6 80
2022-10-24 00:00:00 25.4 31.8 27.1 87
2022-10-25 00:00:00 24.2 30.8 27 85
2022-10-26 00:00:00 23.8 30.8 27.5 85
2022-10-27 00:00:00 24 31.2 27.5 79
2022-10-28 00:00:00 25 32.8 28.9 74
2022-10-29 00:00:00 25.2 32 28.5 75
2022-10-30 00:00:00 24.2 32.2 28.8 71
2022-10-31 00:00:00 24.8 32.2 29 72
2022-11-01 00:00:00 24.2 32 28.2 78
2022-11-02 00:00:00 25.4 33.6 28.4 82
2022-11-03 00:00:00 25.4 32.8 29.2 77
2022-11-04 00:00:00 26.2 34.6 28.6 82
2022-11-05 00:00:00 21.6 32 28.4 82
2022-11-06 00:00:00 24.6 32.4 27.1 88
2022-11-07 00:00:00 23.8 31.4 27.8 78
2022-11-08 00:00:00 24 31.4 27.7 81
2022-11-09 00:00:00 24.8 31.8 28.1 80
2022-11-10 00:00:00 24.4 32 28.6 76
2022-11-11 00:00:00 25.2 32 28.2 83
2022-11-12 00:00:00 25.2 32.4 27.7 86
2022-11-13 00:00:00 24.6 32.8 29.1 80
2022-11-14 00:00:00 25.6 32.8 28.5 84
2022-11-15 00:00:00 25 31.6 28 86
2022-11-16 00:00:00 23 31.4 29 76
2022-11-17 00:00:00 25.4 31.4 27.4 84
2022-11-18 00:00:00 25 31.8 28.4 79
2022-11-19 00:00:00 24 30.4 27 81
2022-11-20 00:00:00 25.2 32.2 29 78
2022-11-21 00:00:00 25 32.8 29 77
2022-11-22 00:00:00 25.2 32.4 27.9 84
2022-11-23 00:00:00 25 31.4 27.6 82
2022-11-24 00:00:00 26.2 31.8 28 82
2022-11-25 00:00:00 25.4 31.4 28.1 78
2022-11-26 00:00:00 25 31.6 27.1 86
2022-11-27 00:00:00 24 31.2 27.2 85
2022-11-28 00:00:00 24 31.8 28.2 78
2022-11-29 00:00:00 25.6 32.6 27.3 84
2022-11-30 00:00:00 24.2 31.4 26.7 88
2022-12-01 00:00:00 24 32.2 28 79
2022-12-02 00:00:00 25 30.2 27.9 80
2022-12-03 00:00:00 25.6 31.8 28.8 78
2022-12-04 00:00:00 24.4 32 27.4 88
2022-12-05 00:00:00 24 32.2 27.8 82
2022-12-06 00:00:00 24.6 32.2 28.7 77
2022-12-07 00:00:00 25.6 31.4 28.5 80
2022-12-08 00:00:00 26.6 31.4 28.5 83
2022-12-09 00:00:00 24.2 33.2 28.5 73
2022-12-10 00:00:00 24 33.2 29.3 75
2022-12-11 00:00:00 24.2 33.4 29 77
2022-12-12 00:00:00 23.2 32.6 28.9 74
2022-12-13 00:00:00 24.6 32.4 28.8 81
2022-12-14 00:00:00 25.6 31.8 28.8 80
2022-12-15 00:00:00 26 32.8 28.1 82
2022-12-16 00:00:00 25 31.6 26.7 88
2022-12-17 00:00:00 22.8 32.4 27.4 84
2022-12-18 00:00:00 24.2 32 28.2 82
2022-12-19 00:00:00 25.4 31 28.8 82
2022-12-20 00:00:00 25.2 32.4 27.7 86
2022-12-21 00:00:00 24.6 32 28.1 83
2022-12-22 00:00:00 25.2 32 28 84
2022-12-23 00:00:00 23.6 31 28.1 78
2022-12-24 00:00:00 25.4 31.6 27.6 83
2022-12-25 00:00:00 24.2 29.8 27.1 86
2022-12-26 00:00:00 24.6 30.6 26.4 84
2022-12-27 00:00:00 22.6 29.6 26.3 87
2022-12-28 00:00:00 23.8 31.6 28.2 78
2022-12-29 00:00:00 24 33.4 26.4 89
2022-12-30 00:00:00 24.2 28.6 25.8 91
2022-12-31 00:00:00 23.6 27 24.6 96
2023-01-01 00:00:00 23 29.6 26.7 83
2023-01-02 00:00:00 23.1 30.2 26.8 84.5
RH 2023-01-03 00:00:00 23.2 30.8 26.9 86
84.12903 2023-01-04 00:00:00 25.2 31.4 27.7 82 jan
85.21429 2023-01-05 00:00:00 24.2 31.6 27.7 83 feb
84.6129 2023-01-06 00:00:00 24.4 31 26.4 88 mar
80.76667 2023-01-07 00:00:00 24.2 31 27.2 87 apr
79.04839 2023-01-08 00:00:00 25.2 31 27.2 88 may
79.53333 2023-01-09 00:00:00 25.2 31.4 28 84 jun
75.98387 2023-01-10 00:00:00 25.4 31.6 27.9 85 jul
74.12903 2023-01-11 00:00:00 25.4 32.2 28.3 85 aug
74.66667 2023-01-12 00:00:00 25 32.2 28.7 80 sep
81.29032 2023-01-13 00:00:00 24.6 31.8 27.4 86 okt
81.5 2023-01-14 00:00:00 24 32 28.4 79 nov
82.25806 2023-01-15 00:00:00 25.8 31.8 28.4 82 des
2023-01-16 00:00:00 23.6 32 28.1 85
2023-01-17 00:00:00 21 29.6 26.9 88
2023-01-18 00:00:00 23.8 30 25.9 90
2023-01-19 00:00:00 24.2 31 26.9 88
2023-01-20 00:00:00 25.2 30 27.3 88
2023-01-21 00:00:00 25 31 27.6 86
2023-01-22 00:00:00 24.8 31 27.6 83
2023-01-23 00:00:00 25.2 31.2 26.7 89
2023-01-24 00:00:00 25 32 27.9 85
2023-01-25 00:00:00 25 30.2 26.4 90
2023-01-26 00:00:00 24.8 31.6 27.5 84
2023-01-27 00:00:00 24.8 30.2 26.7 90
2023-01-28 00:00:00 24.8 27.8 26 93
2023-01-29 00:00:00 23.6 30 26.4 90
2023-01-30 00:00:00 25 31.4 27.9 84
2023-01-31 00:00:00 25.4 31.6 27.3 88
2023-02-01 00:00:00 25 29.8 27 87
2023-02-02 00:00:00 25 30.2 26.5 91
2023-02-03 00:00:00 23.6 29.4 26.7 86
2023-02-04 00:00:00 24.8 31.2 27.2 87
2023-02-05 00:00:00 24.6 30.6 27.6 86
2023-02-06 00:00:00 25.4 30.8 27.4 85
2023-02-07 00:00:00 25.2 31.6 27.2 87
2023-02-08 00:00:00 24.6 30 26.8 90
2023-02-09 00:00:00 25 31 27.2 89
2023-02-10 00:00:00 24.8 31.4 27.6 80
2023-02-11 00:00:00 24 30.4 26.7 88
2023-02-12 00:00:00 24.6 31.6 28.1 82
2023-02-13 00:00:00 24.6 31 26.8 86
2023-02-14 00:00:00 24.6 31 26.7 88
2023-02-15 00:00:00 24.8 31.8 27.2 86
2023-02-16 00:00:00 24.6 31.2 26.4 87
2023-02-17 00:00:00 24.4 31 27.3 87
2023-02-18 00:00:00 25 31 26.6 88
2023-02-19 00:00:00 23.4 31 26.1 88
2023-02-20 00:00:00 24.4 31.2 26.9 86
2023-02-21 00:00:00 24.4 31.4 27.4 84
2023-02-22 00:00:00 24.8 30 26.7 86
2023-02-23 00:00:00 23.4 30.8 26.1 83
2023-02-24 00:00:00 24 31 26.7 86
2023-02-25 00:00:00 24.6 30.2 27.4 85
2023-02-26 00:00:00 24.6 31 26.5 89
2023-02-27 00:00:00 24.2 29.2 25.3 93
2023-02-28 00:00:00 23.6 30.4 25.4 92
2023-03-01 00:00:00 23 30.6 26 86
2023-03-02 00:00:00 24.4 28.2 24.9 94
2023-03-03 00:00:00 23.4 31 26.8 86
2023-03-04 00:00:00 23.9 31.2 27.1 84.5
2023-03-05 00:00:00 24.4 31.4 27.4 83
2023-03-06 00:00:00 24.8 31.4 27.9 81
2023-03-07 00:00:00 25.2 31 27.7 84
2023-03-08 00:00:00 25 31.4 27.9 85
2023-03-09 00:00:00 25.6 31.4 27.9 83
2023-03-10 00:00:00 25 32 28.1 80
2023-03-11 00:00:00 25.6 32.6 28.5 79
2023-03-12 00:00:00 25.4 31.4 28.5 81
2023-03-13 00:00:00 24 31.2 27.4 80
2023-03-14 00:00:00 26 32.2 28.1 81
2023-03-15 00:00:00 23.8 31.8 27.8 81
2023-03-16 00:00:00 25.6 32.4 28.8 80
2023-03-17 00:00:00 25.6 32.2 28.4 80
2023-03-18 00:00:00 25 32.6 28 82
2023-03-19 00:00:00 25.2 33 29 80
2023-03-20 00:00:00 25.8 32 27.9 83
2023-03-21 00:00:00 24.2 33.4 27.9 81
2023-03-22 00:00:00 25.4 32.2 28.4 79
2023-03-23 00:00:00 26 32.2 28.7 82
2023-03-24 00:00:00 25.2 32.4 28.8 79
2023-03-25 00:00:00 26.2 31.6 28.6 84
2023-03-26 00:00:00 24.8 31.8 28.4 82
2023-03-27 00:00:00 24.4 31.6 27.7 84
2023-03-28 00:00:00 25 31.2 27.6 85
2023-03-29 00:00:00 24.6 31.8 27.8 82
2023-03-30 00:00:00 25.4 32.2 28.6 79
2023-03-31 00:00:00 25.4 32.2 27.9 83
2023-04-01 00:00:00 24.6 32 26.5 88
2023-04-02 00:00:00 24 31.6 26.8 82
2023-04-03 00:00:00 24.6 31.6 27.3 87
2023-04-04 00:00:00 24.6 31.6 28.1 80
2023-04-05 00:00:00 24.8 32 27.9 80
2023-04-06 00:00:00 25.6 32.2 27.7 83
2023-04-07 00:00:00 25 32.6 28.1 77
2023-04-08 00:00:00 24.8 31.8 27.2 84
2023-04-09 00:00:00 24 31 27.7 84
2023-04-10 00:00:00 24.4 31.2 27.4 84
2023-04-11 00:00:00 24.6 31.4 28 82
2023-04-12 00:00:00 25.4 32.6 29.1 79
2023-04-13 00:00:00 25 32 28.1 83
2023-04-14 00:00:00 24.8 32.2 28.4 82
2023-04-15 00:00:00 24.8 33 29.1 77
2023-04-16 00:00:00 24.6 32.2 29 77
2023-04-17 00:00:00 26.4 32.2 28.9 80
2023-04-18 00:00:00 27 34.6 29.9 77
2023-04-19 00:00:00 27 34.8 30.1 74
2023-04-20 00:00:00 26.2 33.2 28.8 84
2023-04-21 00:00:00 25.8 33.2 29 82
2023-04-22 00:00:00 26.4 34.2 29.4 77
2023-04-23 00:00:00 26.6 34.6 30.3 74
2023-04-24 00:00:00 27 34.2 29.8 74
2023-04-25 00:00:00 24.4 33.6 28.8 83
2023-04-26 00:00:00 25.4 33.4 29.2 81
2023-04-27 00:00:00 25.4 34.8 29.4 78
2023-04-28 00:00:00 25.2 33.2 29.4 80
2023-04-29 00:00:00 25 31.2 27.8 88
2023-04-30 00:00:00 25.6 32.2 28.7 80
2023-05-01 00:00:00 25.2 32.6 29.1 82
2023-05-02 00:00:00 24.8 33 28.5 83
2023-05-03 00:00:00 25.4 33.8 28.5 84
2023-05-04 00:00:00 25.4 33.6 29.6 78
2023-05-05 00:00:00 25.6 34.8 28 82
2023-05-06 00:00:00 25 33.8 28.9 84
2023-05-07 00:00:00 25 33.4 29.2 79
2023-05-08 00:00:00 26.2 33.2 29.3 81
2023-05-09 00:00:00 26.4 32.8 30.1 79
2023-05-10 00:00:00 27 34 30.4 71
2023-05-11 00:00:00 27.2 30.4 26.8 90
2023-05-12 00:00:00 25.2 35 31.6 68
2023-05-13 00:00:00 26.2 34 29.6 79
2023-05-14 00:00:00 22.2 33.5 30.5 64
2023-05-15 00:00:00 24 33.8 28.7 74
2023-05-16 00:00:00 23.6 33.4 28 72
2023-05-17 00:00:00 22 34.4 29.3 64
2023-05-18 00:00:00 23.4 34.2 29 67
2023-05-19 00:00:00 25 33.8 28.9 68
2023-05-20 00:00:00 25.6 34.2 28.9 74
2023-05-21 00:00:00 25.4 34.2 29 77
2023-05-22 00:00:00 25 33.4 28.7 75
2023-05-23 00:00:00 24.8 33.4 28.5 76
2023-05-24 00:00:00 24.2 34 28.6 76
2023-05-25 00:00:00 24.2 35.2 29.1 74
2023-05-26 00:00:00 24.2 34 30.6 70
2023-05-27 00:00:00 26 33.6 29.7 72
2023-05-28 00:00:00 24.2 33 28.4 72
2023-05-29 00:00:00 24.2 33.6 30.3 65
2023-05-30 00:00:00 25.6 33.8 30.2 66
2023-05-31 00:00:00 25 34.6 30.9 65
2023-06-01 00:00:00 24.8 34.4 28.4 74
2023-06-02 00:00:00 25 35.2 29.7 73
2023-06-03 00:00:00 24.4 34 30.9 71
2023-06-04 00:00:00 25.8 34.4 29.1 76
2023-06-05 00:00:00 25.4 33.6 28.7 81
2023-06-06 00:00:00 25.4 34.2 28.2 79
2023-06-07 00:00:00 25.2 33.6 30.5 69
2023-06-08 00:00:00 25.2 34.4 29.5 74
2023-06-09 00:00:00 25.2 34.8 29.3 76
2023-06-10 00:00:00 24 34.4 28.8 75
2023-06-11 00:00:00 24.4 35.2 29.3 76
2023-06-12 00:00:00 24.8 34.4 31.1 69
2023-06-13 00:00:00 26 33.6 29.5 74
2023-06-14 00:00:00 25.8 34.6 30.7 68
2023-06-15 00:00:00 24.8 33 30 67
2023-06-16 00:00:00 24.76 33.2 29.7 70
2023-06-17 00:00:00 24.72 33.4 29.4 73
2023-06-18 00:00:00 24.68 33.6 29.1 76
2023-06-19 00:00:00 24.64 33.8 28.8 79
2023-06-20 00:00:00 24.6 34 28.5 82
2023-06-21 00:00:00 25.4 35.2 29.3 77
2023-06-22 00:00:00 24 34.4 28.3 76
2023-06-23 00:00:00 25.2 32.8 28.5 76
2023-06-24 00:00:00 25 34.4 28.4 76
2023-06-25 00:00:00 24.8 33.8 27.6 82
2023-06-26 00:00:00 23.6 32 27.3 77
2023-06-27 00:00:00 25.2 33.4 28.6 79
2023-06-28 00:00:00 24.2 34.4 28.3 78
2023-06-29 00:00:00 24.4 34.4 28.9 80
2023-06-30 00:00:00 24.2 34.2 28.675 80
2023-07-01 00:00:00 24 34 28.45 80
2023-07-02 00:00:00 23.8 33.8 28.225 80
2023-07-03 00:00:00 23.6 33.6 28 80
2023-07-04 00:00:00 23.93333 33.66667 28.23333 78.33333
2023-07-05 00:00:00 24.26667 33.73333 28.46667 76.66667
2023-07-06 00:00:00 24.6 33.8 28.7 75
2023-07-07 00:00:00 24.2 31.4 26.9 89
2023-07-08 00:00:00 25 32.6 27.8 83
2023-07-09 00:00:00 24.6 33.8 28.6 78
2023-07-10 00:00:00 24.7 33.1 28.4 77
2023-07-11 00:00:00 24.8 32.4 28.2 76
2023-07-12 00:00:00 22.4 34.2 27.1 82
2023-07-13 00:00:00 22.9 34 27.425 80.25
2023-07-14 00:00:00 23.4 33.8 27.75 78.5
2023-07-15 00:00:00 23.9 33.6 28.075 76.75
2023-07-16 00:00:00 24.4 33.4 28.4 75
2023-07-17 00:00:00 23.2 34 28.2 64
2023-07-18 00:00:00 22.4 34.1 27.65 68
2023-07-19 00:00:00 21.6 34.2 27.1 72
2023-07-20 00:00:00 21.8 34.8 27.2 69
2023-07-21 00:00:00 22.2 33.8 27.9 69
2023-07-22 00:00:00 23 34.6 27.6 66
2023-07-23 00:00:00 24.2 34.2 28.4 72
2023-07-24 00:00:00 24 33.2 28 74
2023-07-25 00:00:00 24.4 33.6 28.4 76
2023-07-26 00:00:00 24 34.8 28 70
2023-07-27 00:00:00 22.2 33.8 27.2 64
2023-07-28 00:00:00 22.2 33.8 27.9 72
2023-07-29 00:00:00 22.4 34.8 27.3 71
2023-07-30 00:00:00 24 34.6 27.5 67
2023-07-31 00:00:00 21.4 34.6 27.7 70
2023-08-01 00:00:00 22 34.75 28.025 70.25
2023-08-02 00:00:00 22.6 34.9 28.35 70.5
2023-08-03 00:00:00 23.2 35.05 28.675 70.75
2023-08-04 00:00:00 23.8 35.2 29 71
2023-08-05 00:00:00 22.4 35.2 28.5 70
2023-08-06 00:00:00 24.2 34.6 28.6 71
2023-08-07 00:00:00 24 35.2 28.8 72
2023-08-08 00:00:00 23.4 33.6 28.2 75
2023-08-09 00:00:00 24.4 33.6 28.1 71
2023-08-10 00:00:00 24.6 33.4 28.1 74
2023-08-11 00:00:00 20.8 33.2 26.3 70
2023-08-12 00:00:00 20.8 34.6 27.7 61
2023-08-13 00:00:00 20.6 34.2 27.9 72
2023-08-14 00:00:00 22.8 35 28.1 70
2023-08-15 00:00:00 24 34.8 27.8 70
2023-08-16 00:00:00 22 34.2 27.4 71
2023-08-17 00:00:00 22.2 34.2 28 66
2023-08-18 00:00:00 22 33.6 27.9 68
2023-08-19 00:00:00 23.6 34.8 28.2 68
2023-08-20 00:00:00 25 35.2 30 60
2023-08-21 00:00:00 23.8 35.2 28.7 66
2023-08-22 00:00:00 25.2 35.2 29.1 68
2023-08-23 00:00:00 23.8 35.4 28.6 68
2023-08-24 00:00:00 24.2 36 29.2 66
2023-08-25 00:00:00 24.2 35.4 28.8 71
2023-08-26 00:00:00 25.2 33.6 28.9 70
2023-08-27 00:00:00 23.7 34.3 28.5 69
2023-08-28 00:00:00 22.2 35 28.1 68
2023-08-29 00:00:00 25 35.6 29.3 62
2023-08-30 00:00:00 24.4 35.2 29.2 61
2023-08-31 00:00:00 24.8 35 29 70
2023-09-01 00:00:00 22.4 34.2 28.3 72
2023-09-02 00:00:00 22.8 34.6 27.9 65
2023-09-03 00:00:00 22.4 34.4 28.5 65
2023-09-04 00:00:00 22.3 35.3 28.65 63.5
2023-09-05 00:00:00 22.2 36.2 28.8 62
2023-09-06 00:00:00 22.4 34.2 28.1 67
2023-09-07 00:00:00 23 34 28.8 69
2023-09-08 00:00:00 24 35.2 28.7 72
2023-09-09 00:00:00 22 35.6 28.6 62
2023-09-10 00:00:00 23.6 36 28.9 65
2023-09-11 00:00:00 23.4 36.6 30.1 62
2023-09-12 00:00:00 24 37.2 30 70
2023-09-13 00:00:00 23.6 35.8 29.5 71
2023-09-14 00:00:00 25.4 36 30.2 66
2023-09-15 00:00:00 22.8 36.4 28.8 68
2023-09-16 00:00:00 25.2 35.2 29.5 72
2023-09-17 00:00:00 26.2 35.6 29.7 71
2023-09-18 00:00:00 25.4 35.2 30.1 69
2023-09-19 00:00:00 23.2 36 28.9 68
2023-09-20 00:00:00 24.4 36.4 29.3 68
2023-09-21 00:00:00 24.8 37.2 29.4 65
2023-09-22 00:00:00 22.2 35.8 29.3 64
2023-09-23 00:00:00 23.4 35.8 29.5 61
2023-09-24 00:00:00 22.6 36.8 29.6 65
2023-09-25 00:00:00 24.8 38 30.4 64
2023-09-26 00:00:00 22 37.8 29.6 59
2023-09-27 00:00:00 22.2 37.8 30 62
2023-09-28 00:00:00 24.2 37.8 30 68
2023-09-29 00:00:00 25.2 38 30.4 66
2023-09-30 00:00:00 25.2 37.4 29.5 69
2023-10-01 00:00:00 24.6 37.05 29.8 67.5
2023-10-02 00:00:00 24 36.7 30.1 66
2023-10-03 00:00:00 24.2 34.8 29.7 66
2023-10-04 00:00:00 25.2 37.2 30.8 65
2023-10-05 00:00:00 24.8 35.8 29.8 72
2023-10-06 00:00:00 25.2 38.6 30.9 66
2023-10-07 00:00:00 25 37 30.6 67
2023-10-08 00:00:00 25.6 37.8 31.2 62
2023-10-09 00:00:00 25.4 36.8 30.55 68
2023-10-10 00:00:00 25.2 35.8 29.9 74
2023-10-11 00:00:00 25.8 35.6 30.3 72
2023-10-12 00:00:00 26 38 30.6 66
2023-10-13 00:00:00 25.8 35.2 30.1 67
2023-10-14 00:00:00 24.4 37.2 30.3 70
2023-10-15 00:00:00 26.6 37.4 32.4 52
2023-10-16 00:00:00 26 37.4 31.6 64
2023-10-17 00:00:00 25 37.8 31.2 61
2023-10-18 00:00:00 24 38.2 30.8 58
2023-10-19 00:00:00 24.8 35.2 30.7 62
2023-10-20 00:00:00 25.6 37.8 31.4 60
2023-10-21 00:00:00 26 33.8 30.4 70
2023-10-22 00:00:00 26.8 35.8 30.6 70
2023-10-23 00:00:00 26.9 35 30.2 70
2023-10-24 00:00:00 27 34.2 29.8 70
2023-10-25 00:00:00 23.8 36 29.8 71
2023-10-26 00:00:00 24.2 35.8 30 72
2023-10-27 00:00:00 25.8 38.2 31.2 62
2023-10-28 00:00:00 24.2 38.8 31 60
2023-10-29 00:00:00 25 38.2 31.4 60
2023-10-30 00:00:00 25.4 37 32.1 61
2023-10-31 00:00:00 26 36.8 32.1 62
2023-11-01 00:00:00 26.2 37 31.6 64
2023-11-02 00:00:00 27 35.6 32.2 61
2023-11-03 00:00:00 25.2 37.2 31.5 63
2023-11-04 00:00:00 25.2 34.6 30 74
2023-11-05 00:00:00 25 36 31.2 69
2023-11-06 00:00:00 26.6 35.4 31.6 68
2023-11-07 00:00:00 26.2 36.4 31.8 61
2023-11-08 00:00:00 26.4 35 31.7 66
2023-11-09 00:00:00 26.4 35.4 30.4 70
2023-11-10 00:00:00 23.4 34.8 30.4 72
2023-11-11 00:00:00 26 35.4 30.8 70
2023-11-12 00:00:00 25.2 36.4 31.6 64
2023-11-13 00:00:00 26.2 35.6 31.2 69
2023-11-14 00:00:00 27.2 36.4 30.9 70
2023-11-15 00:00:00 25.4 34.6 30.9 71
2023-11-16 00:00:00 26.8 34.4 30.8 73
2023-11-17 00:00:00 25.6 34 30.8 74
2023-11-18 00:00:00 25.8 35.2 31.9 65
2023-11-19 00:00:00 25.8 35.4 31.6 62
2023-11-20 00:00:00 26 35.6 31.5 67
2023-11-21 00:00:00 25 36.2 31.4 70
2023-11-22 00:00:00 25.2 37.2 31.9 65
2023-11-23 00:00:00 24.2 31.6 29.3 84
2023-11-24 00:00:00 24.2 31.8 28.8 83
2023-11-25 00:00:00 24.2 32 28.3 82
2023-11-26 00:00:00 24.5 32.7 29.15 77.5
2023-11-27 00:00:00 24.8 33.4 30 73
2023-11-28 00:00:00 23.6 30.8 28.6 82
2023-11-29 00:00:00 25.4 33.8 30 71
2023-11-30 00:00:00 25.8 35.6 30.6 72
2023-12-01 00:00:00 26.2 28.8 26.1 91
2023-12-02 00:00:00 23.8 32 29 80
2023-12-03 00:00:00 25.2 34.8 29.2 79
2023-12-04 00:00:00 24 33.6 28.8 79
2023-12-05 00:00:00 24 32.4 29.6 77
2023-12-06 00:00:00 25.4 32.2 29.6 78
2023-12-07 00:00:00 26.4 32.8 29.9 76
2023-12-08 00:00:00 25.6 32.8 29.8 75
2023-12-09 00:00:00 26.2 32.4 30 77
2023-12-10 00:00:00 25.8 33.4 30.5 73.5
2023-12-11 00:00:00 25.4 34.4 31 70
2023-12-12 00:00:00 25 33.6 30.9 66
2023-12-13 00:00:00 25.6 33.2 30.4 71
2023-12-14 00:00:00 26.6 33.4 30.9 68
2023-12-15 00:00:00 26.6 33.6 30.6 68
2023-12-16 00:00:00 26 33.8 30.9 71
2023-12-17 00:00:00 26 33.8 30.9 68
2023-12-18 00:00:00 25.6 33.6 31.2 67
2023-12-19 00:00:00 25.8 33.8 30.9 65
2023-12-20 00:00:00 25.6 33.8 30.5 66
2023-12-21 00:00:00 24.6 33.2 30.5 65
2023-12-22 00:00:00 25.4 33.6 31.2 66
2023-12-23 00:00:00 26 36 31.8 62
2023-12-24 00:00:00 26 33.6 31.2 68
2023-12-25 00:00:00 25.6 32.2 28.4 80
2023-12-26 00:00:00 25.6 33.4 29.8 70
2023-12-27 00:00:00 26 34 30.9 69
2023-12-28 00:00:00 26.8 36.4 30.5 72
2023-12-29 00:00:00 25.4 36 31.5 69
2023-12-30 00:00:00 24.2 33.2 30 74
2023-12-31 00:00:00 25.8 33.4 30 78
2023
T RH
27.31613 85.91935
26.83929 86.85714
27.8871 82.37097
28.53 80.7
29.25484 74.54839
29.1025 75.43333
27.89597 74.5
28.42097 68.72581
29.30167 66.35
30.68871 65.59677
30.74833 70.41667
30.20968 72.20968

You might also like